Aviation Digital Data Service (ADDS)

Output produced by METARs form (0427 UTC 19 January 2017)
found at http://aviationweather.gov/adds/metars/
 
K04V 190415Z AUTO 35004KT 10SM BKN007 M10/M11 A2998 RMK AO2
K04W 190412Z AUTO 16003KT 4SM BR CLR M01/M02 A2982 RMK AO2
K05U 190415Z AUTO 00000KT 1 1/4SM HZ BKN003 BKN014 OVC021 00/M03 A2985 RMK A01
K08D 190415Z AUTO 21006KT 10SM CLR M01/M03 A2955 RMK AO2
K0A9 190415Z AUTO 00000KT 10SM CLR 03/03 A3014 RMK AO2
K0E0 190415Z AUTO 30009KT 10SM CLR 01/M03 A2996 RMK AO2 T00091035
K0F2 190415Z AUTO 15003KT 1/4SM FG OVC002 07/07 A2998 RMK AO2 T00650065
K0J4 190421Z AUTO 21005KT 1/2SM FG VV001 18/17 A3012 RMK AO2 T01780172 $
K0R4 190415Z AUTO 00000KT 10SM SCT018 BKN050 BKN100 19/18 A3003 RMK AO2 LTG DSNT SW T01880183
K0S9 190415Z AUTO 10008KT A2922 RMK AO2 PWINO
K0V4 190415Z AUTO 00000KT 10SM CLR 07/02 A3008 RMK AO1 T00690015
K0VG 190415Z AUTO 00000KT 9SM CLR 02/02 A3016 RMK AO2
K11R 190415Z AUTO 33004KT 4SM BR OVC004 12/12 A3001 RMK AO2 T01190116
K12N 190354Z AUTO 00000KT 01/01 A3002 RMK AO1 SLP175 T00110011
K14Y 190421Z AUTO 12006KT 3/4SM -SN VV005 M04/M05 A2976 RMK AO2
K18A 190415Z AUTO 00000KT 10SM CLR 14/07 A3007 RMK AO2 T01350066
K1A5 190400Z AUTO 00000KT 10SM CLR 04/01 A3011 RMK AO2 T00400009
K1A6 190415Z AUTO 00000KT 10SM CLR 04/04 A3014 RMK AO2 T00430040
K1A9 190415Z AUTO 00000KT 10SM SCT050 15/15 A3009 RMK AO2 T01470145
K1F0 190415Z AUTO 00000KT 10SM OVC003 08/08 A2998 RMK AO2
K1H2 190415Z AUTO 13004KT 7SM CLR 03/03 A3012 RMK AO2 T00300030
K1J0 190358Z AUTO 00000KT 5SM BR CLR 15/15 A3012 RMK AO2 SLP156 T01500150
K1K1 190415Z AUTO 16004KT 10SM OVC050 07/03 A2991 RMK AO2 T00650030
K1L0 190415Z AUTO 16005KT 7SM BKN010 OVC015 23/22 A3003 RMK AO2 LTG DSNT W T02250215
K1M4 190356Z AUTO 07003KT 10SM SCT041 OVC050 13/11 A3010 RMK AO2 RAE0257 SLP216 T01330106
K1M5 190415Z AUTO 00000KT 10SM CLR 06/05 A3010 RMK A01
K1P1 190415Z AUTO 00000KT 2 1/2SM -SN BKN009 BKN023 OVC039 M02/M03 A3002 RMK AO2 T10221028
K1R7 190415Z AUTO 00000KT 8SM OVC008 20/19 A3004 RMK AO2
K1S5 190435Z AUTO 00000KT 4SM BR M03/M05 A2946 RMK AO2 T10331049
K1V4 190354Z AUTO M01/M02 A2995 RMK AO1 SLP153 T10061022
K1V6 190415Z AUTO 30010KT 10SM CLR 05/M05 A2972 RMK AO2
K1YT 190415Z AUTO 00000KT 1 1/4SM BR BKN002 M01/M02 A2941 RMK AO2 RAE15 CIG 002V013 BKN V SCT $
K20U 190415Z AUTO 23008KT 10SM CLR M01/M05 A2959 RMK AO2
K20V 190415Z AUTO 00000KT 10SM CLR M13/M15 A3000 RMK AO2
K21D 190412Z AUTO 15004KT 5SM BR CLR 00/00 A2985 RMK AO2
K22N 190415Z AUTO 00000KT 5SM BR 03/03 A3003 RMK AO2
K24J 190415Z AUTO 00000KT 9SM CLR 17/17 A3012 RMK A01
K28J 190415Z AUTO 25003KT 10SM CLR 16/16 A3010 RMK AO2
K2A0 190415Z AUTO 00000KT 10SM SCT017 BKN021 07/06 A3009 RMK A01
K2C8 190415Z AUTO 17008KT 10SM M02/M04 A2956 RMK AO2
K2DP 190356Z AUTO 30004KT 10SM CLR 05/04 A3004 RMK AO2 SLPNO T00470043 $
K2F5 190415Z AUTO 19006KT 10SM SCT060 BKN085 OVC110 07/05 A2996 RMK AO2
K2G4 190420Z AUTO 25008G14KT 3/4SM BR 00/00 A3003 RMK AO1
K2G9 190415Z AUTO 26010KT 7SM OVC006 01/00 A3005 RMK AO2
K2I0 190335Z AUTO 00000KT 5SM BR CLR 06/05 A3013 RMK AO2 T00550048
K2P2 190415Z AUTO 22007KT 10SM CLR 01/M01 A2990 RMK AO2 T00051010
K2V5 190335Z AUTO 28005KT 10SM CLR M02/M04 A2973 RMK AO2
K2V6 190414Z AUTO 24009KT 10SM CLR M06/M08 A2970 RMK AO2
K2W6 190423Z AUTO 29003KT 10SM OVC035 08/02 A3006 RMK AO1
K2WX 190356Z AUTO 22003KT 01/M06 A2952 RMK AO1 SLP015 T00111056
K33V 190415Z AUTO 11003KT 10SM M19/M22 A2993 RMK AO2
K36U 190412Z AUTO 00000KT 10SM CLR M13/M15 A2989 RMK AO2
K3AU 190415Z AUTO 14004KT 10SM OVC050 06/03 A2991 RMK AO2
K3D2 190415Z AUTO 23009KT 10SM CLR 01/00 A2990 RMK AO2 T00051005
K3F3 190415Z AUTO 00000KT 2 1/2SM OVC003 14/14 A3001 RMK AO2 LTG DSNT SE T01410140 PWINO
K3I2 190415Z AUTO 00000KT 10SM OVC018 06/03 A3016 RMK AO2 T00550032
K3J7 190415Z AUTO 26003KT 10SM CLR 16/11 A3005 RMK AO2
K3K3 190415Z AUTO 00000KT M1/4SM FZFG OVC001 M01/M01 A2973 RMK AO2
K3LF 190415Z AUTO 13005KT 7SM CLR 03/02 A3007 RMK AO2 T00320022
K3N8 190415Z AUTO 17006KT 10SM CLR M03/M06 A2969 RMK AO2 T10321064
K3T5 190415Z AUTO 34003KT 7SM OVC006 12/11 A3000 RMK AO2 T01210113
K40B 190416Z AUTO VRB04KT M07/M08 A2993 RMK AO1 SLP166 T10691084 58018 P0003
K40J 190420Z AUTO 00000KT 1/2SM FG OVC008 16/16 A3012 RMK AO2 T01610156
K42J 190415Z AUTO 24003KT 8SM CLR 17/17 A3010 RMK AO1 TSNO
K46D 190415Z AUTO 00000KT 10SM CLR 01/M05 A2961 RMK AO2
K46U 190400Z AUTO 00000KT 10SM BKN060 OVC070 M09/M12 A2989 RMK A01
K49A 190415Z AUTO 04004KT 10SM CLR A3013 RMK AO2
K4A6 190415Z AUTO 00000KT 10SM OVC110 11/10 A3012 RMK AO2
K4A9 190415Z AUTO 00000KT 7SM BKN110 09/07 A3011 RMK AO2
K4BM 190355Z AUTO 31008G14KT 10SM BKN110 M02/M16 A2990 RMK AO2
K4I3 190409Z AUTO 23005KT 4SM BR OVC004 02/02 A3012 RMK AO2
K4I7 190415Z AUTO 00000KT 10SM OVC009 02/01 A3013 RMK AO2
K4M9 190415Z AUTO 05007KT 10SM FEW019 OVC043 07/07 A3006 RMK AO2
K4MR 190358Z AUTO 25016G22KT 10SM CLR 06/03 A2988 RMK AO2 SLP111 T00630029 $
K4O4 190415Z AUTO 09007KT 3SM OVC003 08/08 A2999 RMK AO2
K4V0 190415Z AUTO 00000KT 10SM OVC008 M08/M10 A3002 RMK AO2 T10841097
K54J 190415Z AUTO 20003KT 1/2SM FG OVC002 16/16 A3011 RMK AO2 T01630163
K57C 190415Z AUTO 24006KT 5SM BR OVC004 00/M01 A3001 RMK AO2 T00001007
K5A6 190340Z AUTO 00000KT 7SM SCT038 BKN120 15/15 A3005 RMK AO2 T01460146
K5C1 190415Z AUTO 02004KT 10SM OVC008 10/08 A3002 RMK AO1
K5H4 190415Z AUTO 18005KT 10SM M01/M05 A2958 RMK AO2 PWINO PNO
K5M9 190415Z AUTO 00000KT 10SM BKN080 BKN100 BKN120 05/05 A3011 RMK AO2 T00480046
K5R8 190415Z AUTO 00000KT 10SM VCTS SCT120 20/19 A2996 RMK AO2 T01950192
K5SM 190414Z AUTO 23011KT 7SM CLR M09/M10 A3000 RMK AO2 TSNO
K5T9 190415Z AUTO 28003KT 10SM OVC120 10/08 A3003 RMK A01
K65S 190410Z AUTO 00000KT 1/4SM FG OVC003 00/00 A2952 RMK AO2 P0001
K66R 190415Z AUTO 34005KT 10SM OVC005 12/11 A3002 RMK AO2 T01150107
K6A1 190415Z AUTO 28003KT 10SM 18/17 A3011 RMK AO2 T01750173
K6A2 190415Z AUTO 31003KT 10SM CLR 16/16 A3010 RMK AO2
K6B0 190415Z AUTO 16007KT 10SM OVC011 02/01 A2996 RMK AO2 T00180011
K6B9 190415Z AUTO 23004KT 5SM BR OVC015 02/02 A2999 RMK AO2
K6I2 190410Z AUTO 00000KT 10SM CLR 04/02 A3013 RMK AO2
K6L4 190415Z AUTO 00000KT 10SM OVC028 05/03 A3013 RMK AO2
K6R3 190415Z AUTO 32007KT 1SM BR OVC003 15/14 A2998 RMK AO2 T01460141
K6R6 190353Z AUTO 00000KT 07/05 A3000 RMK AO1 SLP152 T00720050
K74V 190415Z AUTO 24005KT 10SM CLR M16/M18 A3008 RMK AO2
K79J 190356Z AUTO 00000KT 10SM CLR 17/16 A3010 RMK AO2 SLP191 T01720156
K7BM 190415Z AUTO 29007KT 250V330 10SM CLR M01/M10 A2988 RMK AO2
K7L2 190355Z AUTO 15005KT 10SM M06/M07 A2964 RMK AO2
K7N0 190356Z AUTO 17006KT 10SM 22/21 A3005 RMK AO2 SLP175 T02220206 PNO $
K7W4 190415Z AUTO 36003KT 10SM CLR 06/02 A3008 RMK AO1 T00600022
K82C 190415Z AUTO 17005KT 7SM OVC008 01/00 A2993 RMK AO2 T00051005
K82V 190415Z AUTO 22006KT 10SM CLR M03/M06 A2970 RMK AO2
K8A0 190415Z AUTO 10004KT 10SM SCT060 OVC080 12/12 A3009 RMK AO2
K8D3 190356Z AUTO 14004KT M03/M04 A2971 RMK AO1 SLP078 T10281044
K8W2 190415Z AUTO 00000KT 10SM SCT037 01/00 A3010 RMK AO1 T00081002
K9A5 190415Z AUTO 00000KT 7SM CLR 10/08 A3012 RMK AO2 T00980076
K9L2 190358Z AUTO 20010KT 8SM -RA SCT070 08/05 A2999 RMK AO2 RAE05RAB53 SLP163 P0000 T00790049
K9MN 190414Z AUTO 16014G19KT 10SM CLR 02/02 A2988 RMK AO1 T00150015
K9V9 190415Z AUTO 15006KT 10SM CLR M01/M03 A2966 RMK AO2 T10141035
KA08 190415Z AUTO 00000KT 7SM CLR 16/16 A3007 RMK AO2 T01600157
KA39 190415Z AUTO 27005KT 10SM CLR 10/03 A3011 RMK AO2
KAAA 190415Z AUTO 17005KT 5SM BR CLR 02/02 A3008 RMK AO2 T00180016
KAAF 190353Z AUTO 00000KT 10SM OVC002 18/18 A3011 RMK AO2 SLP196 T01780178
KAAO 190354Z AUTO 17006KT 10SM OVC055 08/04 A2991 RMK AO2 SLP134 T00780039
KAAT 190411Z AUTO 20012KT 10SM -RA OVC026 03/01 A2960 RMK AO2 P0001 T00280006 TSNO
KABE 190351Z 00000KT 10SM OVC024 06/03 A3003 RMK AO2 SLP171 T00560033
KABH 190356Z AUTO 07003KT CLR A2972 RMK AO2 SLPNO $
KABI 190352Z 19007KT 10SM CLR 06/06 A2999 RMK AO2 SLP153 T00610061
KABQ 190352Z 34007KT 10SM SCT070 05/M01 A3000 RMK AO2 SLP151 T00501006
KABR 190353Z AUTO 01003KT 4SM BR CLR M08/M10 A2969 RMK AO2 SLP077 I1001 T10831100
KABY 190353Z AUTO 00000KT 10SM CLR 14/14 A3013 RMK AO2 SLP202 T01440139
KACB 190415Z AUTO 20006KT 10SM OVC011 02/00 A2996 RMK AO2 T00150000
KACJ 190415Z AUTO 00000KT 10SM CLR 13/13 A3012 RMK AO2
KACK 190353Z AUTO 06006KT 9SM OVC012 05/04 A2995 RMK AO2 RAB0251E00 SLP140 P0000 T00500039
KACP 190415Z AUTO 00000KT 5SM RA OVC007 21/21 A2998 RMK AO2 LTG DSNT S AND SW T02130210
KACQ 190413Z AUTO 18013KT 10SM CLR 02/00 A2986 RMK AO2
KACT 190351Z 00000KT 10SM OVC023 11/10 A3001 RMK AO2 SLP159 T01110100
KACV 190422Z AUTO 18007KT 2SM RA BR OVC005 11/11 A2960 RMK AO2 P0004 T01060106
KACY 190354Z 32004KT 10SM CLR 03/01 A3003 RMK AO2 SLP169 T00280006
KADC 190415Z AUTO 13004KT 10SM CLR M04/M06 A2974 RMK AO2
KADF 190415Z AUTO 01006KT 2SM BR OVC004 08/08 A3002 RMK AO2
KADG 190353Z AUTO 26007KT 9SM OVC006 01/00 A3009 RMK AO2 SLP199 T00060000
KADH 190415Z AUTO 22003KT 10SM OVC004 09/09 A2996 RMK AO2
KADM 190418Z 00000KT 10SM OVC003 10/10 A2998
KADS 190415Z AUTO 18003KT 10SM OVC007 A3001 RMK AO2
KADU 190415Z AUTO 18008KT 10SM CLR 03/01 A2991 RMK AO2
KADW 190358Z AUTO 32008KT 10SM OVC034 08/02 A3005 RMK AO2 SLP183 T00800018
KAEG 190347Z 33005KT 10SM FEW060 01/M02 A3001
KAEJ 190415Z AUTO 22003KT 10SM CLR M14/M16 A2989 RMK AO2 T11401164
KAEL 190415Z AUTO 19007KT 10SM CLR 02/01 A2986 RMK AO2
KAEX 190353Z 00000KT 3SM +RA BR FEW021 BKN042 OVC110 17/17 A2996 RMK AO2 RAB05 SLP150 P0005 T01720172
KAFF 190358Z AUTO 36007KT 10SM CLR M03/M09 A2973 RMK AO2 SLP088 T10331088
KAFJ 190415Z AUTO 24006KT 10SM OVC014 03/02 A3011 RMK AO1
KAFK 190415Z AUTO 19005KT 10SM CLR 02/01 A2991 RMK AO2 T00200014
KAFN 190416Z AUTO 00000KT 2 1/2SM -SN BR OVC004 M02/M03 A2998 RMK AO2 SNB0357 CIG 003V008 P0000 T10171028
KAFO 190415Z AUTO 00000KT 10SM BKN070 M17/M19 A2987 RMK AO2
KAFP 190420Z AUTO 00000KT 10SM CLR 05/02 A3007 RMK AO2 T00510020
KAFW 190353Z 23004KT 7SM MIFG FEW250 BKN270 08/07 A2999 RMK AO2 SLP159 T00830072
KAGC 190404Z VRB04KT 10SM BKN010 03/01 A3010 RMK AO2 T00330011
KAGS 190353Z 00000KT 10SM CLR 14/12 RMK AO2 SLPNO T01440122 $
KAHN 190351Z AUTO 28003KT 10SM CLR 15/09 A3008 RMK AO2 SLP182 T01500089
KAHQ 190415Z AUTO 15006KT 10SM CLR 02/01 A2986 RMK AO2 T00170005
KAIA 190353Z AUTO 00000KT 10SM CLR M06/M07 A2965 RMK AO2 SLP068 T10561067
KAIB 190415Z AUTO 11007KT 10SM CLR 00/M03 A3004 RMK AO2
KAIG 190415Z AUTO 25008KT 7SM CLR M02/M02 A2988 RMK AO2 T10161022
KAIK 190415Z AUTO 00000KT 10SM CLR 13/08 A3009 RMK AO2
KAIO 190415Z AUTO 18010KT 10SM CLR 03/02 A2991 RMK AO2
KAIT 190413Z AUTO 17004KT 10SM CLR 00/M03 A2976 RMK AO2
KAIZ 190356Z AUTO 16008KT 10SM BKN030 BKN043 OVC070 08/04 A3001 RMK AO2 SLP950 T00780044
KAJG 190415Z AUTO 09003KT 7SM CLR 03/02 A3013 RMK AO2 T00260016
KAJO 190356Z AUTO 00000KT OVC080 12/07 A3013 RMK AO2 SLP215 T01220072 PWINO $
KAJR 190415Z AUTO 33003KT 10SM CLR 14/00 A3009 RMK AO2 T01381005
KAJZ 190415Z AUTO 08003KT 10SM CLR 01/M02 A3000 RMK AO2 T00061017
KAKH 190354Z AUTO 36004KT 10SM CLR 09/M01 A3006 RMK AO2 SLP178 T00891006
KAKO 190353Z AUTO 21007KT 10SM CLR 00/M08 A2970 RMK AO2 SLP078 T00001078
KAKQ 190354Z AUTO 00000KT 9SM CLR 04/04 A3005 RMK AO2 SLP178 T00440039
KAKR 190354Z AUTO 24007KT 9SM OVC009 04/02 A3010 RMK AO2 CIG 007V012 SLP200 T00390017
KALB 190403Z 19005KT R01/P6000FT -DZ BR SCT003 OVC017 02/01 A3001 RMK AO2 SFC VIS 3 P0000 T00220011
KALI 190353Z AUTO 29005KT 7SM RA OVC110 14/14 A3000 RMK AO2 RAB07 SLP158 P0005 T01440139
KALK 190356Z AUTO 24009KT 10SM CLR 05/01 A3011 RMK AO2 SLP160 T00500006 $
KALM 190415Z AUTO 17005KT 10SM OVC085 08/03 A3001 RMK AO2
KALN 190415Z AUTO 14004KT 10SM CLR 03/02 A3008 RMK AO2 T00340021
KALO 190354Z 17009KT 8SM CLR 01/00 A2995 RMK AO2 SLP150 T00110000
KALS 190352Z AUTO 00000KT 10SM OVC009 M04/M06 A2997 RMK AO2 SLP172 T10391056
KALW 190353Z AUTO 15023G33KT 10SM -RA OVC055 08/01 A2945 RMK AO2 PK WND 16033/0353 SLP979 P0001 T00780006
KALX 190415Z AUTO 00000KT 5SM BR CLR 15/14 A3010 RMK AO2 T01460139
KAMA 190353Z 20011KT 10SM CLR 06/02 A2983 RMK AO2 SLP097 T00560022
KAMG 190353Z AUTO 00000KT 7SM CLR 14/14 A3009 RMK AO2 SLP186 T01390139
KAMN 190415Z AUTO 23008KT 7SM OVC009 01/00 A3002 RMK AO2 T00110000
KAMW 190425Z AUTO 17008KT 5SM BR SCT005 01/01 A2993 RMK AO2 T00060006
KANB 190353Z AUTO 00000KT 10SM SCT090 13/12 A3012 RMK AO2 SLP198 T01280117
KAND 190356Z AUTO 23004KT 10SM CLR 12/03 A3006 RMK AO2 SLP174 T01220033
KANE 190414Z AUTO 13003KT 4SM BR CLR 01/01 A2983 RMK AO2
KANJ 190355Z AUTO 24007KT 9SM OVC008 02/00 A2989 RMK AO2 SLP127 T00170000
KANK 190415Z AUTO 24005KT 10SM CLR M01/M07 A2994 RMK AO1 T10141071
KANQ 190435Z AUTO 25007KT 7SM OVC004 01/01 A3007 RMK
KANW 190415Z AUTO 18011KT 10SM CLR 02/M01 A2969 RMK AO2 T00151006
KAOH 190353Z AUTO 23009KT 5SM BR OVC003 02/02 A3009 RMK AO2 SLP198 T00220022
KAOO 190353Z AUTO 28004KT 10SM OVC013 03/01 A3005 RMK AO2 SLP187 T00330011
KAPA 190353Z 17005KT 10SM FEW220 M03/M10 A2971 RMK AO2 SLP092 T10281100
KAPC 190406Z 14008KT 9SM -RA FEW018 BKN055 OVC070 12/09 A2973 RMK AO2 P0001 T01170094
KAPF 190353Z AUTO 00000KT 10SM CLR 18/17 A3011 RMK AO2 SLP196 T01780167 $
KAPG 190358Z AUTO 00000KT 10SM OVC032 09/03 A3006 RMK AO2 SLP183 T00850033 $
KAPN 190354Z AUTO 00000KT 10SM OVC019 02/M01 A2995 RMK AO2 SLP151 T00171006
KAPY 190415Z AUTO 00000KT 10SM OVC034 15/13 A3001 RMK AO2 T01550140
KAQO 190415Z AUTO 00000KT 10SM OVC008 11/09 A3005 RMK AO2
KAQP 190415Z AUTO 12005KT 5SM CLR M03/M04 A2974 RMK AO2
KAQR 190415Z AUTO 00000KT 1SM OVC002 09/09 A2998 RMK AO2
KAQV 190356Z AUTO 00000KT 10SM -RA FEW002 OVC065 16/15 A2995 RMK AO2 RAE18B43 SLP141 P0001 T01560150 $
KAQW 190400Z AUTO 14003KT 7SM UP BKN011 BKN016 OVC021 01/00 A2999 RMK AO2 UPB0353 P0000 T00060000
KAQX 190415Z AUTO 00000KT 10SM CLR 16/14 A3004 RMK AO2
KARA 190353Z AUTO 17009KT 8SM OVC005 22/21 A3000 RMK AO2 RAB36E46 SLP160 P0000 T02220206
KARB 190353Z AUTO 20010KT 10SM OVC006 01/00 A3007 RMK AO2 CIG 005V008 SLP189 T00110000
KARG 190415Z AUTO 02006KT 10SM BKN019 OVC032 07/04 A3005 RMK AO1
KARM 190415Z AUTO 33005KT 10SM OVC004 13/12 A3001 RMK AO2 T01260121
KARR 190352Z AUTO 00000KT 3SM BR CLR 00/M01 A3006 RMK AO2 SLP186 T00001011
KART 190403Z AUTO 22004KT 1 1/4SM BR BKN004 BKN008 OVC013 02/02 A2998 RMK AO2 CIG 003V007 T00170017
KARV 190415Z AUTO 21004KT 7SM CLR 00/M01 A2984 RMK AO2 T10011015
KARW 190415Z AUTO 24004KT 10SM CLR 16/14 A3004 RMK AO2
KASD 190353Z AUTO 14004KT 10SM OVC004 21/20 A3004 RMK AO2 SLP172 T02060200
KASE 190353Z 00000KT 10SM CLR M09/M13 A2995 RMK AO2 SLP182 T10941128
KASG 190248Z 12004KT 9SM OVC010 09/09 A3000
KASH 190356Z AUTO 00000KT 8SM OVC008 M01/M01 A3003 RMK AO2 SNE35 CIG 006V011 SLP180 P0001 T10061011 400061006
KASJ 190420Z AUTO 00000KT 7SM 04/04 A3007 RMK AO2 T00400036
KASL 190415Z AUTO 35004KT 2SM OVC002 13/12 A3000 RMK AO1 T01270117
KASN 190415Z AUTO 07003KT 10SM CLR 12/11 A3011 RMK AO2 T01200111
KAST 190355Z AUTO 22007G16KT 4SM RA FEW008 SCT017 OVC034 09/07 A2930 RMK AO2 SLP922 P0017 T00940067
KASW 190415Z AUTO 24006KT 7SM OVC008 01/M02 A3009 RMK AO2
KASX 190353Z AUTO 20006KT 8SM CLR 00/M03 A2983 RMK AO2 SLP112 T00001028 $
KATL 190352Z 29004KT 10SM BKN200 15/11 A3010 RMK AO2 SLP189 T01500111
KATP 190415Z AUTO 15009KT 3SM BR BKN009 BKN013 BKN018 23/23 A3006 RMK A01
KATS 190415Z AUTO 23009KT 10SM BKN095 09/06 A2995 RMK AO2
KATT 190351Z AUTO 00000KT 10SM OVC008 12/11 A3003 RMK AO2 SLP169 T01220106 $
KATW 190415Z AUTO 23007KT 7SM CLR 00/00 A2993 RMK AO2
KATY 190408Z AUTO 16009KT 1/4SM FZFG VV002 M02/M02 A2970 RMK AO2 I1001 T10221022
KAUG 190353Z AUTO 35005KT 10SM OVC022 M06/M08 A3005 RMK AO2 SLP182 T10561083
KAUH 190415Z AUTO 18009KT 10SM CLR 04/02 A2982 RMK AO2 T00370015
KAUM 190417Z AUTO 18008KT 5SM BR CLR 00/M01 A2988 RMK AO2
KAUN 190415Z AUTO 17014G25KT 4SM FEW011 SCT019 BKN026 08/07 A2973 RMK AO1 P0004
KAUO 190356Z AUTO 00000KT 10SM CLR 16/14 A3012 RMK AO2 SLP215 T01560144
KAUS 190353Z 00000KT 1SM R17L/P6000FT BR OVC003 12/12 A3002 RMK AO2 SFC VIS 2 SLP166 T01170117 $
KAUW 190354Z AUTO 00000KT 7SM CLR M01/M02 A2989 RMK AO2 SLP141 T10111022
KAVC 190416Z AUTO 00000KT 10SM CLR 06/03 A3013 RMK AO2 T00560025
KAVK 190415Z AUTO 22011KT 10SM OVC011 08/08 A2990 RMK AO2
KAVL 190354Z 36008KT 10SM CLR 08/01 A3011 RMK AO2 SLP186 T00830011
KAVP 190414Z 00000KT 2SM BR FEW004 SCT011 OVC020 03/03 A3001 RMK AO2 T00280028
KAVQ 190415Z AUTO 00000KT 10SM CLR 08/06 A3007 RMK AO2 T00840056
KAVX 190351Z AUTO 15005KT 10SM -RA OVC070 09/08 A3010 RMK AO2 RAB0259 SLP197 P0000 T00940083 TSNO
KAWG 190415Z AUTO 21006KT M1/4SM FG OVC002 00/00 A3002 RMK AO2
KAWM 190420Z AUTO 06007KT 5SM -RA OVC011 09/ A3001 RMK AO2 P0002 T0094 $
KAXA 190415Z AUTO 18011KT 10SM CLR 02/02 A2986 RMK AO2
KAXH 190415Z AUTO 30004KT 7SM OVC005 13/13 A2999 RMK AO2 T01330126
KAXN 190353Z AUTO 17005KT 7SM CLR M03/M03 A2976 RMK AO2 SLP097 T10281033 $
KAXS 190415Z AUTO 11009KT 1/4SM FG OVC002 07/06 A2994 RMK AO2 T00650055
KAXV 190415Z AUTO 24007KT 5SM BR OVC004 02/02 A3011 RMK AO2
KAXX 190415Z AUTO 26013G19KT 10SM BKN012 BKN017 M04/M06 A2993 RMK AO2 T10361057
KAYS 190415Z AUTO 24004KT 10SM CLR 17/17 A3009 RMK AO2 T01680168
KAZC 190415Z AUTO 00000KT 10SM CLR M01/M02 A3003 RMK AO2
KAZE 190415Z AUTO 00000KT 10SM CLR 15/15 A3009 RMK AO2 T01540154
KAZO 190353Z AUTO 21009KT 7SM OVC008 02/M01 A3006 RMK AO2 SLP189 T00171011
KBAB 190406Z COR AUTO 16024G28KT 6SM -RA BKN027 OVC038 09/09 A2970 RMK AO2 RAB05 $ COR 0418
KBAC 190415Z AUTO 18010KT 10SM CLR M04/M04 A2966 RMK AO2
KBAD 190418Z AUTO 03003KT 1/2SM R33/1400FT FG VV002 13/13 A2997 RMK AO2
KBAF 190353Z AUTO 10003KT 10SM FEW016 BKN028 OVC035 01/01 A3000 RMK AO2 SLP164 T00060006 $
KBAK 190245Z 23004KT 10SM OVC008 03/03 A3015
KBAN 190352Z AUTO 24008G15KT 7SM -SN 02/M01 A2973 RMK AO2 SLP052 P0005 T00171011 $
KBAX 190415Z AUTO 26014G22KT 7SM OVC006 01/01 A2999 RMK AO2 T00100010
KBAZ 190351Z AUTO 36006KT 10SM OVC012 13/10 A3001 RMK AO2 SLP158 T01280100
KBBF 190415Z AUTO 36013KT 10SM BKN009 BKN034 OVC055 A2997 RMK A01
KBBG 190415Z AUTO 12005KT 2SM BR OVC003 05/05 A3001 RMK AO2
KBBP 190415Z AUTO 00000KT 10SM CLR 08/06 A3006 RMK AO2 PWINO
KBBW 190353Z AUTO 18007KT 10SM CLR 03/02 A2975 RMK AO2 SLP093 T00280017
KBCB 190415Z AUTO 24003KT 10SM CLR 04/02 A3014 RMK AO2 T00410023
KBCE 190353Z AUTO 24004KT 10SM CLR M16/M19 A2998 RMK AO2 SLP220 T11611189 TSNO
KBCK 190415Z AUTO 00000KT 1 1/4SM BR VV007 M02/M02 A2992 RMK AO2 T10191019
KBCT 190347Z 00000KT 10SM SCT043 19/18 A3012 RMK LAST
KBDE 190353Z AUTO 18003KT 10SM CLR M01/M05 A2966 RMK AO2 SLP061 T10061050
KBDG 190415Z AUTO 03004KT 10SM CLR M02/M03 A3006 RMK AO1 T10161035
KBDH 190415Z AUTO 11006KT 1SM BR CLR M02/M02 A2978 RMK AO2
KBDL 190351Z 01004KT 10SM FEW008 FEW016 OVC027 01/01 A3002 RMK AO2 SLP168 DZE01 P0000 T00110006
KBDN 190415Z AUTO 21022G32KT 10SM CLR 05/M01 A2940 RMK AO2
KBDR 190352Z AUTO 35005KT 10SM OVC030 04/02 A3003 RMK AO2 SLP168 T00440017
KBDU 190416Z AUTO 03005KT 10SM CLR 03/M08 A2970 RMK AO2
KBEA 190415Z AUTO 06004KT 10SM SCT040 BKN120 14/14 A3001 RMK AO2 T01400140
KBED 190417Z AUTO 01005KT 10SM OVC005 M01/M02 A3001 RMK AO2 T10061022
KBEH 190353Z AUTO 23008KT 10SM OVC011 03/00 A3006 RMK AO2 SLP186 T00280000
KBFD 190353Z AUTO VRB05KT 6SM BR OVC003 01/01 A2999 RMK AO2 SLP171 T00110006
KBFF 190353Z AUTO 00000KT 10SM CLR M01/M05 A2967 RMK AO2 SLP069 T10061050
KBFI 190353Z VRB03KT 6SM RA BR OVC050 08/06 A2926 RMK AO2 SLP907 P0005 T00780061
KBFL 190354Z 08005KT 10SM BKN100 BKN120 10/06 A2993 RMK AO2 RAE15 SLP132 P0001 T01000061
KBFM 190416Z 17003KT 1/4SM FG VV002 19/19 A3010 RMK AO2 T01940194
KBFW 190414Z AUTO 00000KT 10SM CLR M02/M03 A2977 RMK AO2
KBGD 190351Z AUTO 18015G21KT 10SM CLR 08/04 A2979 RMK AO2 SLP082 T00830044
KBGE 190415Z AUTO 00000KT 10SM CLR 15/14 A3011 RMK AO2 PWINO
KBGF 190415Z AUTO 00000KT 10SM CLR 07/06 A3009 RMK
KBGM 190353Z 24005KT 1/4SM BR FG VV002 01/01 A2996 RMK AO2 SLP162 T00060006
KBGR 190353Z 01005KT 10SM FEW041 OVC060 M04/M07 A3006 RMK AO2 SLP184 T10391072
KBHB 190356Z AUTO 36004KT 10SM OVC070 M03/M07 A3006 RMK AO2 SLP184 T10331067 410221061 FZRANO
KBHC 190415Z AUTO 00000KT 7SM CLR 15/15 A3009 RMK AO2 PNO
KBHK 190351Z AUTO 00000KT 10SM CLR M07/M10 A2958 RMK AO2 SLP051 T10721100
KBHM 190353Z 00000KT 10SM BKN055 14/13 A3012 RMK AO2 SLP195 T01440128
KBIE 190415Z AUTO 15007KT 10SM CLR 04/00 A2988 RMK AO2 T00370002
KBIF 190358Z AUTO 27009KT 10SM BKN060 OVC080 12/02 A3003 RMK AO2 SLP152 T01150019
KBIH 190356Z AUTO 27005KT 10SM BKN065 BKN090 03/M03 A2985 RMK AO2 SLP108 T00331033 TSNO
KBIJ 190415Z AUTO 00000KT 10SM CLR 15/14 A3010 RMK AO2
KBIL 190353Z 25015KT 10SM CLR 03/M06 A2959 RMK AO2 SLP036 T00281056
KBIS 190352Z 08004KT 10SM CLR M06/M08 A2961 RMK AO2 SLP052 T10561083
KBIV 190353Z AUTO 22014KT 10SM OVC011 02/00 A3004 RMK AO2 SLP179 T00220000
KBIX 190358Z 13005KT 1SM BR OVC003 20/20 A3007 RMK VIS 1 1/2 RWY03 SLP186 $
KBJC 190345Z 00000KT 30SM SKC 05/M11 A2970
KBJI 190412Z AUTO 16006KT 10SM CLR M02/M05 A2971 RMK AO2 T10161052
KBJJ 190356Z AUTO 24009KT 9SM OVC005 02/01 A3011 RMK AO2 SLP207 T00220011
KBKB 190417Z AUTO 00000KT 10SM SCT011 BKN019 OVC028 18/17 A2994 RMK AO2 RAE16 P0008 T01780172
KBKD 190415Z AUTO 16004KT 10SM CLR 08/08 A2998 RMK AO2 T00780076
KBKE 190411Z AUTO 08012KT 1 1/4SM -SN BR FEW008 OVC013 M03/M04 A2965 RMK AO2 P0000 T10331044
KBKF 190358Z 18008KT 10SM FEW220 00/M09 A2971 RMK AO2A SLP066 T10011088
KBKL 190353Z 23008KT 10SM OVC011 03/02 A3009 RMK AO2 SLP195 T00330017
KBKS 190415Z AUTO 10004KT 7SM SCT050 SCT060 BKN110 15/14 A3001 RMK AO1 T01510141
KBKT 190415Z AUTO 28005KT 10SM CLR 06/01 A3008 RMK AO1 T00620006
KBKV 190353Z 00000KT 10SM CLR 18/14 A3013 RMK AO2 SLPNO T01830144
KBKW 190351Z AUTO 26006KT 10SM OVC007 03/02 A3012 RMK AO2 SLP215 T00330017
KBKX 190356Z AUTO 17007KT 7SM CLR 01/01 A2972 RMK AO2 SLP098 T00110006 FZRANO
KBLF 190352Z AUTO 27004KT 10SM CLR 01/M01 A3012 RMK AO2 SLP209 T00061006
KBLH 190352Z AUTO 23005KT 10SM CLR 14/00 A3004 RMK AO2 SLP170 T01390000
KBLI 190410Z 36005KT 4SM -RA BR FEW003 SCT041 OVC050 08/08 A2921 RMK AO2 P0003 T00780078
KBLM 190356Z AUTO 30003KT 9SM OVC065 04/03 A3004 RMK AO2 SLP178 T00390028
KBLU 190352Z AUTO 17017G33KT -RA OVC003 02/02 A2969 RMK AO2 PK WND 19033/0350 SLP055 P0009 T00170017 TSNO $
KBLV 190358Z AUTO 13003KT 10SM CLR 04/04 A3006 RMK AO2 SLP185 T00440043 $
KBMC 190415Z AUTO 00000KT 5SM M05/M08 A2992 RMK AO1 T10511077
KBMG 190423Z AUTO 20003KT 7SM SCT008 02/01 A3012 RMK AO2 T00220006
KBMI 190356Z 18008KT 4SM BR CLR 00/M01 A3008 RMK AO2 SLP214 T00001006
KBML 190352Z AUTO 35003KT 10SM OVC032 M03/M06 A2996 RMK AO2 SLP162 T10331056
KBMQ 190353Z AUTO 00000KT 10SM OVC004 10/09 A3003 RMK AO2 SLP166 T01000089 $
KBMT 190415Z AUTO 00000KT 5SM BR OVC003 21/20 A2996 RMK AO2 LTG DSNT E T02060196
KBNA 190353Z 05004KT 10SM BKN250 08/05 A3011 RMK AO2 SLP196 T00780050
KBNL 190415Z AUTO 00000KT 10SM CLR 15/15 A3005 RMK AO2
KBNO 190353Z AUTO 07009KT 10SM BKN046 OVC055 00/M01 A2957 RMK AO2 RAE32 SLP030 P0001 T00001011
KBNW 190415Z AUTO 18009KT 6SM BR FEW003 01/01 A2991 RMK AO2
KBOI 190353Z 14017KT 5SM -RA BR OVC041 01/M01 A2972 RMK AO2 RAB15FZRAE15 SLP088 P0008 T00061006 $
KBOK 190356Z AUTO 18006KT 6SM BR OVC009 10/09 A2955 RMK AO2 RAE54 SLP023 P0000 T01000089
KBOS 190354Z 33011KT 8SM BKN005 OVC023 01/00 A3003 RMK AO2 SLP168 T00060000
KBOW 190415Z AUTO 00000KT 10SM OVC039 17/15 A3013 RMK AO2
KBPC 190415Z AUTO 18013G17KT 10SM CLR 07/05 A2979 RMK AO2
KBPG 190415Z AUTO 16008KT 10SM CLR 07/06 A2998 RMK AO2 T00720058
KBPI 190353Z AUTO 32007KT 10SM CLR M21/M22 A2988 RMK AO2 SLP255 T12061222
KBPK 190420Z AUTO 14004KT 4SM BR BKN007 OVC012 06/05 A3003 RMK AO2 T00560050
KBPT 190353Z AUTO 16004KT 5SM BR BKN050 20/19 A2995 RMK AO2 SLP143 T02000189 PWINO
KBQK 190415Z AUTO 25004KT 10SM CLR 17/16 A3008 RMK AO2
KBQP 190415Z AUTO 00000KT 7SM OVC002 13/12 A2998 RMK AO2 T01250122
KBQX 190415Z AUTO 33011KT 9SM OVC006 17/16 A2998 RMK A01
KBRD 190353Z AUTO 17006KT 5SM BR CLR M02/M03 A2977 RMK AO2 SLP099 T10221028
KBRL 190353Z AUTO 18003KT 4SM BR CLR 01/01 A3004 RMK AO2 SLP178 T00060006
KBRO 190353Z 02006KT 10SM OVC022 18/14 A3001 RMK AO2 SLP160 T01830144
KBTA 190415Z AUTO 17005KT 10SM CLR 04/02 A2987 RMK AO2 T00380015
KBTL 190401Z AUTO 22010KT 7SM OVC005 01/00 A3006 RMK AO2 T00060000
KBTM 190353Z AUTO 24005KT 10SM CLR M04/M08 A2962 RMK AO2 SLP072 T10441083
KBTP 190415Z AUTO 23005KT 7SM OVC008 03/01 A3012 RMK AO1
KBTR 190353Z 15011G16KT 10SM BKN011 OVC017 22/21 A3000 RMK AO2 SLP159 T02220206
KBTV 190354Z 18007KT 10SM SCT012 OVC042 02/01 A2994 RMK AO2 SLP141 T00220006
KBUF 190354Z 23015G21KT 2SM -DZ BR OVC003 02/01 A3002 RMK AO2 SLP171 P0000 T00220011
KBUR 190353Z 12008KT 10SM -RA BKN075 OVC100 11/08 A3007 RMK AO2 SLP179 P0003 T01110083
KBUU 190415Z AUTO 23008KT 5SM BR OVC007 07/07 A3002 RMK AO2 T00650065
KBUY 190354Z AUTO 31003KT 10SM CLR 09/03 A3007 RMK AO2 SLP179 T00940028 TSNO
KBVE 190418Z AUTO 12004KT 1/2SM FG VV003 18/18 A3006 RMK AO2 T01830183
KBVI 190047Z 25008KT 10SM OVC010 03/01 A3009
KBVN 190415Z AUTO 14005KT 10SM CLR 02/01 A2980 RMK AO2 T00240014
KBVO 190417Z AUTO 17005KT 7SM OVC005 08/07 A2997 RMK AO2 T00830067 TSNO
KBVS 190415Z AUTO 00000KT 7SM SCT007 BKN041 OVC048 08/07 A2924 RMK A01
KBVU 190415Z AUTO VRB03KT 10SM 12/M05 A2999 RMK AO2
KBVX 190415Z AUTO 00000KT 2SM OVC008 07/05 A3006 RMK AO1
KBVY 190353Z AUTO 35006KT 10SM OVC004 00/M01 A3002 RMK AO2 SLP163 T00001006
KBWD 190415Z AUTO 22005KT 10SM OVC011 10/09 A3001 RMK AO2
KBWG 190353Z AUTO 00000KT 8SM CLR 06/04 A3013 RMK AO2 SLP204 T00610039
KBWI 190354Z 30007KT 10SM OVC033 08/03 A3006 RMK AO2 SLP179 T00780028
KBWP 190415Z AUTO 13006KT 10SM CLR M03/M05 A2972 RMK AO1
KBWW 190415Z AUTO 21009KT 10SM CLR 02/M06 A2947 RMK AO2
KBXA 190415Z AUTO 16005KT 10SM OVC005 21/19 A3006 RMK AO2 T02130190
KBXK 190415Z AUTO 01005KT 10SM 09/08 A3006 RMK AO1
KBYG 190353Z AUTO 32009KT 10SM CLR 07/M08 A2965 RMK AO2 SLP040 T00671078
KBYH 182250Z 08004KT 10SM BKN015 BKN070 OVC150 09/06 A3010 RMK LAST
KBYI 190353Z AUTO 09007KT 5SM FZRA OVC036 00/M03 A2977 RMK AO2 UPE11RAB11E20FZRAB20 SLP104 P0006 I1003 T00001028
KBYL 190415Z AUTO 00000KT 10SM CLR 04/04 A3012 RMK AO1
KBYS 190355Z AUTO 23010G15KT 10SM -SHRA BKN055 09/01 A3003 RMK AO2 RAB0304E0311SHRAB0311 SLP196 WND DATA ESTMD P0000 T00910010 $
KBYY 190415Z AUTO 31005KT 4SM BR OVC002 14/14 A3000 RMK AO2 T01440144
KBZN 190356Z 15009KT 10SM CLR M10/M13 A2964 RMK AO2 SLP109 T11001128
KC07 190415Z AUTO 29010G21KT 10SM CLR M09/M10 A2991 RMK AO2
KC09 190415Z AUTO 00000KT 4SM BR CLR 00/M01 A3006 RMK AO2 T00001006
KC29 190415Z AUTO 23007KT 3SM OVC004 01/01 A3000 RMK AO1 T00100010
KC35 190415Z AUTO 22009G14KT 5SM BR OVC006 00/00 A2996 RMK AO2 T00000000
KC62 190415Z AUTO 24006KT 4SM BR OVC004 00/00 A3009 RMK AO2 T00050005
KC75 190415Z AUTO 16003KT 4SM BR CLR M01/M01 A3005 RMK AO2 T10071007
KCAD 190414Z AUTO 23011G15KT 7SM OVC005 00/00 A2994 RMK AO2 T00011005
KCAE 190356Z 00000KT 10SM CLR 13/07 A3004 RMK AO2 SLP171 T01330072
KCAG 190353Z AUTO 00000KT 10SM BKN007 M14/M16 A3000 RMK AO2 SLP258 T11391161
KCAK 190351Z 26009KT 7SM OVC008 03/01 A3010 RMK AO2 SLP203 T00330006
KCAO 190355Z AUTO 26008KT 10SM CLR 02/M02 A2974 RMK AO2 SLP070 T00171017
KCAR 190425Z AUTO 15007KT 10SM OVC029 M07/M12 A3000 RMK AO2 T10721122
KCAV 190415Z AUTO 17013KT 8SM CLR 01/01 A2989 RMK AO2 PWINO
KCBE 190424Z AUTO 00000KT 10SM OVC026 06/01 A3013 RMK AO1
KCBF 190415Z AUTO 15011KT 10SM CLR 02/02 A2988 RMK AO2
KCBG 190415Z AUTO 13003KT 5SM HZ CLR 01/M03 A2980 RMK AO2
KCBK 190415Z AUTO 00000KT 1/4SM FG OVC002 00/00 A2977 RMK AO2
KCBM 190055Z 00000KT 10SM BKN034 OVC055 18/14 A3009 RMK A02A SLP193 ALSTG/SLP ESTMD LAST
KCCA 190415Z AUTO 00000KT 1SM BR OVC003 07/07 A3004 RMK AO2
KCCO 190415Z AUTO 00000KT 10SM CLR 15/15 A3011 RMK AO2 T01460146
KCCR 190353Z 21017KT 3SM RA FEW023 OVC045 12/09 A2977 RMK AO2 SLP066 P0017 T01170089
KCCU 190415Z AUTO 27006KT 10SM CLR M04/M12 A2994 RMK AO2
KCCY 190415Z AUTO 17011KT 5SM BR BKN003 01/01 A2992 RMK AO2
KCDA 190415Z AUTO 15004KT 4SM -SN SCT012 BKN021 OVC029 M02/M02 A2994 RMK AO2 T10181025
KCDC 190353Z AUTO 22010KT 10SM CLR 04/M09 A2992 RMK AO2 PK WND 21028/0254 SLP143 T00391089
KCDD 190407Z AUTO 00000KT 10SM CLR M06/M06 A2975 RMK AO2
KCDH 190415Z AUTO 36004KT 1SM BR OVC001 10/09 A3000 RMK AO2
KCDJ 190352Z AUTO 00000KT 02/01 A3000 RMK AO1 SLP170 T00170011
KCDN 190415Z AUTO 00000KT 10SM CLR 08/05 A3006 RMK AO2
KCDR 190353Z AUTO 24005KT 10SM CLR M04/M07 A2962 RMK AO2 SLP075 T10391067
KCDS 190353Z AUTO 17010KT 10SM CLR 08/06 A2989 RMK AO2 SLP121 T00780056
KCDW 190353Z 00000KT 9SM FEW037 SCT047 OVC065 03/02 A3003 RMK AO2 RAB15E31 SLP175 P0000 T00330022
KCEC 190423Z AUTO 19013KT 6SM BR SCT014 BKN026 OVC050 11/09 A2957 RMK AO2 T01060094
KCEF 190410Z AUTO 00000KT 10SM OVC014 00/00 A3000 RMK AO2 $
KCEU 190354Z AUTO 00000KT 10SM CLR 15/03 A3007 RMK AO2 SLP176 T01500028
KCEW 190353Z AUTO 19003KT 1/4SM FG VV001 17/17 A3012 RMK AO2 SLP197 T01720167
KCEY 190155Z AUTO 10003KT 10SM FEW012 07/06 A3011 RMK AO1
KCEZ 190353Z AUTO 06006KT 10SM CLR M03/M04 A3002 RMK AO2 SLP173 T10281039
KCFD 190415Z AUTO 31004KT 3SM BR OVC002 11/11 A3001 RMK AO2 T01050105
KCFE 190414Z AUTO 00000KT 1/4SM FZFG VV002 M02/M03 A2982 RMK AO2 T10201026
KCFJ 190415Z AUTO 21007KT 7SM OVC009 01/01 A3011 RMK AO2 T00110011
KCFS 190414Z AUTO 23014G18KT 7SM OVC008 01/00 A3000 RMK AO2 T00130003
KCFV 190352Z AUTO 14004KT 10SM OVC008 09/07 A2996 RMK AO2 SLP147 T00890072
KCGC 190415Z AUTO 00000KT 10SM CLR 15/13 A3011 RMK AO2
KCGE 190419Z AUTO 32005KT 10SM OVC036 08/03 A3005 RMK AO1
KCGF 190345Z 26012KT 4SM BR BKN006 OVC012 04/03 A3009
KCGI 190353Z AUTO 00000KT 10SM FEW085 06/03 A3009 RMK AO2 SLP192 T00610033
KCGS 190424Z AUTO 31006KT 10SM OVC034 07/01 A3006 RMK AO1
KCGZ 190356Z AUTO 01004KT 10SM CLR 11/05 A3006 RMK AO2 SLP181 T01060050 $
KCHA 190353Z 00000KT 10SM SCT210 BKN250 11/07 A3010 RMK AO2 SLP193 T01110072
KCHD 190347Z 23005KT 10SM CLR 12/05 A3005 RMK LAST
KCHK 190415Z AUTO 18008KT OVC007 09/08 A2994 RMK AO2 PWINO
KCHO 190353Z AUTO 07003KT 10SM CLR 07/02 A3008 RMK AO2 SLP185 T00720017
KCHS 190356Z 27005KT 10SM CLR 18/14 A3003 RMK AO2 SLP168 T01780144
KCIC 190415Z AUTO 15018G22KT 7SM BKN009 OVC014 08/08 A2974 RMK AO1 P0003
KCID 190404Z 17007KT 2 1/2SM BR CLR 00/M01 A2998 RMK AO2 T00001006
KCIN 190415Z AUTO VRB03KT 10SM CLR 02/02 A2989 RMK AO2
KCIR 190415Z AUTO 35003KT 10SM SCT060 06/05 A3009 RMK AO2 T00620050
KCIU 190356Z AUTO 24006KT 10SM OVC009 02/01 A2990 RMK AO2 SLP154 T00170006 FZRANO
KCJR 190415Z AUTO 00000KT 10SM CLR 04/02 A3010 RMK AO2 T00440018
KCKB 190353Z 23007KT 10SM OVC019 04/02 A3013 RMK AO2 SLP203 T00440017
KCKC 190414Z AUTO 00000KT 10SM CLR M04/M07 A2977 RMK AO2
KCKF 190415Z AUTO 00000KT 10SM CLR 16/14 A3012 RMK AO2 T01640144
KCKI 190415Z AUTO 00000KT 10SM CLR 09/08 A3004 RMK AO2
KCKM 190415Z AUTO 13009KT 10SM FEW006 FEW036 SCT045 13/13 A2998 RMK A01
KCKN 190415Z AUTO 19015KT 10SM CLR M01/M03 A2967 RMK AO2
KCKP 190415Z AUTO 18010KT 10SM CLR 03/02 A2984 RMK AO2 T00280022
KCKV 190352Z AUTO 12004KT 10SM OVC090 07/04 A3009 RMK AO2 SLP192 T00720044
KCKZ 190415Z AUTO 00000KT 10SM OVC020 04/04 A3003 RMK AO2
KCLE 190351Z 24008KT 9SM -DZ OVC007 04/01 A3012 RMK AO2 SLP205 P0000 T00390011 $
KCLI 190415Z AUTO 22006KT 10SM CLR 00/M02 A2992 RMK AO2
KCLK 190435Z AUTO 17009KT OVC002 07/06 A2992 RMK AO2 PWINO
KCLL 190407Z AUTO 32004KT 3SM BR OVC003 11/11 A3000 RMK AO2 T01110111
KCLM 190353Z AUTO 27010KT 9SM -RA OVC050 07/07 A2921 RMK AO2 SLP891 P0003 T00720067
KCLS 190415Z AUTO 18013G20KT 5SM BR BKN041 OVC046 09/09 A2927 RMK AO2
KCLT 190352Z 02004KT 10SM CLR 08/01 A3007 RMK AO2 SLP179 T00830011
KCLW 190415Z AUTO 00000KT 10SM CLR 17/16 A3011 RMK AO2
KCMA 190355Z 06009KT 10SM -RA BKN095 OVC110 12/10 A3006 RMK AO2 SLP187 P0000 T01170100
KCMD 190415Z AUTO 03003KT 10SM BKN050 BKN090 12/10 A3011 RMK AO2 T01220103
KCMH 190351Z 24009KT 10SM -DZ OVC008 04/02 A3012 RMK AO2 DZB0257 SLP205 P0000 T00440017
KCMI 190353Z 16008KT 5SM BR CLR 01/00 A3010 RMK AO2 SLP199 T00110000
KCMR 190415Z AUTO 19008G13KT 10SM CLR 01/M03 A3008 RMK AO2
KCMX 190353Z AUTO 27003KT 10SM CLR M02/M04 A2981 RMK AO2 SLP109 T10221044
KCMY 190415Z AUTO 20005KT 7SM OVC008 00/00 A2994 RMK AO2 T00001003
KCNB 190414Z AUTO 23013G17KT 10SM CLR 05/03 A2973 RMK AO2 T00510026
KCNC 190415Z AUTO 17010KT 1/4SM FG OVC002 01/01 A2997 RMK AO2
KCNI 190415Z AUTO 29003KT 10SM CLR 13/03 A3011 RMK AO2
KCNK 190355Z AUTO 15008KT 10SM OVC075 05/03 A2987 RMK AO2 SLP120 T00500033
KCNM 190353Z AUTO 22010KT 10SM SCT090 09/04 A2996 RMK AO2 SLP127 T00940044
KCNO 190353Z 21004KT 10SM BKN070 OVC090 12/08 A3013 RMK AO2 SLP203 T01220078
KCNU 190405Z AUTO 16006KT 10SM BKN013 OVC019 08/06 A2995 RMK AO2 T00830056
KCNY 190353Z AUTO 00000KT 10SM CLR M01/M03 A2998 RMK AO2 SLP176 T10111033
KCOD 190356Z AUTO VRB03KT 10SM CLR 04/M09 A2966 RMK AO2 SLP076 T00441089
KCOE 190356Z AUTO 06007KT 10SM -RA OVC050 01/01 A2952 RMK AO2 RAB35 SLP028 P0000 T00110006 FZRANO
KCOF 190358Z AUTO 29003KT 10SM CLR 21/17 A3010 RMK AO2 SLP197 T02050173 TSNO
KCOM 190415Z AUTO 22005KT 10SM CLR 08/07 A3001 RMK AO2
KCON 190351Z AUTO 00000KT 3SM BR FEW005 OVC016 M02/M03 A3002 RMK AO2 SNE0254 SLP171 P0001 T10171033
KCOQ 190415Z AUTO 19005KT 7SM CLR M01/M03 A2979 RMK AO2
KCOS 190354Z 34006KT 10SM FEW240 M02/M07 A2974 RMK AO2 SLP083 T10171067
KCOT 190353Z AUTO 00000KT 10SM CLR 14/11 A3001 RMK AO2 SLP157 T01390111 TSNO
KCOU 190354Z AUTO 14006KT 10SM OVC075 07/02 A3001 RMK AO2 SLP166 T00720017
KCPC 190420Z AUTO 00000KT 10SM CLR 09/06 A3004 RMK AO2 T00870061
KCPK 190412Z AUTO 00000KT 10SM CLR 03/02 A3005 RMK AO2
KCPR 190353Z AUTO 23018G25KT 10SM CLR 00/M08 A2975 RMK AO2 PK WND 22030/0254 SLP086 T00001078
KCPS 190353Z 15006KT 10SM BKN075 06/02 A3007 RMK AO2 SLP185 T00560022
KCPT 190415Z AUTO 23003KT OVC020 08/08 A3001 RMK AO2
KCPU 190415Z AUTO 13007KT 10SM OVC034 07/06 A2981 RMK AO2 T00650055
KCPW 190412Z AUTO 21012G18KT OVC001 M10/M10 A3001 RMK AO2 PWINO
KCQB 190415Z AUTO 00000KT 10SM OVC038 10/08 A2995 RMK AO2
KCQC 190353Z AUTO 30021G28KT 10SM CLR M01/M05 A2991 RMK AO2 PK WND 30030/0307 SLP134 T10111050
KCQF 190415Z AUTO 00000KT 1/2SM FG OVC003 18/18 A3008 RMK AO2
KCQM 190415Z AUTO 00000KT 10SM CLR 00/M04 A2974 RMK AO2
KCQT 190347Z AUTO 00000KT 10SM -RA BKN090 OVC110 13/11 A3010 RMK AO2 SLP191 P0004 T01280106
KCQW 190415Z AUTO 00000KT 10SM CLR 08/M01 A3006 RMK AO2
KCQX 190352Z AUTO 07006KT 10SM OVC014 06/03 A2997 RMK AO2 SLP151 T00560033
KCRE 190353Z AUTO 04004KT 10SM CLR 09/08 A3003 RMK AO1 SLP171 T00890078
KCRG 190353Z 26004KT 10SM CLR 18/16 A3009 RMK AO2 SLP188 T01830156
KCRP 190351Z 05005KT 9SM -RA FEW012 BKN040 OVC110 15/14 A3001 RMK AO2 RAB16 SLP161 P0001 T01500139
KCRQ 190353Z VRB04KT 10SM SCT033 BKN095 BKN110 13/11 A3015 RMK AO2 PRESRR SLP210 T01330106
KCRS 190353Z AUTO 00000KT 6SM BR OVC004 11/10 A3001 RMK AO2 SLP163 T01060100
KCRW 190354Z 00000KT 10SM OVC016 06/03 A3015 RMK AO2 SLP212 T00610028
KCRX 190415Z AUTO 13003KT 5SM -DZ FEW023 OVC031 13/10 A3004 RMK AO2
KCSG 190351Z AUTO 00000KT 8SM CLR 16/14 A3010 RMK AO2 SLP190 T01560139
KCSM 190353Z 17012KT 1/2SM FG VV002 08/07 A2990 RMK AO2 SLP126 T00780072
KCSQ 190415Z AUTO 17008G13KT M1/4SM FG OVC002 02/02 A2995 RMK AO2
KCSV 190353Z AUTO 00000KT 9SM CLR 06/05 A3010 RMK AO2 SLP196 T00610050
KCTB 190356Z AUTO 15008KT 10SM CLR 04/M01 A2944 RMK AO2 SLP976 T00391006
KCTJ 190415Z AUTO 00000KT 10SM CLR 13/13 A3015 RMK AO2 T01300130
KCTY 190410Z AUTO 00000KT 5SM BR BKN020 OVC025 15/15 A3011 RMK AO2
KCTZ 190420Z AUTO 00000KT 10SM CLR 08/05 A3006 RMK AO2 T00820053
KCUB 190353Z AUTO 00000KT 10SM CLR 12/08 A3006 RMK AO2 SLP177 T01220078
KCUH 190415Z AUTO 00000KT 10SM SCT042 08/06 A2994 RMK AO2 T00830063
KCUL 190415Z AUTO 11004KT 7SM CLR 04/03 A3011 RMK AO2 T00400032
KCUT 190353Z AUTO 20003KT 10SM CLR 00/M08 A2963 RMK AO2 SLP026 T00001083
KCVB 190415Z AUTO 00000KT 10SM BKN017 12/11 A3002 RMK AO2 T01190106
KCVC 190415Z AUTO 00000KT 10SM CLR 14/11 A3008 RMK AO2
KCVG 190352Z 19005KT 9SM OVC007 04/03 A3013 RMK AO2 SLP205 T00390028
KCVH 190410Z AUTO 13018G25KT 10SM FEW038 BKN048 OVC055 11/08 A2982 RMK AO1
KCVN 190415Z AUTO 22011KT 10SM CLR 04/01 A2985 RMK AO1
KCVO 190415Z 16010KT 10SM 07/04 A2944 RMK AO1
KCVS 190358Z AUTO 24012KT 10SM CLR 06/06 A2986 RMK AO2 SLP105 T00570057 $
KCVW 190420Z AUTO 16007KT 1/4SM FG OVC002 19/19 A2996 RMK A01
KCVX 190415Z AUTO 21008KT 10SM CLR 02/01 A2996 RMK AO2 T00150006
KCWA 190415Z AUTO 20004KT 5SM BR CLR M01/M01 A2991 RMK AO2
KCWC 190415Z AUTO 15007KT 10SM CLR 07/07 A2997 RMK AO2 T00710067
KCWF 190415Z AUTO 17006KT 7SM VCTS OVC006 21/21 A2996 RMK AO2 T02150212
KCWI 190406Z AUTO 14005KT 1 3/4SM BR CLR M01/M01 A3002 RMK AO2 FZRANO
KCWN 190358Z AUTO 00000KT 10SM CLR 04/M14 A2969 RMK AO2 SLP948 T00351142 $
KCWV 190415Z AUTO 00000KT 10SM CLR A3007 RMK AO2
KCXE 190415Z AUTO 32003KT 10SM CLR 07/02 A3007 RMK AO1 T00670017
KCXO 190353Z AUTO 33007KT 9SM OVC004 13/12 A2999 RMK AO2 SLP153 T01280122
KCXP 190415Z AUTO 00000KT 10SM SCT041 BKN049 OVC075 04/02 A2967 RMK AO2
KCXU 190415Z AUTO 00000KT 7SM CLR 15/15 A3011 RMK AO2 T01530147
KCXY 190356Z AUTO 31005KT 10SM SCT029 OVC045 07/01 A3005 RMK AO2 SLP178 T00720011
KCYS 190353Z 27005KT 10SM CLR M02/M08 A2971 RMK AO2 SLP070 T10171083
KCZL 190415Z AUTO 00000KT 10SM CLR 10/08 A3011 RMK AO2 T00970078
KCZT 190415Z AUTO 31005KT 10SM CLR 12/08 A3001 RMK AO2
KCZZ 190352Z AUTO 28006KT 09/06 A3010 RMK AO1 SLP188 T00890061
KD07 190356Z AUTO 18009KT M04/M07 A2959 RMK AO1 SLP053 T10441072
KD25 190415Z AUTO 22006KT 7SM CLR 00/M01 A2983 RMK AO2 T10051010
KD39 190411Z AUTO 14005KT 2SM BR CLR M02/M02 A2977 RMK AO2 T10231024
KD50 190415Z AUTO 21014KT 10SM CLR M03/M04 A2950 RMK AO2
KD57 190415Z AUTO 19003KT 10SM CLR M02/M06 A2957 RMK AO2
KD60 190415Z AUTO 24008KT 10SM CLR 00/M03 A2954 RMK AO2
KD95 190414Z AUTO 25006KT 10SM OVC007 02/01 A3002 RMK AO2 T00150005
KDAA 190358Z AUTO 33006KT 10SM BKN036 08/01 A3007 RMK AO2 SLP186 T00760012
KDAB 190353Z 26006KT 10SM FEW046 18/16 A3011 RMK AO2 SLP195 T01780156
KDAG 190350Z AUTO 29008KT 10SM -RA OVC070 09/04 A3002 RMK AO2 SLP167 P0002 T00940044
KDAL 190353Z 18006KT 10SM BKN010 OVC028 12/10 A2999 RMK AO2 SLP155 T01170100
KDAN 190353Z AUTO 34005KT 10SM CLR 07/03 A3007 RMK AO2 SLP176 T00670028
KDAW 190351Z AUTO 36006KT 10SM OVC012 M03/M04 A3002 RMK AO2 SLP167 T10281044
KDAY 190356Z 21009KT 2SM OVC003 03/02 A3012 RMK AO2 SFC VIS 7 SLP206 T00280022
KDBN 190415Z AUTO 00000KT 10SM CLR 12/12 A3010 RMK AO2
KDBQ 190424Z AUTO 20010KT 3SM BR CLR 00/M01 A2998 RMK AO2 T00001006
KDCA 190352Z 33010KT 10SM OVC036 09/02 A3008 RMK AO2 SLP184 T00890022
KDCM 190415Z AUTO 36004KT 10SM CLR 11/M05 A3007 RMK AO2
KDCU 190353Z AUTO 00000KT 10SM OVC060 12/09 A3011 RMK AO2 SLP195 T01170094
KDCY 190415Z AUTO 00000KT 7SM CLR 03/02 A3014 RMK AO2 T00280019
KDDC 190401Z AUTO 18015KT 6SM BR OVC004 06/06 A2981 RMK AO2 T00610056
KDDH 190354Z AUTO 00000KT 9SM OVC012 01/00 A2998 RMK AO2 RAB08E38 SLP158 P0000 T00110000
KDEC 190354Z 14004KT 7SM CLR 01/01 A3010 RMK AO2 SLP198 T00060006
KDED 190415Z AUTO 27004KT 10SM CLR 18/15 A3011 RMK AO2
KDEH 190415Z AUTO 17005KT 5SM BR FEW007 01/01 A2993 RMK AO2
KDEN 190353Z 21008KT 10SM CLR 01/M08 A2971 RMK AO2 SLP066 T00061078
KDEQ 190353Z AUTO 07005KT 6SM BR OVC005 09/09 A2999 RMK AO2 SLP153 T00940094
KDET 190353Z 26008KT 9SM OVC009 02/01 A3005
KDEW 190353Z AUTO 00000KT 10SM UP FEW038 SCT047 OVC055 01/01 A2950 RMK AO2 UPB0255E07B26E30B46RAB07E26 SLP006 P0001 T00110006
KDFI 190353Z AUTO 25005KT 8SM OVC005 01/00 A3010 RMK AO2 CIG 004V007 SLP200 T00110000
KDFW 190353Z 19006KT 10SM OVC025 12/11 A2998 RMK AO2 SLP149 T01170106
KDGW 190353Z AUTO 32005KT 10SM CLR M03/M08 A2967 RMK AO2 SLP084 T10331083
KDHN 190353Z AUTO 22005KT 10SM CLR 17/16 A3014 RMK AO2 SLP202 T01670156
KDHT 190353Z AUTO 18008KT 10SM CLR 02/01 A2976 RMK AO2 SLP076 T00170006
KDIJ 190356Z AUTO 00000KT 10SM BKN046 OVC070 M06/M11 A2982 RMK AO2 SLP169 T10611106
KDIK 190356Z AUTO 20005KT 10SM CLR M01/M06 A2953 RMK AO2 SLP024 T10111056
KDKB 190415Z AUTO 17006KT 2SM BR CLR M01/M01 A3004 RMK AO2 T10101012
KDKK 190353Z AUTO 23009KT 4SM BR BKN007 OVC012 03/02 A3005 RMK AO2 SLP182 T00280022
KDKR 190415Z AUTO 32003KT 3SM BR OVC003 11/10 A3001 RMK AO2
KDLF 190358Z AUTO 33004KT 10SM CLR 08/07 A3001 RMK AO2 SLP161 T00770074
KDLH 190355Z 22009KT 9SM CLR 01/M03 A2978 RMK AO2 SLP103 T00111028
KDLL 190415Z AUTO 23011KT 4SM BR OVC005 00/00 A2995 RMK AO2 T00001005
KDLN 190353Z AUTO VRB05KT 10SM BKN100 00/M08 A2965 RMK AO2 SLP054 T00001078
KDLP 190415Z AUTO 17014KT 1/2SM FG VV005 20/20 A3004 RMK A01
KDLS 190353Z AUTO 31003KT 4SM BR OVC090 M01/M03 A2944 RMK AO2 SLP971 T10111033
KDLZ 190414Z AUTO 25006KT 7SM OVC005 02/02 A3012 RMK AO2
KDMA 190358Z AUTO 00000KT 10SM CLR 09/05 A3007 RMK AO2 SLP172 T00900047 CHINO RWY30 $
KDMH 190354Z AUTO 09/02 A3007 RMK AO1 SLP182 T00940017
KDMN 190353Z AUTO 30005KT 10SM CLR 07/03 A3005 RMK AO2 SLP162 T00670028
KDMO 190353Z AUTO 12004KT 10SM OVC075 07/03 A3000 RMK AO2 SLP163 T00720033
KDMW 190420Z AUTO 27004KT 10SM OVC033 05/02 A3004 RMK AO2
KDNL 190353Z AUTO 30006KT 10SM CLR 19/09 A3007 RMK AO2 SLP177 T01890094
KDNN 190415Z AUTO 00000KT 10SM CLR 08/08 A3011 RMK AO2
KDNS 190415Z AUTO 20006KT 10SM CLR 03/02 A2987 RMK AO2
KDNV 190415Z AUTO 17005KT 7SM OVC009 02/01 A3008 RMK AO2 T00200010
KDOV 190358Z 00000KT 10SM OVC043 07/06 A3003 RMK AO2A SLP172 T00710071 $
KDPA 190352Z 20005KT 5SM BR CLR 00/M02 A3005 RMK AO2 SLP183 T00001017
KDPG 182355Z 34006KT 5SM BR FEW007 SCT100 BKN170 OVC230 M03/M05 A2998 RMK SLP172 T10351048
KDPL 190400Z AUTO 00000KT 10SM CLR 05/04 A3005 RMK AO2
KDQH 190415Z AUTO 00000KT 10SM CLR 15/14 A3011 RMK AO2
KDRA 190355Z AUTO 19021G27KT 10SM -RA BKN038 OVC050 08/01 A2994 RMK AO2 PK WND 21036/0329 RAB34 SLP132 P0000 T00830006
KDRI 190415Z AUTO 00000KT 10SM BKN009 OVC017 19/18 A2998 RMK AO2 P0011 T01850177
KDRM 190415Z AUTO 24003KT 10SM SCT011 01/00 A2991 RMK AO2 T00080000
KDRO 190353Z AUTO 00000KT 10SM FEW040 M01/M04 A3000 RMK AO2 SLP184 T10111044
KDRT 190353Z AUTO 00000KT 10SM CLR 08/07 A3001 RMK AO2 SLP156 T00780067 $
KDSM 190354Z 18009KT 1/2SM R31/3500V4500FT BR VV002 02/01 A2996 RMK AO2 SFC VIS 3/4 SLP154 T00170011
KDSV 190354Z AUTO 08003KT 10SM OVC019 04/00 A3001 RMK AO2 SLP177 T00390000
KDTA 190415Z AUTO 17010KT 10SM CLR 01/M03 A2989 RMK AO1
KDTL 190413Z AUTO 15006KT 10SM CLR M01/M04 A2972 RMK AO2
KDTN 190353Z 35005KT 1/2SM FG VV002 13/12 A2997 RMK AO2 SLP146 T01330122
KDTO 190353Z 24005KT 5SM BR CLR 08/08 A2999 RMK AO2 SLP154 T00780078
KDTS 190406Z AUTO 00000KT 1/2SM FG VV002 19/18 A3010 RMK AO2 T01890183
KDTW 190353Z 23012KT 7SM OVC007 02/01 A3008 RMK AO2 SLP191 T00220006
KDUA 190415Z AUTO 17003KT 3SM BR OVC002 09/08 A2997 RMK AO2
KDUB 190415Z AUTO 32018KT 10SM CLR M02/M11 A2976 RMK AO2
KDUC 190415Z AUTO 17003KT OVC007 08/08 A2995 RMK AO2 PWINO TSNO
KDUG 190356Z AUTO 36008KT 10SM CLR 05/02 A3007 RMK AO2 SLP170 T00500017
KDUH 190414Z AUTO 26008KT 4SM BR OVC005 02/01 A3009 RMK AO2 T00220009
KDUJ 190350Z AUTO 25012KT 3SM BR OVC002 02/01 A3003 RMK AO2 SLP183 T00170006
KDUX 190415Z AUTO 20008KT 10SM CLR 04/01 A2978 RMK AO2 T00400008
KDVK 190415Z AUTO 00000KT 10SM CLR 02/01 A3013 RMK AO2
KDVL 190356Z AUTO 18007KT 10SM CLR 01/M04 A2958 RMK AO2 SLP048 T00061044 FZRANO
KDVN 190352Z AUTO 18007KT 4SM BR CLR 00/M01 A3002 RMK AO2 SLP175 I1001 T00001006
KDVO 190415Z AUTO 23006KT 10SM FEW038 SCT060 BKN075 11/09 A2975 RMK AO2
KDVP 190412Z AUTO 19017KT 10SM CLR 03/02 A2977 RMK AO2 T00260016
KDVT 190353Z 00000KT 10SM CLR 11/05 A3005 RMK AO2 SLP171 T01110050
KDWH 190353Z 33006KT 7SM OVC004 13/12 A2999 RMK AO2 SLP154 T01330122
KDWU 190415Z AUTO 31003KT 10SM OVC019 06/03 A3013 RMK AO1
KDWX 190415Z AUTO 11005KT 10SM CLR M17/M18 A2998 RMK AO2 T11671184
KDXR 190353Z 00000KT 5SM BR OVC060 02/01 A3002 RMK AO2 SLP168 T00170011
KDXX 190414Z AUTO 11005KT 3/4SM BR VV005 M03/M03 A2974 RMK AO2
KDYA 190415Z AUTO 00000KT 10SM 17/17 A3007 RMK AO2 T01670167
KDYB 190415Z AUTO 26003KT 7SM CLR A3005 RMK AO1
KDYL 190425Z AUTO 00000KT 10SM BKN024 OVC055 06/04 A3002 RMK AO2 T00560039
KDYR 190415Z AUTO 07006KT 10SM BKN021 OVC050 09/06 A3007 RMK AO1
KDYS 190358Z 18007KT 10SM CLR 07/04 A2997 RMK AO2A SLP146 T00660037 $
KDYT 190413Z AUTO 00000KT 10SM CLR 00/M02 A2982 RMK AO2
KDZB 190415Z AUTO 00000KT 10SM OVC009 11/10 A3002 RMK AO2 T01090095
KE11 190415Z AUTO 21008KT 10SM CLR 08/05 A2997 RMK AO2 T00760052
KE16 190415Z AUTO 18007KT 3SM RA FEW003 BKN019 OVC027 10/09 A2983 RMK AO2
KE38 190415Z AUTO 22008KT 10SM CLR 05/00 A3011 RMK AO2 T00471001
KE80 190415Z AUTO 30006KT 10SM CLR 03/M02 A3000 RMK AO2 T00261016
KEAN 190415Z AUTO 22012G20KT 10SM CLR 03/M07 A2967 RMK AO2 T00251069
KEAR 190415Z AUTO 18006KT 10SM CLR 02/M01 A2979 RMK AO1
KEAT 190355Z AUTO 33004KT 1 1/2SM -SN BR OVC021 M04/M04 A2949 RMK AO2 SLP001 P0001 T10391039
KEAU 190423Z AUTO 00000KT 1/4SM FZFG VV006 M04/M04 A2988 RMK AO2 I1000 T10441044
KEBA 190415Z AUTO 00000KT 10SM CLR 14/07 A3008 RMK AO2 T01420066
KEBG 190415Z AUTO 02004KT 10SM -RA SCT033 BKN050 OVC055 17/14 A3002 RMK AO2 P0001 T01650141
KEBS 190415Z AUTO 17010KT 7SM CLR 01/01 A2988 RMK AO2
KECG 190354Z AUTO 29004KT 10SM CLR 06/04 A3004 RMK AO2 SLP173 T00560044
KECP 190353Z 00000KT 1/4SM FG VV002 17/17 A3011 RMK AO2 SLP208 T01720167
KECS 190415Z AUTO 33003KT 10SM CLR M03/M07 A2963 RMK AO2
KECU 190415Z AUTO 00000KT M1/4SM FG OVC001 08/07 A3002 RMK AO2
KEDC 190415Z AUTO 00000KT 10SM OVC004 10/10 A3002 RMK AO2
KEDE 190420Z AUTO 00000KT 10SM CLR 07/06 A3006 RMK AO2 T00720060
KEDJ 190355Z AUTO 23009KT 3SM OVC001 02/02 A3010 RMK AO1
KEDN 190415Z AUTO 00000KT 10SM CLR 15/15 A3010 RMK AO2 T01500148
KEDU 190415Z AUTO 18025G38KT 3SM FEW010 BKN014 OVC035 08/08 A2980 RMK AO1 P0007
KEDW 190358Z 22011G17KT 15SM -RA FEW030 BKN040 OVC080 08/05 A2998 RMK AO2A SLP160 P0000 T00770054
KEED 190356Z AUTO 25009KT 10SM CLR 14/M02 A3002 RMK AO2 SLP156 T01441022
KEEN 190403Z AUTO 00000KT 4SM UP BR BKN022 M01/M02 A3001 RMK AO2 P0000 FZRANO
KEEO 190353Z AUTO 06003KT 10SM CLR M09/M11 A2999 RMK AO2 SLP217 I1000 T10941111
KEET 190353Z AUTO 00000KT 8SM CLR 14/13 A3010 RMK AO2 SLP189 T01390133
KEFD 190350Z 27005KT 6SM BR OVC006 17/16 A2999
KEFK 190415Z AUTO 19005KT 7SM -SN SCT014 BKN025 OVC032 M01/M02 A2992 RMK AO2 T10071021
KEFT 190415Z AUTO 20009KT 1 3/4SM BR OVC003 00/00 A2999 RMK AO2
KEGE 190350Z 09004KT 10SM CLR M08/M09 A3000
KEGI 190359Z 00000KT 1/8SM FG VV001 17/17 A3009 RMK AO2A SLP191 T01680168 RVRNO $
KEGV 190415Z AUTO 00000KT 7SM CLR M01/M02 A2984 RMK AO2 T10101016
KEHA 190408Z AUTO 18009KT 02/M03 RMK AO1 /PK WND 11 M T00171033
KEHC 190415Z AUTO 18016KT 3SM BR FEW008 FEW015 FEW031 23/22 A3000 RMK A01
KEHO 190420Z AUTO 00000KT 10SM CLR 08/M01 A3007 RMK AO2 T00781014
KEHR 190415Z 07003KT 8SM CLR 04/02 A3012 RMK AO1
KEHY 190415Z AUTO 25021G29KT 10SM CLR M01/M07 A2978 RMK AO2
KEIK 190414Z AUTO 00000KT 10SM CLR M04/M07 A2971 RMK AO2 T10441070
KEIR 190415Z AUTO 19009KT 3SM BR FEW007 OVC021 23/22 A3004 RMK A01
KEKM 190150Z 24009KT 7SM OVC007 02/00 A3010 RMK AO2 LAST
KEKN 190419Z AUTO VRB03KT 9SM -RA OVC013 03/01 A3011 RMK AO2 RAB19 P0000 T00330011
KEKO 190356Z AUTO 09004KT 10SM OVC060 M03/M08 A2981 RMK AO2 SLP142 T10281078
KEKQ 190356Z AUTO 01007KT 110V050 10SM CLR 04/03 A3013 RMK AO2 SLP229 T00440033 401110033
KEKS 190415Z AUTO 16036G44KT 5SM HZ BKN100 00/M07 A2968 RMK A01
KEKY 190356Z AUTO 14005KT 10SM CLR 16/15 A3010 RMK AO2 SLP211 T01560150
KELA 190415Z AUTO 34004KT 10SM OVC006 13/13 A3000 RMK AO2 T01320130
KELD 190412Z AUTO 36003KT 1/4SM FG VV002 11/11 A2999 RMK AO2 T01060106
KELK 190415Z AUTO 19012KT 1/2SM FG OVC003 08/07 A2988 RMK AO2 T00750072
KELM 190353Z AUTO 27004KT 10SM OVC036 03/01 A2999 RMK AO2 SLP165 T00330006
KELN 190411Z AUTO 08006KT 4SM -SN BR FEW009 OVC016 00/M02 A2941 RMK AO2 T00001022 PNO
KELO 190413Z AUTO 00000KT 10SM CLR M04/M06 A2976 RMK AO2
KELP 190351Z 28007KT 10SM FEW050 SCT085 11/02 A3003 RMK AO2 SLP145 VIRGA N-E T01110022
KELY 190353Z AUTO 19012KT 10SM SCT095 01/M07 A2986 RMK AO2 SLP140 T00061067
KELZ 190356Z AUTO 27008KT 6SM BR OVC004 02/00 A2999 RMK AO2 SLP174 T00170000
KEMK 190415Z AUTO 08022KT 5SM BR BKN005 OVC011 24/23 A2997 RMK A01
KEMM 190010Z AUTO 24008KT 10SM M06/M13 A2987 RMK AO2
KEMP 190353Z AUTO 16009KT 10SM OVC055 06/03 A2992 RMK AO2 SLP140 T00560033
KEMT 190345Z 10003KT 8SM RA FEW030 BKN050 OVC075 12/09 A3013
KEMV 190415Z AUTO 00000KT 10SM CLR 02/02 A3009 RMK AO2
KEND 190358Z AUTO 16008KT 10SM -DZ OVC017 08/08 A2990 RMK AO2 OVC V BKN SLP130 P0000 T00800077 $
KENL 190415Z AUTO 10003KT 10SM CLR 05/04 A3007 RMK AO2 T00510037
KENV 190415Z AUTO 08003KT 10SM OVC011 M04/M07 A2991 RMK AO1
KENW 190353Z AUTO 25010KT 5SM BR OVC007 01/M01 A3003 RMK AO2 SLP176 T00061006
KEOE 190415Z AUTO 00000KT 10SM CLR 09/02 A3009 RMK AO2
KEOK 190415Z AUTO 14004KT 5SM BR CLR 01/01 A3002 RMK AO2
KEPH 190353Z AUTO 36005KT 5SM -RA BKN022 OVC037 01/M02 A2946 RMK AO2 SLP986 P0006 T00111017
KEQA 190415Z AUTO 17005KT 10SM OVC050 08/05 A2991 RMK AO2
KEQY 190353Z AUTO 00000KT 10SM CLR 11/00 A3006 RMK AO2 SLP185 T01060000
KERI 190401Z 26013G18KT 5SM BR OVC004 03/02 A3008 RMK AO2 T00280017
KERV 190415Z AUTO 00000KT 10SM OVC005 11/10 A3001 RMK AO2 T01060098
KERY 190415Z AUTO 20007KT 5SM BR OVC006 00/M01 A2988 RMK AO2 T10041008
KESC 190356Z AUTO 24003KT 10SM CLR M01/M01 A2989 RMK AO2 SLP149 T10061011 FZRANO
KESF 190353Z AUTO 00000KT 6SM -RA BR FEW021 SCT030 BKN110 19/19 A2998 RMK AO2 RAB38 SLP150 P0001 T01940194
KESN 190412Z AUTO 34006KT 10SM OVC035 09/03 A3009 RMK AO2 T00910029
KEST 190352Z AUTO 18009KT 8SM CLR 01/01 A2983 RMK AO2 SLP115 T00060006
KETB 190415Z AUTO 25006KT 7SM BKN008 00/00 A2997 RMK AO2
KETH 190416Z AUTO 14008KT 10SM CLR 00/M02 A2975 RMK AO2
KEUF 190358Z AUTO 00000KT 10SM CLR 14/12 A3009 RMK AO2 SLP186 I1000 T01390122 $
KEUG 190354Z 19013KT 10SM -RA BKN050 OVC095 07/06 A2947 RMK AO2 SLP980 P0002 T00720056
KEUL 190356Z AUTO 13021G29KT 4SM -SN BR BKN009 OVC039 00/M01 A2972 RMK AO2 PK WND 13029/0350 CIG 007V013 SLP091 P0000 T00001011 FZRANO
KEVB 190247Z 00000KT 10SM FEW025 21/17 A3012 RMK LAST
KEVM 190414Z AUTO 00000KT 7SM CLR M05/M06 A2978 RMK AO2 T10521065
KEVU 190415Z AUTO 16010KT 7SM CLR 03/03 A2993 RMK AO2
KEVV 190354Z 00000KT 10SM CLR 04/02 A3014 RMK AO2 SLP209 T00390022
KEVW 190353Z AUTO 18005KT 10SM CLR M05/M13 A2986 RMK AO2 SLP148 T10501133
KEWB 190353Z AUTO 36003KT 10SM OVC016 04/03 A2997 RMK AO2 SLP149 T00390028
KEWK 190356Z AUTO 17007KT 10SM OVC055 06/03 A2990 RMK AO2 SLP131 T00610033
KEWN 190354Z AUTO 00000KT 10SM CLR 06/06 A3007 RMK AO2 SLP181 T00610056
KEWR 190351Z 36005KT 10SM FEW015 SCT035 BKN065 05/02 A3003 RMK AO2 SLP169 T00500022
KEXX 190420Z AUTO 00000KT 10SM CLR 07/03 A3008 RMK AO2 T00710031
KEYE 190353Z AUTO VRB04KT 10SM OVC009 03/01 A3011 RMK AO2 SLP203 T00280006
KEYF 190425Z AUTO 00000KT 10SM CLR 09/05 A3004 RMK AO2 T00860046
KEYW 190353Z AUTO 08003KT 10SM CLR 21/19 A3012 RMK AO2 SLP198 T02110189
KEZF 190415Z AUTO 35005KT 10SM CLR 07/03 A3008 RMK AO2 T00700026
KEZM 190415Z AUTO 00000KT 7SM CLR 14/14 A3012 RMK AO2 T01410141
KEZS 190415Z AUTO 23005KT 10SM CLR 01/M01 A2991 RMK AO2 T00101010
KF00 190415Z AUTO 16003KT 3/4SM BR OVC003 09/09 A2999 RMK AO2
KF05 190415Z AUTO 16009KT 10SM CLR 08/06 A2994 RMK AO1 T00780057
KF17 190415Z AUTO 00000KT 2SM RA BKN006 OVC010 16/15 A2998 RMK AO2 T01550147
KF44 190415Z AUTO 00000KT 10SM OVC005 10/10 A2997 RMK AO2
KF46 190415Z AUTO 00000KT 7SM OVC005 10/10 A3000 RMK AO2 T00980098
KF70 190415Z AUTO 29004KT 10SM SCT065 OVC075 10/08 A3013 RMK AO1
KFAF 190358Z AUTO 00000KT 10SM CLR 05/03 A3002 RMK AO2 SLP169 T00460031 $
KFAM 190356Z AUTO 13005KT 10SM BKN070 OVC120 04/03 A3005 RMK AO2 SLP180 T00440028
KFAR 190353Z 17010KT 10SM CLR M01/M04 A2970 RMK AO2 SLP069 T10061039
KFAT 190353Z 11010KT 10SM -RA BKN070 OVC085 09/06 A2994 RMK AO2 SLP137 P0000 T00940061
KFAY 190353Z AUTO 02006KT 10SM CLR 09/04 A3005 RMK AO2 SLP170 T00940039
KFBG 190356Z AUTO 35004KT 10SM CLR 10/03 A3005 RMK AO2 SLP178 T01020025 $
KFBL 190414Z AUTO 16007KT 7SM CLR 01/00 A2985 RMK AO2
KFBR 190415Z AUTO 20005KT 10SM CLR M07/M13 A2988 RMK AO2 T10741126
KFCH 190415Z AUTO 10SM SCT049 SCT055 BKN080 10/07 A2994 RMK A01
KFCI 190355Z AUTO 03003KT 10SM CLR 08/M04 A3008 RMK AO1
KFCM 190353Z 19005KT 7SM CLR 02/00 A2982 RMK AO2 SLP105 T00220000
KFCS 190358Z 24003KT 10SM CLR 01/M06 A2974 RMK SLPNO AO2A WND DATA ESTMD ALSTG ESTMD
KFDK 190420Z AUTO 00000KT 10SM BKN039 02/02 A3010 RMK AO2 LTG DSNT E
KFDR 190422Z AUTO 14005KT 1 3/4SM BR FEW002 05/04 A2991 RMK AO2 T00500044
KFDW 190415Z AUTO 36004KT 10SM CLR 12/00 A3006 RMK AO1
KFDY 190412Z AUTO 25010KT 5SM BR OVC004 03/01 A3010 RMK AO2 T00280006
KFEP 190415Z AUTO 18006KT 4SM BR CLR 00/00 A3004 RMK AO2 T10021005
KFET 190415Z AUTO 13007KT 10SM CLR 03/01 A2987 RMK AO2 T00280014
KFEW 190358Z AUTO 00000KT 10SM CLR M05/M09 A2973 RMK AO2 SLP091 T10501087 $
KFFC 190353Z AUTO 00000KT 10SM CLR 12/12 A3011 RMK AO2 SLP196 T01220117
KFFL 190415Z AUTO 18006KT 4SM BR SCT003 01/01 A3000 RMK AO2 PWINO
KFFM 190414Z AUTO 15009KT 10SM CLR M01/M03 A2977 RMK AO2
KFFO 190358Z 20005KT 10SM OVC007 04/04 A3011 RMK AO2A SLP205 T00360035
KFFT 190353Z AUTO 00000KT 9SM CLR 02/M01 A3013 RMK AO2 SLP206 T00171006
KFFX 190413Z AUTO 22007KT 7SM OVC009 02/01 A3001 RMK AO2 T00160007
KFFZ 190247Z 19005KT 40SM SKC A3002
KFGN 190413Z AUTO 16009KT 10SM CLR M08/M09 A2962 RMK AO2
KFGX 190415Z AUTO 00000KT 10SM OVC012 05/03 A3015 RMK AO2 T00460029
KFHB 190415Z AUTO 25004KT 10SM CLR 17/15 A3007 RMK AO1
KFHR 190353Z AUTO 14006KT 10SM -RA OVC014 09/07 A2921 RMK AO2 SLP893 P0000 T00890072
KFHU 190358Z AUTO 24007KT 10SM CLR 05/01 A3009 RMK AO2 SLP174 T00530010
KFIG 190420Z AUTO 22006KT 3SM BR SCT004 BKN009 OVC013 02/02 A3005 RMK AO2 CIG 007V010 T00220022
KFIN 182350Z 00000KT 10SM CLR 20/17 A3011
KFIT 190401Z AUTO 33003KT 2 1/2SM BR OVC006 00/M01 A3003 RMK AO2 CIG 004V009 T00001006
KFKA 190413Z AUTO 19014KT 1 1/2SM BR OVC002 00/00 A2989 RMK AO2 T00020000
KFKL 190415Z 24011G14KT 5SM 02/00 A3007 RMK AO1
KFKN 190415Z AUTO 00000KT 10SM BKN002 03/03 A3006 RMK AO2 T00310025
KFKR 190415Z AUTO 23005KT 7SM OVC007 03/02 A3012 RMK AO2 T00310020
KFKS 190414Z AUTO 20008KT 170V230 7SM OVC009 02/02 A2996 RMK AO2 T00230015
KFLD 190353Z AUTO 22012G19KT 5SM BR BKN007 01/M02 A2996 RMK AO2 SLP155 T00061017
KFLG 190407Z AUTO 26005KT 10SM FEW008 BKN023 M01/M02 A3008 RMK AO2 T10061017
KFLL 190353Z 21003KT 10SM SCT250 21/17 A3011 RMK AO2 SLP195 T02110167
KFLO 190353Z AUTO 00000KT 10SM CLR 11/06 A3005 RMK AO2 SLP173 T01060061
KFLP 190415Z AUTO 09004KT 10SM BKN008 OVC015 06/03 A3002 RMK AO1
KFLY 190415Z AUTO 33008KT 10SM CLR 02/M16 A2974 RMK AO2 T00151159
KFME 190421Z AUTO 29003KT 10SM OVC034 07/02 A3008 RMK AO1
KFMH 190415Z AUTO 10SM 03/03 A2997 RMK AO2 FZRANO TSNO
KFMM 190415Z AUTO 00000KT 10SM CLR 02/M07 A2970 RMK AO2 T00201075
KFMN 190353Z 00000KT 10SM CLR M01/M03 A3000 RMK AO2 SLP180 T10111033
KFMY 190353Z AUTO 00000KT 10SM CLR 18/16 A3011 RMK AO2 SLP199 T01830161
KFNB 190353Z AUTO 00000KT 10SM SCT080 01/00 A2993 RMK AO2 SLP143 T00110000 $
KFNL 190415Z AUTO 01004KT 10SM CLR 01/M06 A2972 RMK AO1
KFNT 190353Z 25007KT 8SM OVC007 01/00 A3003 RMK AO2 SLP177 T00110000
KFOA 190415Z AUTO 11004KT 10SM CLR 04/03 A3012 RMK AO2 T00430027
KFOD 190415Z AUTO 18008KT 10SM CLR 02/00 A2990 RMK AO1
KFOE 190353Z 13004KT 7SM CLR 03/02 A2994 RMK AO2 SLP144 T00280017
KFOK 190353Z 34006KT 9SM OVC008 03/02 A3002 RMK AO2 CIG 005V010 SLP166 T00330022
KFOT 190415Z AUTO 13004KT 8SM FEW024 SCT034 BKN040 09/09 A2964 RMK AO1
KFOZ 190345Z AUTO 19006KT 10SM CLR 00/M04 A2974 RMK AO2
KFPK 190414Z AUTO 22008G14KT 7SM OVC005 01/00 A3003 RMK AO2 T00051001
KFPR 190353Z AUTO 00000KT 6SM BR CLR 14/14 A3011 RMK AO2 SLP196 T01440144
KFQD 190420Z AUTO 00000KT 10SM CLR 08/00 A3008 RMK AO2 T00830002
KFRG 190353Z AUTO 35004KT 10SM OVC025 04/02 A3003 RMK AO2 SLP169 T00440022
KFRI 190358Z AUTO 00000KT 10SM OVC060 06/02 A2990 RMK AO2 SLP130 T00610022
KFRM 190356Z AUTO 18011KT 10SM CLR 02/01 A2984 RMK AO2 SLP119 T00220006 FZRANO
KFRR 190415Z AUTO 00000KT 10SM OVC027 06/02 A3008 RMK AO1
KFSD 190356Z 19010KT 10SM CLR 03/03 A2976 RMK AO2 SLP093 T00330028
KFSE 190414Z AUTO 18010KT 10SM CLR M03/M06 A2968 RMK AO2
KFSI 190416Z AUTO 17004KT 10SM OVC007 08/08 A2994 RMK AO2
KFSM 190353Z 07009KT 7SM OVC004 08/06 A3000 RMK AO2 SLP159 T00780061
KFSO 190415Z AUTO 30003KT 3SM -RA OVC007 01/01 A2995 RMK AO2 T00080005
KFST 190353Z AUTO 20007KT 10SM CLR 08/05 A3000 RMK AO2 SLP143 T00830050
KFSW 190415Z AUTO 16004KT 7SM CLR 01/01 A3004 RMK AO2
KFTG 190347Z 18007KT 10SM SCT200 M02/M06 A2971
KFTK 190358Z AUTO 04003KT 10SM CLR 03/02 A3010 RMK AO2 SLP200 T00310020
KFTN 190415Z AUTO 32005KT 10SM FEW043 12/08 A3001 RMK A01
KFTW 190353Z 22004KT 9SM OVC023 11/08 A2999 RMK AO2 SLP155 T01060083
KFTY 190353Z 16003KT 10SM CLR 14/10 A3010 RMK AO2 SLP188 T01440100
KFUL 190353Z 07003KT 10SM -RA FEW065 OVC080 13/10 A3011 RMK AO2 RAB20 SLP195 P0003 T01330100
KFVE 190421Z AUTO 14010KT 7SM BKN014 OVC022 M09/M12 A2995 RMK AO2 I1000 T10891122
KFVX 190415Z AUTO 02005KT 10SM CLR 07/03 A3008 RMK AO2 T00670031
KFWA 190354Z 23008KT 6SM BR OVC008 02/01 A3011 RMK AO2 CIG 005V009 SLP202 T00220006
KFWB 190355Z AUTO 12010KT 2 1/2SM BR OVC003 05/05 A3000 RMK AO2
KFWC 190415Z AUTO 00000KT 10SM CLR 04/03 A3012 RMK AO1 T00410030
KFWN 190421Z AUTO 00000KT 4SM BR OVC028 02/02 A3001 RMK AO2 T00170017
KFWS 190415Z AUTO 22005KT 7SM BKN024 10/09 A3000 RMK AO2 T01010085
KFWZ 190415Z AUTO 26003KT 10SM CLR 02/M08 A2973 RMK AO2
KFXE 190353Z 00000KT 10SM CLR 21/16 A3011 RMK AO2 SLP198 T02060161
KFXY 190415Z AUTO 17007KT 10SM CLR 00/00 A2988 RMK AO2
KFYG 190415Z AUTO 00000KT 10SM OVC080 07/04 A3004 RMK AO2
KFYJ 190415Z AUTO 00000KT 10SM CLR 03/00 A3008 RMK AO2 T00290002
KFYM 190415Z AUTO 00000KT 10SM OVC070 10/08 A3010 RMK A01
KFYV 190417Z AUTO 21004KT 10SM OVC009 09/08 A2997 RMK AO2 T00890083
KFZG 190415Z AUTO 00000KT 10SM CLR 17/16 A3012 RMK AO2 T01670162
KFZY 190415Z AUTO 24005KT 5SM BR BKN007 BKN012 OVC019 03/02 A3000 RMK AO2 CIG 004V009 T00280017 $
KGAD 190356Z AUTO 00000KT 10SM SCT090 12/11 A3012 RMK AO2 SLP219 T01170111
KGAF 190415Z AUTO 17011KT 10SM CLR M04/M05 A2962 RMK AO2
KGAG 190353Z AUTO 18017G22KT 10SM OVC008 08/07 A2984 RMK AO2 CIG 007V011 SLP105 T00830067 TSNO
KGAI 190415Z AUTO 00000KT 10SM OVC032 04/M01 A3010 RMK AO1
KGAO 190415Z AUTO 16006KT 10SM BKN006 OVC033 22/20 A3003 RMK AO2 T02200202
KGBD 190356Z AUTO 15010KT 10SM CLR 04/03 A2984 RMK AO2 SLP113 T00440033
KGBG 190415Z AUTO 17004KT 7SM CLR 00/00 A3003 RMK AO2 T00000000
KGBK 190415Z AUTO 15015KT 10SM FEW010 24/23 A3004 RMK A01
KGCC 190353Z AUTO 17003KT 10SM CLR M01/M06 A2963 RMK AO2 SLP053 T10061056
KGCD 190415Z AUTO 00000KT 10SM SCT029 SCT050 OVC065 04/01 A2951 RMK AO2 T00380014
KGCK 190419Z AUTO 16011KT 8SM BKN006 05/04 A2976 RMK AO2 CIG 004V008 T00500039
KGCM 190415Z AUTO 18003KT 7SM OVC003 07/07 A2998 RMK AO2
KGCN 190354Z AUTO 22004KT 10SM CLR M03/M06 A3006 RMK AO2 SLP193 T10281056
KGDB 190411Z AUTO 11008KT 5SM BR CLR 01/00 A2977 RMK AO2 T00070001
KGDJ 190415Z AUTO 00000KT 7SM CLR 08/07 A3001 RMK AO2 T00750066
KGDP 190351Z AUTO 24029G38KT 10SM CLR 06/01 A2998 RMK AO2 PK WND 25040/0337 SLP142 T00610011
KGDV 190356Z AUTO 19010KT 10SM CLR M03/M06 A2957 RMK AO2 SLP043 T10331061 FZRANO
KGED 190354Z AUTO 00000KT 10SM OVC042 08/05 A3004 RMK AO2 SLP173 T00780050 $
KGEG 190353Z 13004KT 8SM -RA OVC039 02/01 A2949 RMK AO2 SLP999 P0001 T00220011
KGEU 190247Z COR 00000KT 10SM FEW200 14/04 A3005 RMK LAST
KGEV 190405Z AUTO 00000KT 10SM CLR 06/01 A3009 RMK AO2 T00590013
KGEY 190353Z AUTO 00000KT 10SM CLR M12/M14 A2972 RMK AO2 SLP142 T11171144
KGEZ 190353Z AUTO 23005KT 10SM OVC007 03/01 A3013 RMK AO2 SLP207 T00330011
KGFA 190358Z AUTO 22019KT 10SM BKN230 06/M02 A2949 RMK AO2 SLP003 T00581019 TSNO $
KGFK 190353Z 18013KT 10SM CLR M03/M07 A2964 RMK AO2 SLP049 T10281067
KGFL 190424Z AUTO 19006KT 2SM BR OVC002 02/01 A2998 RMK AO2 T00170006
KGGE 190415Z AUTO 00000KT 1 3/4SM BR VV007 11/11 A3005 RMK AO2 VIS 1/2V5
KGGG 190420Z AUTO 35003KT 2SM BR OVC002 12/12 A2997 RMK AO2 T01220122
KGGI 190435Z AUTO 19010KT 1/4SM FG OVC002 00/00 A2997 RMK AO2 T00001003
KGGP 190415Z AUTO 21006KT 10SM OVC009 01/00 A3012 RMK AO2
KGGW 190353Z AUTO 16009KT 10SM CLR M01/M04 A2950 RMK AO2 SLP015 T10111044 $
KGHB 190415Z AUTO 16011KT 6SM BR SCT009 BKN020 OVC031 24/24 A3003 RMK A01
KGHG 190415Z AUTO 00000KT 10SM OVC021 05/02 A3000 RMK AO2
KGHW 190413Z AUTO 16004KT 5SM BR CLR M02/M03 A2976 RMK AO2
KGIC 190415Z AUTO 22003KT 10SM SCT043 SCT055 OVC070 02/00 A2955 RMK AO1
KGIF 190353Z AUTO 33004KT 10SM CLR 19/14 A3014 RMK AO2 SLP203 T01890144
KGJT 190353Z 00000KT 10SM CLR M01/M02 A2999 RMK AO2 SLP169 T10111022
KGKJ 190353Z AUTO 23007KT 6SM BR OVC003 02/01 A3006 RMK AO2 SLP189 T00220011
KGKT 190415Z AUTO 00000KT 10SM CLR 05/04 A3011 RMK
KGKY 190253Z AUTO 00000KT 10SM OVC025 11/09 A2999 RMK AO2 SLP154 T01110094 55004
KGLD 190353Z AUTO 20007KT 10SM CLR 02/M01 A2974 RMK AO2 SLP085 T00171011
KGLE 190415Z AUTO 22003KT 5SM BR BKN004 BKN008 08/07 A3000 RMK AO2 T00780073
KGLH 190353Z AUTO 12008KT 6SM BR FEW055 14/12 A2998 RMK AO2 RAE44 SLP160 P0000 T01390122
KGLR 190353Z AUTO 25010KT 8SM OVC007 02/M02 A2991 RMK AO2 SLP143 T00171017
KGLS 190414Z AUTO 27005KT 5SM BR OVC004 19/19 A2997 RMK AO2 T01940189
KGLW 190415Z AUTO 00000KT 10SM CLR A3011 RMK AO2
KGLY 190415Z AUTO 00000KT 3SM -RA FEW030 SCT037 BKN050 07/04 A2999 RMK AO2
KGMJ 190415Z AUTO 09003KT 2SM BR OVC006 08/08 A2998 RMK AO2
KGMU 190353Z AUTO 00000KT 10SM CLR 13/01 A3007 RMK AO2 SLP177 T01280006
KGNA 190356Z AUTO 31003KT M02/M03 A2980 RMK AO1 SLP102 T10221033
KGNC 190415Z AUTO 24007KT 10SM CLR 07/03 A2996 RMK AO2 T00700034
KGNR 190356Z AUTO VRB03KT M08/M08 A2994 RMK AO1 SLP167 T10781083 $
KGNT 190415Z AUTO 28005KT 10SM SCT036 M03/M04 A3004 RMK AO2 T10261040
KGNV 190353Z AUTO 24003KT 10SM CLR 18/17 A3011 RMK AO2 SLP192 T01780167
KGOK 190353Z AUTO 16004KT 10SM CLR 08/06 A2993 RMK AO2 SLP140 T00780056
KGON 190356Z AUTO 35008KT 10SM OVC006 03/02 A3001 RMK AO2 SLP160 T00280017
KGOO 190415Z AUTO 19005G17KT 2 1/2SM OVC002 05/05 A2970 RMK AO1 P0003
KGOP 190410Z AUTO 00000KT 3SM BR OVC010 11/11 A3003 RMK AO2
KGOV 190415Z AUTO 25005KT 10SM OVC009 01/00 A2994 RMK AO2 T00101002
KGPH 190435Z AUTO 00000KT 7SM BKN065 00/00 A2998 RMK AO2
KGPI 190355Z 00000KT 3SM BR OVC048 M01/M01 A2955 RMK AO2 VIS 2 1/2 NE SLP034 T10061011
KGPM 190415Z AUTO 19003KT 10SM BKN024 11/11 A3001 RMK AO2 T01100110
KGPT 190355Z 13008KT 1SM BR OVC003 19/19 A3006 RMK AO2 T01890189 RVRNO
KGPZ 190356Z AUTO 16008KT 10SM CLR M01/M04 A2977 RMK AO2 SLP103 T10111039 FZRANO
KGRB 190353Z 21010KT 9SM CLR 01/M01 A2993 RMK AO2 SLP142 T00111006
KGRD 190356Z AUTO 00000KT 10SM CLR 11/05 A3008 RMK AO2 SLP182 T01060050
KGRF 190358Z AUTO 13006KT 10SM -RA OVC046 09/09 A2924 RMK AO2 SLP906 P0007 T00880088 $
KGRI 190353Z AUTO 17009KT 10SM CLR 03/02 A2981 RMK AO2 SLP111 T00330022
KGRK 190423Z AUTO 00000KT 7SM OVC006 10/10 A3000 RMK AO2
KGRR 190353Z 22012KT 7SM OVC008 01/M01 A3004 RMK AO2 SLP181 T00111011
KGRY 190420Z AUTO 19008G13KT 4SM BR BKN008 BKN012 OVC055 23/22 A3006 RMK A01
KGSB 190358Z AUTO 07006KT 10SM CLR 08/05 A3003 RMK AO2 SLP172 T00770047 $
KGSH 190353Z AUTO 23010KT 8SM OVC009 02/M01 A3008 RMK AO2 SLP193 T00171006 $
KGSO 190354Z 01004KT 10SM CLR 08/03 A3006 RMK AO2 SLP178 T00830028
KGSP 190353Z 00000KT 10SM CLR 09/01 A3005 RMK AO2 SLP171 T00940006
KGTB 190403Z AUTO 24007KT 4SM R21/4000FT UP BR OVC003 01/00 A2996 RMK AO2 UPB03 OVC V BKN
KGTF 190353Z 23013KT 10SM CLR 04/M03 A2950 RMK AO2 SLP008 T00391033
KGTR 190415Z 00000KT 10SM BKN050 BKN070 16/13 A3002 RMK AO1
KGTU 190415Z 00000KT 5SM OVC005 11/09 A3001 RMK AO1
KGUC 190356Z AUTO 02003KT 10SM CLR M13/M15 A3003 RMK AO2 SLP240 T11281150 FZRANO
KGUL 190415Z AUTO 19017KT 23/22 A3000 RMK A01
KGUP 190353Z AUTO 00000KT 10SM CLR 00/M02 A3003 RMK AO2 SLP185 T00001022
KGUR 190415Z AUTO 25003KT 10SM CLR M01/M04 A2967 RMK AO2 T10101037 PWINO
KGUS 190255Z 23006KT 10SM OVC007 02/02 A3010 RMK AO2 SLP201 T00180018 58004
KGUY 190353Z AUTO 18007KT 10SM CLR 05/03 A2976 RMK AO2 SLP070 T00500028
KGVE 190415Z AUTO 00000KT 10SM CLR 02/01 A3009 RMK AO1 T00190011
KGVL 190353Z AUTO 27004KT 10SM CLR 14/04 A3010 RMK AO2 SLP186 T01390044
KGVT 190415Z AUTO 00000KT 4SM BR OVC003 10/10 A2999 RMK AO2
KGWB 190415Z AUTO 24004KT 4SM BR OVC005 01/00 A3010 RMK AO2
KGWO 190420Z AUTO 12014G18KT 5SM RA BR FEW034 BKN070 OVC110 17/14 A2999 RMK AO2 PRESFR P0012 T01670144
KGWR 190415Z AUTO 20006KT 10SM CLR M03/M05 A2969 RMK AO1
KGWW 190420Z AUTO 00000KT 10SM CLR 05/04 A3006 RMK AO2 T00510039
KGXA 190255Z AUTO 00000KT 10SM -DZ BKN070 BKN085 07/02 A3002 RMK AO2 RAB0238E0240DZB0240 SLP197 WND DATA ESTMD P0000 60000 T00720024 58004 TSNO $
KGXF 190358Z 23006KT 10SM CLR 11/04 A3006 RMK AO2A SLP177 T01130040
KGXY 190356Z AUTO 33004KT 10SM CLR M03/M04 A2972 RMK AO2 SLP101 T10331044 FZRANO
KGYB 190415Z AUTO 33003KT 2SM BR OVC002 10/10 A3002 RMK AO2 T01010098
KGYH 190355Z AUTO 29003KT 10SM CLR 11/02 A3007 RMK AO2
KGYI 190415Z AUTO 15004KT 7SM BKN005 OVC027 A2999 RMK AO2
KGYL 190415Z AUTO 17005KT 7SM CLR 02/02 A2980 RMK AO2 T00220021
KGYR 190347Z 00000KT 10SM SKC 12/05 A3007 RMK LAST
KGYY 190415Z AUTO 21003KT 7SM OVC011 04/01 A3008 RMK AO2 T00350006
KGZH 190353Z AUTO 00000KT 10SM CLR 17/16 A3010 RMK AO2 SLP192 T01720156
KGZN 190400Z AUTO 18005KT 10SM SCT013 09/08 A2999 RMK AO2
KGZS 190415Z AUTO 00000KT 10SM OVC065 10/08 A3008 RMK A01
KHAE 190355Z AUTO 17005KT 10SM CLR 03/00 A3004 RMK AO2
KHAF 190415Z AUTO 16010KT 3SM BR BKN004 OVC009 11/10 A2979 RMK AO2
KHAI 190415Z AUTO 23005KT 10SM OVC008 01/00 A3007 RMK AO2 T00100000
KHAO 190421Z AUTO 25004KT 10SM OVC010 04/03 A3015 RMK AO2 T00440028
KHBE 190415Z AUTO 00000KT 10SM OVC008 03/01 A3013 RMK AO2
KHBG 190420Z AUTO 17006KT 10SM BKN007 OVC022 19/18 A3006 RMK AO2 T01940183
KHBI 190410Z AUTO 00000KT 10SM CLR 08/03 A3010 RMK AO2 T00790032
KHBR 190353Z AUTO 17010KT 1/4SM FG VV002 08/07 A2992 RMK AO2 SLP132 T00780072
KHBV 190415Z AUTO 00000KT 10SM SCT033 BKN040 BKN120 14/13 A3003 RMK AO2 T01380131
KHCD 190413Z AUTO 16003KT 3SM BR CLR 01/00 A2981 RMK AO2 T00050003
KHCO 190414Z AUTO 16015KT 10SM CLR M03/M05 A2960 RMK AO2
KHDC 190415Z AUTO 15006KT 5SM BR OVC004 20/18 A3003 RMK AO2
KHDE 190415Z AUTO 18006KT 10SM OVC036 03/02 A2979 RMK AO2 T00310020
KHDN 190415Z AUTO 08004KT 10SM CLR M10/M13 A2997 RMK AO1
KHDO 190351Z AUTO 05003KT 10SM CLR 12/10 A3001 RMK AO2 SLP157 T01170100 $
KHEF 190245Z 36005KT 10SM SKC M/M A3010 RMK KHEF AWOS OTS, SKY CONDITION ESTIMATED
KHEI 190353Z AUTO 00000KT 10SM CLR M02/M07 A2958 RMK AO2 SLP045 T10221067
KHEQ 190415Z AUTO 25007KT 10SM CLR M03/M05 A2971 RMK AO2
KHEY 190353Z AUTO 00000KT 10SM CLR 18/15 A3010 RMK AO2 SLP079 T01780150 $
KHEZ 190415Z AUTO 15006KT 10SM FEW007 19/18 A2999 RMK AO1
KHFD 190353Z 01005KT 10SM SCT008 OVC015 02/01 A3003 RMK AO2 SLP170 T00220006
KHFF 190356Z AUTO 35003KT 10SM CLR 08/04 A3006 RMK AO2 SLP194 T00780035 $
KHFJ 190410Z AUTO 13009KT 4SM BR OVC005 05/05 A2997 RMK AO2
KHFY 190415Z AUTO 18003KT 10SM OVC009 03/02 A3012 RMK AO2 T00340023
KHGR 190353Z AUTO 30004KT 10SM OVC034 06/01 A3006 RMK AO2 SLP194 T00560011
KHHF 190415Z AUTO 19015G21KT 10SM CLR 09/08 A2982 RMK AO2 T00850076
KHHG 190415Z AUTO 24005KT 10SM OVC007 02/01 A3012 RMK AO2 T00150008
KHHR 190353Z 10006KT 10SM -RA OVC090 13/11 A3010 RMK AO2 SLP191 P0003 T01280106
KHHV 190420Z AUTO 18014KT 4SM BR FEW008 SCT020 SCT032 24/24 A2998 RMK A01
KHHW 190415Z AUTO 12004KT 7SM OVC002 10/10 A2998 RMK AO2 T01040096
KHIB 190353Z AUTO 15003KT 10SM CLR M05/M06 A2976 RMK AO2 SLP100 T10501056
KHIE 190352Z AUTO 07003KT 10SM OVC032 M02/M06 A2995 RMK AO2 SLP157 T10171056
KHIF 190413Z 14004KT 10SM OVC095 M04/M09 A2988 RMK AO2A
KHII 190415Z AUTO 33003KT 10SM CLR 13/M02 A3003 RMK AO2
KHIO 190353Z 19016KT 10SM FEW024 SCT033 OVC055 09/06 A2935 RMK AO2 PK WND 17034/0309 RAE50 SLP938 P0001 T00890061
KHJH 190415Z AUTO 18008KT 10SM CLR 04/01 A2986 RMK AO2 T00350009
KHJO 190353Z AUTO 12006KT 10SM SCT080 BKN110 09/08 A2994 RMK AO2 RAB00E17 SLP143 P0000 T00940078
KHKA 190353Z AUTO 03004KT 10SM OVC019 09/07 A3008 RMK AO2 SLP184 T00890072
KHKS 190353Z AUTO 10006KT 5SM -RA BR SCT047 BKN070 OVC090 19/18 A3003 RMK AO2 SLP162 P0003 T01890178
KHKY 190353Z 31005KT 10SM CLR 10/02 A3007 RMK AO2 SLP168 T01000022
KHLC 190353Z AUTO 15006KT 10SM OVC044 05/04 A2980 RMK AO2 SLP099 T00500039 TSNO
KHLG 190353Z AUTO 24008KT 10SM OVC009 03/01 A3011 RMK AO2 CIG 005V012 SLP208 T00280011
KHLN 190353Z 28003KT 10SM BKN080 M02/M07 A2959 RMK AO2 SLP076 T10171067
KHLR 190355Z 21005KT 7SM FEW008 SCT010 OVC014 11/09 A3003 RMK AO2A SLPNO WND DATA ESTMD ALSTG ESTMD
KHLX 190415Z AUTO 00000KT 10SM CLR 03/02 A3008 RMK AO2 T00320020
KHMN 190358Z AUTO 13004KT 10SM OVC075 07/04 A3004 RMK AO2 SLP156 T00730041 $
KHMP 190415Z AUTO 00000KT 10SM CLR 12/12 A3011 RMK AO2 T01240124
KHMZ 190415Z AUTO 27004KT 10SM OVC023 04/00 A3009 RMK AO2 T00380003
KHNB 190415Z 00000KT 8SM CLR 03/02 A3014 RMK AO2 SLP302 PWINO FZRANO RVRNO
KHND 190356Z 20017G21KT 10SM BKN100 12/M04 A2996 RMK AO2 SLP151 T01221039
KHNR 190415Z AUTO 18005KT 10SM CLR 02/02 A2994 RMK AO2
KHNZ 190405Z AUTO 33005KT 10SM CLR 07/01 A3006 RMK AO2 T00680005
KHOB 190050Z 23008KT 10SM SKC 10/02 A2997
KHOE 190415Z AUTO 00000KT 10SM CLR 14/14 A3010 RMK AO2
KHON 190355Z AUTO 16012KT 10SM CLR 02/01 A2968 RMK AO2 SLP065 T00170006
KHOP 190358Z AUTO 05005KT 10SM OVC090 07/05 A3009 RMK AO2 SLP193 T00700051
KHOT 190423Z AUTO 05003KT 2 1/2SM BR OVC005 08/08 A3002 RMK AO2 T00830083
KHOU 190353Z 26006KT 4SM BR OVC004 15/14 A2998 RMK AO2 SLP156 T01500144
KHPN 190356Z 32004KT 10SM BKN020 BKN065 03/02 A3000 RMK AO2 SLP166 T00280017
KHQG 190415Z AUTO 17010KT 10SM CLR 05/03 A2975 RMK AO2 T00470028
KHQI 190415Z AUTO 15010G18KT 110V220 3SM BR FEW009 SCT024 BKN065 24/23 A2998 RMK A01
KHQM 190353Z AUTO 20010KT 4SM -RA BR OVC040 08/08 A2924 RMK AO2 SLP904 P0010 T00780078
KHQU 190415Z AUTO 00000KT 10SM CLR 14/13 A3011 RMK AO1 T01430125
KHQZ 190415Z AUTO 00000KT 4SM OVC003 10/10 A3000 RMK AO1 T00980096
KHRI 190353Z AUTO 11012KT 10SM -RA OVC060 05/01 A2940 RMK AO2 SLP960 P0015 T00500011
KHRJ 190400Z AUTO 00000KT 10SM CLR 10/04 A3007 RMK AO2 T00960035
KHRL 190352Z 34006KT 10SM -RA OVC024 17/15 A3001 RMK AO2 RAB19 SLP162 P0001 T01670150
KHRO 190417Z AUTO 14010KT 3SM BR OVC002 06/06 A3001 RMK AO2 T00560056
KHRT 190358Z 00000KT 1/4SM FG OVC001 18/15 A3009 RMK AO2A SLP191 T01800145 RVRNO $
KHRX 190415Z AUTO 22014KT 10SM CLR 07/04 A2984 RMK AO2 T00720035
KHSA 190253Z 13005KT 1/2SM FG OVC001 19/17 A3007
KHSB 190415Z AUTO 09005KT 10SM CLR 05/04 A3011 RMK AO2 T00510041
KHSD 190415Z AUTO 19010KT 10SM BKN009 OVC012 09/08 A2993 RMK A01
KHSE 190351Z AUTO 00000KT 7SM CLR 09/07 A3004 RMK AO2 SLP171 T00940072 TSNO
KHSG 190415Z AUTO 17008KT 10SM CLR M02/M09 A2970 RMK AO2 T10181092
KHSI 190353Z AUTO 17005KT 10SM FEW034 03/01 A2983 RMK AO2 SLP113 T00330011
KHSP 190416Z AUTO 29012KT 1/4SM FG OVC003 01/01 A3003 RMK AO2
KHST 190358Z AUTO 00000KT 10SM CLR 18/18 A3011 RMK AO2 SLP199 T01780178
KHSV 190353Z 12003KT 10SM OVC070 13/09 A3009 RMK AO2 SLP188 T01280094
KHTL 190353Z AUTO 24012KT 10SM OVC010 01/M01 A2995 RMK AO2 SLP155 T00061011
KHTO 190415Z AUTO 36006KT 10SM OVC007 03/02 A3000 RMK AO2 T00280020
KHTS 190351Z 21003KT 10SM OVC017 07/03 A3014 RMK AO2 SLP207 T00670028
KHUA 190358Z AUTO 00000KT 10SM SCT055 OVC070 12/09 A3009 RMK AO2 SLP190 T01170094
KHUF 190353Z 17004KT 10SM OVC010 03/01 A3013 RMK AO2 SLP207 T00330011
KHUL 190353Z AUTO 00000KT 10SM SCT048 OVC060 M07/M11 A3004 RMK AO2 SLP182 T10721111
KHUM 190415Z AUTO 16007KT 5SM BR OVC005 22/21 A3003 RMK AO2 T02200213
KHUT 190352Z 14007KT 10SM CLR 03/02 A2989 RMK AO2 SLP122 T00330017
KHVE 190415Z AUTO 10SM CLR M01/M03 A3001 RMK AO2
KHVN 190420Z AUTO 35005KT 10SM SCT008 OVC030 03/01 A3002 RMK AO2 T00280011
KHVR 190353Z AUTO 29009KT 10SM CLR 02/M01 A2949 RMK AO2 SLP000 T00221011
KHVS 190415Z AUTO 00000KT 10SM CLR 07/01 A3005 RMK AO2
KHWD 190421Z 15010KT 5SM RA SCT012 OVC055 12/09 A2976 RMK AO2 WSHFT 0342 P0012 T01170089
KHWO 190353Z AUTO 00000KT 10SM CLR 19/16 A3013 RMK AO2 SLP201 T01940156
KHWV 190356Z AUTO 33006KT 8SM OVC006 03/02 A3002 RMK AO2 SLP167 T00280022 TSNO
KHWY 190415Z AUTO 02007KT 10SM CLR 07/01 A3008 RMK AO2 T00670005
KHXD 190415Z AUTO 00000KT 10SM CLR 17/15 A3006 RMK AO2
KHYA 190356Z AUTO 02003KT 9SM OVC014 04/03 A2996 RMK AO2 SLP145 T00390028 $
KHYI 190415Z 34005KT 10SM OVC012 12/10 A3002 RMK AO1
KHYR 190353Z AUTO 17003KT 4SM BR CLR M02/M04 A2985 RMK AO2 SLP125 T10171039
KHYS 190356Z AUTO 15007KT 10SM CLR 04/04 A2982 RMK AO2 SLP110 T00440039
KHYW 190415Z AUTO 00000KT 7SM CLR 07/07 A3004 RMK AO2
KHYX 190417Z AUTO 23008G16KT 7SM OVC009 01/00 A3000 RMK AO2
KHZD 190415Z AUTO 05004KT 10SM BKN065 OVC075 09/07 A3006 RMK A01
KHZE 190415Z AUTO 16003KT A2958 RMK AO2
KHZL 190415Z AUTO 27003KT 4SM -RA OVC005 02/02 A3002 RMK AO2 PNO
KHZR 190415Z AUTO 16003KT 10SM OVC012 21/20 A3001 RMK AO2 LTG DSNT W T02120198
KHZX 190413Z AUTO 15003KT 7SM CLR M03/M03 A2978 RMK AO2
KHZY 190414Z AUTO 23006KT 10SM FEW008 OVC017 03/02 A3008 RMK AO2 T00280022 TSNO
KI16 190415Z AUTO 10SM OVC015 05/02 A3019 RMK AO2
KI19 190411Z AUTO 00000KT 10SM OVC006 04/03 A3013 RMK AO2 T00400028
KI35 190415Z AUTO 00000KT 5SM CLR 03/02 A3014 RMK AO1
KI63 190415Z AUTO 13003KT 10SM CLR 00/00 A3004 RMK AO2 T00021005
KI67 190415Z AUTO 00000KT 10SM OVC010 04/01 A3015 RMK AO1
KI69 190417Z AUTO 00000KT 10SM OVC008 04/03 A3014 RMK AO2 T00380030
KI75 190415Z AUTO 17008KT 1/4SM -SN OVC003 02/02 A2996 RMK AO2 T00230021
KIAB 190358Z AUTO 18007KT 10SM OVC055 08/04 A2990 RMK AO2 SLP132 T00770036 $
KIAD 190352Z 30003KT 10SM OVC029 06/01 A3008 RMK AO2 SLP185 T00610011
KIAG 190418Z AUTO 23013KT 5SM BR OVC005 03/01 A3001 RMK AO2 T00330011
KIAH 190353Z 33008KT 1/2SM R27/P6000FT BR OVC003 14/13 A2998 RMK AO2 SFC VIS 5 SLP150 T01390133
KIBM 190420Z AUTO 26007KT 10SM CLR 00/M03 A2968 RMK AO2 T10051030
KICL 190415Z AUTO 16004KT 8SM CLR 02/02 A2995 RMK AO2 PWINO
KICR 190353Z AUTO 21012KT 10SM CLR 05/M03 A2964 RMK AO2 SLP050 T00501033
KICT 190353Z 16008KT 10SM OVC050 08/04 A2991 RMK AO2 SLP131 T00780039
KIDA 190353Z AUTO 33006KT 10SM OVC110 M09/M11 A2983 RMK AO2 SLP177 T10891111
KIDI 190415Z AUTO 28008KT 4SM BR OVC007 03/03 A3012 RMK A01
KIDP 190415Z AUTO 17006KT 10SM OVC007 08/06 A2995 RMK AO2
KIEN 190352Z AUTO 20004KT 10SM CLR 03/M03 A2962 RMK AO2 SLP048 T00281028
KIER 190415Z AUTO 00000KT 10SM OVC004 14/14 A2996 RMK AO2 LTG DSNT S T01400140
KIFA 190435Z AUTO 14004KT 10SM CLR 01/00 A2993 RMK AO2 T00120002
KIFP 190415Z AUTO 14004KT 10SM CLR 11/00 A3002 RMK AO2
KIGM 190351Z AUTO 23007KT 10SM CLR 06/M03 A3003 RMK AO2 SLP148 T00611033
KIGQ 190415Z AUTO 19004KT 7SM BKN011 02/01 A3008 RMK AO2 T00150009
KIGX 190356Z AUTO 00000KT 10SM CLR 08/02 A3008 RMK AO2 SLP184 T00830022
KIIB 190415Z AUTO 17007KT 5SM BR CLR 00/00 A2996 RMK AO2
KIIY 190415Z AUTO 30005KT 10SM CLR 17/11 A3006 RMK AO2
KIJD 190414Z AUTO 00000KT 7SM OVC004 03/02 A3002 RMK AO2 T00280017
KIJX 190415Z AUTO 14005KT 10SM CLR 03/01 A3006 RMK AO2 T00260010
KIKG 190415Z AUTO 07008KT 7SM RA SCT085 OVC110 16/16 A2999 RMK AO2 P0002 T01550155
KIKK 190415Z AUTO 00000KT 10SM OVC013 01/01 A3008 RMK AO2 T00130005
KIKT 190415Z AUTO VRB05KT 6SM BR FEW012 23/21 A3007 RMK A01
KIKV 190415Z AUTO 18010KT 1/2SM BR OVC003 01/00 A2996 RMK AO2
KIKW 190413Z AUTO 24009G15KT 10SM OVC011 02/00 A2999 RMK AO2 T00180000
KILE 190356Z AUTO 00000KT 10SM OVC010 11/09 A3002 RMK AO2 SLP189 T01060094
KILG 190421Z 31005KT 10SM OVC030 07/04 A3005 RMK AO2 T00720039
KILM 190353Z AUTO 14005KT 10SM CLR 11/08 A3006 RMK AO2 SLP178 T01110083
KILN 190354Z AUTO 24008KT 10SM OVC008 03/02 A3012 RMK AO2 SLP221 T00330022
KIML 190353Z AUTO 22004KT 9SM CLR M01/M03 A2973 RMK AO2 SLP092 T10111033
KIMS 190411Z AUTO 00000KT 10SM BKN009 BKN013 03/01 A3014 RMK AO1
KIMT 190354Z AUTO 13004KT 10SM CLR M03/M05 A2985 RMK AO2 SLP125 T10331050
KIND 190354Z 19004KT 10SM OVC010 03/01 A3012 RMK AO2 SLP204 T00280006
KINF 190415Z AUTO 00000KT 10SM CLR 14/14 A3012 RMK AO2
KINJ 190415Z AUTO 00000KT 10SM OVC020 11/10 A3000 RMK AO2 T01100103
KINK 190353Z AUTO 26009KT 10SM CLR 10/03 A2997 RMK AO2 SLP132 T01000033
KINL 190355Z AUTO 18004KT 10SM CLR 00/M05 A2969 RMK AO2 SLP073 T00001050
KINS 190358Z AUTO 07008KT 10SM OVC065 07/M03 A2993 RMK AO2 SLP135 T00661031 $
KINT 190354Z 00000KT 10SM CLR 09/02 A3008 RMK AO2 SLP183 T00890022
KINW 190356Z AUTO 21006KT 10SM CLR 04/00 A3002 RMK AO2 SLP170 T00390000
KIOB 190415Z AUTO 13003KT 10SM CLR 02/02 A3014 RMK AO2
KIOW 190419Z AUTO 16003KT 2SM BR FEW005 00/M01 A3003 RMK AO2 I1000 T00001011
KIPJ 190425Z AUTO 00000KT 10SM 04/01 A3007 RMK AO2 T00420005
KIPL 190353Z AUTO A3005 RMK AO2 SLPNO PWINO $
KIPT 190354Z AUTO 28005KT 10SM OVC025 05/02 A3004 RMK AO2 SLP175 T00500017
KIRK 190416Z AUTO 13004KT 3SM BR CLR 01/00 A3000 RMK AO2 I1000 T00060000
KIRS 190415Z AUTO 24008KT 7SM OVC005 01/00 A3006 RMK AO2 T00050000
KISM 190356Z 31003KT 10SM CLR 18/15 A3013 RMK AO2 SLP205 T01830150
KISN 190352Z AUTO 16004KT 10SM CLR M03/M06 A2952 RMK AO2 SLP023 T10331056
KISO 190400Z AUTO 00000KT 10SM CLR 05/04 A3006 RMK AO2 T00500039
KISP 190356Z 34007KT 10SM OVC008 03/03 A3002 RMK AO2 SLP166 T00330028
KISQ 190415Z AUTO 20004KT 5SM BR CLR M01/M01 A2988 RMK AO2 T10061010
KISW 190354Z AUTO 21005KT 5SM BR CLR M01/M02 A2993 RMK AO2 SLP148 T10111017 $
KITH 190356Z AUTO 20003KT 10SM OVC016 02/02 A3000 RMK AO2 SLP168 T00220017
KITR 190353Z AUTO 18008KT 10SM CLR 00/M02 A2973 RMK AO2 SLP083 T00001017
KIWA 190350Z 00000KT 20SM FEW200 11/06 A3005
KIWD 190356Z AUTO 23004KT 10SM CLR 01/M02 A2983 RMK AO2 SLP113 T00111022 FZRANO
KIWI 190353Z AUTO 00000KT 10SM OVC023 M02/M06 A3006 RMK AO2 SLP182 T10221056
KIXA 190410Z AUTO 00000KT 10SM CLR 05/02 A3007 RMK AO2
KIXD 190353Z 12005KT 9SM OVC060 05/04 A2996 RMK AO2 SLP149 T00500039
KIYA 190415Z AUTO 15006KT 1/4SM RA OVC001 20/20 A3000 RMK AO2 LTG DSNT NW
KIZA 190415Z AUTO 09009G19KT 10SM OVC090 11/06 A2998 RMK AO2
KIZG 190354Z AUTO 00000KT 4SM -SN BR BKN026 OVC031 M04/M05 A3004 RMK AO2 SLP179 P0000 T10391050
KJAC 190415Z 36004KT 10SM OVC048 M14/M15 A2987 RMK AO1
KJAN 190354Z 12007KT 10SM SCT055 BKN085 OVC110 19/18 A3002 RMK AO2 RAE45 SLP163 P0002 T01890178
KJAQ 190415Z AUTO 17009G23KT 10SM SCT010 SCT013 OVC033 07/06 A2976 RMK AO1 T00670060
KJAS 190415Z AUTO 00000KT 2SM -DZ 18/17 A2997 RMK AO2 SKY OBSCURED T01760173
KJAU 190415Z AUTO 00000KT 10SM CLR 06/05 A3015 RMK A01
KJAX 190356Z 25004KT 10SM SCT250 16/15 A3008 RMK AO2 SLP187 T01560150
KJBR 190353Z AUTO 07011KT 10SM BKN017 OVC035 08/07 A3003 RMK AO2 SLP170 T00780067
KJCA 190415Z AUTO 28003KT 10SM CLR 15/07 A3008 RMK AO2
KJCT 190351Z AUTO 20003KT 10SM OVC006 09/09 A3001 RMK AO2 SLP144 T00940089
KJDD 190415Z AUTO 00000KT 1 1/4SM BR OVC003 11/11 A2998 RMK AO2
KJDN 190348Z AUTO 00000KT M01/M03 A2953 RMK AO1 SLP021 T10111033
KJEF 190353Z AUTO 10006KT 10SM BKN060 OVC080 08/02 A3002 RMK AO2 SLP160 T00830022
KJER 190422Z AUTO 03021KT 7SM -FZRA OVC043 M03/M04 A2978 RMK AO2 PK WND 04028/0358 UPB03E16FZRAB16SNE03 P0000 I1001 T10331044
KJES 190415Z AUTO 28003KT 10SM CLR 17/14 A3008 RMK AO2
KJFK 190351Z 35010KT 10SM OVC022 05/02 A3004 RMK AO2 SLP172 T00500017
KJFX 190415Z AUTO 00000KT 10SM FEW037 FEW048 14/13 A3008 RMK AO2 PWINO
KJFZ 190415Z AUTO 00000KT 10SM CLR A3012 RMK AO2
KJGG 190415Z AUTO 00000KT 10SM CLR 07/04 A3006 RMK AO1
KJHN 190415Z AUTO 00000KT 10SM CLR M01/M02 A2974 RMK AO2 T10121021
KJHW 190415Z AUTO 23008KT 3SM OVC002 01/00 A3002 RMK AO1
KJKA 190415Z AUTO 14004KT 1/2SM FG OVC002 19/19 A3008 RMK AO2 T01900190
KJKJ 190414Z AUTO 17011KT 10SM CLR M02/M05 A2971 RMK AO2
KJKL 190353Z AUTO 00000KT 10SM CLR 04/02 A3013 RMK AO2 SLP208 T00440022
KJLN 190408Z AUTO 13006KT 10SM BKN007 OVC038 08/07 A2997 RMK AO2 T00780072
KJMR 190419Z AUTO 00000KT 2SM BR M04/M06 A2983 RMK AO2 SKY OBSCURED
KJMS 190356Z AUTO 17006KT 10SM CLR M03/M06 A2962 RMK AO2 SLP050 T10281061
KJNX 190415Z AUTO 00000KT 10SM CLR 06/05 A3005 RMK AO2
KJOT 190415Z AUTO 00000KT 2SM BR CLR M02/M02 A3007 RMK AO2 T10171020
KJQF 190430Z AUTO 00000KT 10SM CLR 08/03 A3011 RMK AO2
KJRB 190415Z AUTO 00000KT OVC065 05/02 A3003 RMK AO2 PWINO FZRANO RVRNO
KJSO 190415Z AUTO 00000KT 2SM BR OVC001 11/11 A2999 RMK AO2 T01100110
KJST 190354Z AUTO 26008KT 7SM OVC003 01/01 A3003 RMK AO2 SLP187 T00110011 TSNO
KJSV 190415Z AUTO 10009KT 7SM BKN006 OVC043 07/06 A2998 RMK AO2
KJTC 190415Z AUTO 24009KT 10SM CLR M01/M04 A3006 RMK AO2
KJVL 190415Z AUTO 22007KT 5SM BR OVC005 02/02 A3002 RMK AO2
KJVW 190415Z AUTO 11004KT 3SM -DZ CLR 19/18 A3001 RMK AO2
KJWG 190415Z AUTO 20009KT 10SM OVC004 08/08 A2992 RMK AO2
KJWN 190415Z AUTO 05003KT 10SM CLR 06/05 A3010 RMK
KJWY 190415Z AUTO 00000KT 5SM BR SCT008 OVC021 10/10 A3001 RMK AO2 T01010101
KJXI 190415Z AUTO 00000KT 5SM BR BKN005 OVC010 10/10 A2999 RMK AO2 T01020101
KJXN 190356Z AUTO 24013KT 6SM BR OVC004 00/M01 A3006 RMK AO2 SLP187 T00001006 $
KJYG 190415Z AUTO 17010KT 10SM CLR 02/01 A2982 RMK AO2
KJYL 190415Z AUTO 00000KT 10SM CLR A3007 RMK AO2
KJYM 190415Z AUTO 25006KT 5SM BR OVC003 00/00 A3004 RMK AO2
KJYO 190354Z AUTO 26003KT 10SM OVC029 07/04 A3008 RMK AO2
KJYR 190415Z AUTO 19007KT 10SM CLR 04/02 A2984 RMK AO2
KJZI 190415Z AUTO 26005KT 10SM CLR 18/16 A3003 RMK AO2
KJZP 190415Z AUTO 33004KT 10SM CLR 13/M01 A3013 RMK AO2 T01281012
KK02 190415Z AUTO 00000KT 10SM SCT075 05/04 A3007 RMK AO2 T00450035
KK88 190415Z AUTO 16005KT 10SM OVC016 08/06 A2996 RMK AO1 T00750057
KKLS 190356Z AUTO 16011KT FEW009 BKN031 OVC070 04/04 A2932 RMK AO2 SLP935 P0004 T00440039 PWINO $
KL18 190415Z AUTO 00000KT 10SM OVC095 10/09 A3015 RMK AO2
KL35 190415Z AUTO 26014G17KT 1 1/2SM -SN SCT010 OVC017 M02/M03 A3006 RMK AO2
KL38 190415Z AUTO 16004KT 10SM CLR 21/21 A3000 RMK AO2 LTG DSNT W T02120206
KLAA 190353Z AUTO 00000KT 8SM CLR M04/M06 A2972 RMK AO2 SLP091 I1000 T10441061 TSNO
KLAF 190420Z AUTO 21004KT 10SM OVC010 02/01 A3011 RMK AO2 T00170006
KLAL 190415Z AUTO 00000KT 10SM CLR 16/15 A3013 RMK AO2
KLAM 190415Z AUTO 00000KT 10SM CLR 00/M05 A2998 RMK AO2 T00001055
KLAN 190353Z 24012KT 8SM OVC006 01/M01 A3005 RMK AO2 SLP185 T00111011
KLAR 190353Z AUTO 07005KT 10SM CLR M10/M11 A2978 RMK AO2 SLP158 T11001111
KLAS 190356Z 10003KT 10SM SCT120 BKN250 12/M05 A2993 RMK AO2 SLP135 T01221050
KLAW 190416Z AUTO 00000KT 1/4SM FG VV001 06/05 A2995 RMK AO2 T00610050
KLAX 190353Z 10009KT 10SM -RA OVC085 12/10 A3008 RMK AO2 SLP187 P0003 T01220100
KLBB 190353Z 22008KT 10SM CLR 07/05 A2991 RMK AO2 SLP117 T00720050
KLBE 190415Z AUTO 24007KT 10SM SCT012 OVC021 03/03 A3012 RMK AO2
KLBF 190353Z AUTO 10003KT 10SM CLR M01/M03 A2974 RMK AO2 SLP094 T10111028 $
KLBL 190415Z 18012KT 10SM CLR 06/03 A2977 RMK AO1
KLBT 190354Z AUTO 00000KT 10SM CLR 07/06 A3004 RMK AO2 SLP173 T00720056
KLBX 190353Z AUTO 33006KT 10SM OVC003 16/14 A2999 RMK AO2 SLP153 T01560144
KLCG 190415Z AUTO 22003KT 10SM CLR 02/02 A2982 RMK AO2 T00210016
KLCH 190353Z AUTO 19007KT 6SM -RA BR OVC005 22/21 A2996 RMK AO2 RAB26 SLP153 P0000 T02170211
KLCI 190356Z AUTO 08005KT 9SM -SN OVC019 M03/M04 A3002 RMK AO2 SLP186 P0000 T10281039 410061033 FZRANO
KLCK 190415Z AUTO 25006KT 10SM 04/02 A3012 RMK AO2 T00350023
KLCQ 190415Z AUTO 00000KT 3SM BR CLR 16/16 A3010 RMK AO2
KLDJ 190415Z AUTO 00000KT 10SM SCT055 OVC070 04/02 A3003 RMK AO2 T00410018
KLDM 190414Z AUTO 21012G16KT 5SM BR OVC007 02/01 A2999 RMK AO2 T00150008
KLEB 190353Z AUTO 00000KT 7SM FEW023 OVC035 M01/M01 A3000 RMK AO2 SNE50 SLP166 P0000 T10061011
KLEE 190353Z AUTO 33003KT 10SM CLR 18/15 A3013 RMK AO2 SLP202 T01780150
KLEW 190356Z AUTO 36006KT 7SM -SN OVC016 M05/M06 A3005 RMK AO2 SLP193 P0000 T10501061 410111056 FZRANO
KLEX 190354Z 00000KT 10SM CLR 02/01 A3013 RMK AO2 SLP209 T00220006
KLFI 190358Z AUTO 00000KT 10SM CLR 04/04 A3004 RMK AO2 SLP179 T00410039 $
KLFK 190353Z AUTO 29004KT 2SM BR OVC003 14/13 A2996 RMK AO2 SLP144 T01390133
KLFT 190353Z 17007KT 9SM OVC006 23/22 A2999 RMK AO2 SLP156 T02280217
KLGA 190418Z 35003KT 10SM SCT019 BKN065 06/02 A3002 RMK AO2 T00560022 $
KLGB 190353Z 11004KT 10SM -RA OVC090 12/09 A3011 RMK AO2 SLP195 P0005 T01220094
KLGC 190415Z AUTO 00000KT 10SM CLR 13/13 A3011 RMK AO2 T01340134
KLGD 190415Z AUTO 18021KT 2 1/2SM CLR M01/M03 A2960 RMK AO1
KLGU 190351Z AUTO 32005KT 5SM BR OVC100 M10/M12 A2992 RMK AO2 SLP197 T11001122
KLHB 190415Z AUTO 00000KT 4SM BR OVC004 10/10 A3002 RMK AO2 T01030103
KLHM 190415Z AUTO 16024G38KT 7SM BKN049 OVC060 08/06 A2971 RMK AO1 P0002
KLHQ 190417Z AUTO 23008KT 10SM OVC008 04/02 A3012 RMK AO2 T00440022
KLHW 190358Z AUTO 25005KT 10SM CLR 18/14 A3005 RMK AO2 SLP179 T01760143
KLHX 190353Z AUTO 00000KT 10SM CLR M02/M05 A2972 RMK AO2 SLP088 T10221050
KLHZ 190420Z AUTO 00000KT 10SM CLR 06/02 A3008 RMK AO2
KLIC 190355Z AUTO 34004KT 10SM CLR M07/M09 A2971 RMK AO2 SLP089 T10721089
KLIT 190418Z 36004KT 10SM OVC009 08/08 A3003 RMK AO2 T00830078
KLJF 190412Z AUTO 00000KT 1 3/4SM BR VV007 01/00 A2979 RMK AO2
KLKR 190435Z AUTO 10SM CLR 08/M01 A3007 RMK AO2 PWINO
KLKU 190415Z AUTO 00000KT 10SM CLR 07/03 A3007 RMK AO2
KLKV 190415Z AUTO 19006KT 8SM OVC014 01/M01 A2959 RMK AO1
KLLJ 190425Z AUTO 00000KT 1 3/4SM -SN BR OVC027 M08/M09 A2974 RMK AO2 SNB07 P0000 T10831089
KLLQ 190409Z AUTO 34003KT 1 1/2SM BR OVC003 12/12 A2998 RMK AO2 T01220117
KLMO 190413Z AUTO 00000KT 10SM CLR M02/M07 A2973 RMK AO2 T10181067
KLMT 190353Z 17012G21KT 10SM OVC060 03/M02 A2955 RMK AO2 PK WND 20030/0332 SLP009 T00281017
KLNC 190415Z AUTO 00000KT 5SM BR OVC023 10/10 A3001 RMK AO2 T01000095
KLND 190353Z AUTO 10004KT 10SM CLR M10/M13 A2977 RMK AO2 SLP152 T11001128
KLNK 190354Z 17012KT 10SM CLR 04/00 A2988 RMK AO2 SLP125 T00440000
KLNL 190415Z AUTO 00000KT 10SM CLR M02/M03 A2985 RMK AO2 T10231031
KLNN 190415Z AUTO 24011G14KT 5SM OVC003 02/02 A3009 RMK AO1 T00150015
KLNP 190415Z AUTO 09004KT 7SM CLR 03/03 A3012 RMK AO2
KLNR 190411Z AUTO 00000KT 3SM BR OVC004 01/00 A2999 RMK AO2 T00110000
KLNS 190406Z AUTO 31007KT 10SM SCT029 OVC047 07/03 A3004 RMK AO2 T00670033
KLOL 190353Z AUTO 04005KT 7SM BKN043 BKN050 BKN090 00/M01 A2970 RMK AO2 UPE41 SLP075 P0001 T00001006
KLOM 190415Z AUTO 00000KT 10SM OVC023 05/03 A3002 RMK AO1
KLOR 190353Z AUTO 00000KT CLR 16/14 A3009 RMK AO2 SLP188 T01560144 PWINO $
KLOT 190415Z AUTO 17003KT 4SM BR CLR 00/00 A3007 RMK AO2 T00000000
KLOU 190353Z AUTO 00000KT 10SM CLR 04/02 A3014 RMK AO2 SLP208 T00440017
KLOZ 190353Z AUTO 00000KT 10SM CLR 03/02 A3013 RMK AO2 SLP206 T00330017
KLPR 190353Z AUTO 24010KT 7SM OVC005 02/01 A3011 RMK AO2 SLP202 T00220006
KLQK 190415Z AUTO 00000KT 10SM CLR 07/03 A3005 RMK AO2 T00700034
KLRD 190356Z 13003KT 10SM SCT036 BKN110 17/12 A3002 RMK AO2 SLP173 T01670117 $
KLRF 190408Z AUTO 03004KT 10SM OVC006 08/08 A3002 RMK AO2
KLRJ 190415Z AUTO 18005G11KT 10SM CLR 03/02 A2983 RMK AO2
KLRO 190415Z AUTO 00000KT 10SM CLR 18/16 A3003 RMK AO2
KLRU 190415Z AUTO 26008KT 10SM OVC085 07/03 A3004 RMK AO2 T00700030
KLRY 190415Z AUTO 12004KT 10SM OVC070 07/03 A2998 RMK AO2
KLSE 190353Z AUTO 18010KT 7SM OVC008 02/00 A2993 RMK AO2 SLP145 T00220000
KLSF 190423Z AUTO 00000KT 1 1/4SM R33/2800FT BR CLR 13/13 A3009 RMK AO2 VIS 1 1/4V2 1/2
KLSV 190358Z AUTO 32004KT 10SM FEW090 OVC120 11/M03 A2994 RMK AO2 SLP142 T01141032
KLTS 190408Z AUTO 12008KT 1/2SM R17L/0900FT FG VV001 05/04 A2992 RMK AO2
KLUA 190415Z AUTO 07003KT 10SM CLR 02/02 A3009 RMK AO2
KLUD 190415Z AUTO 21006KT 5SM BR CLR 20/19 A2998 RMK AO2 T01950191
KLUF 190358Z AUTO 31003KT 10SM CLR 11/06 A3005 RMK AO2 SLP176 T01110059 $
KLUK 190353Z 20003KT 10SM OVC012 05/03 A3016 RMK AO2 SLP214 T00500028
KLUL 190415Z AUTO 15003KT 10SM SCT043 BKN050 OVC065 19/19 A3006 RMK AO2 T01900190
KLUM 190415Z AUTO 1 1/4SM BR VV007 M02/M03 A2988 RMK AO2 T10251026
KLUX 190415Z AUTO 00000KT 10SM CLR 10/00 A3006 RMK AO2
KLVJ 190409Z AUTO 28004KT 1 3/4SM BR OVC002 16/14 A2998 RMK AO2 T01560144
KLVK 190353Z 20011KT 6SM -RA BKN055 BKN070 OVC085 12/08 A2973 RMK AO2 RAB31 SLP068 P0005 T01170078
KLVL 190415Z AUTO 00000KT 10SM CLR 05/03 A3007 RMK AO1 T00530025
KLVM 190353Z AUTO 22027G36KT 10SM CLR 07/M09 A2962 RMK AO2 PK WND 22036/0352 SLP026 T00671094
KLVN 190409Z AUTO 19006KT 10SM CLR 00/00 A2983 RMK AO2
KLVS 190353Z AUTO 29008KT 10SM CLR M02/M08 A2982 RMK AO2 SLP105 T10221083
KLWA 190416Z AUTO 22012KT 10SM OVC010 02/01 A3005 RMK AO2 T00180005
KLWB 190415Z AUTO 29003KT 10SM OVC011 03/01 A3011 RMK AO2 T00310010
KLWC 190419Z AUTO 00000KT 1 3/4SM BR CLR 01/01 A2996 RMK AO2 T00060006
KLWD 190353Z AUTO 16006KT 1/4SM FG VV002 02/02 A2996 RMK AO2 SLP156 T00220017
KLWM 190354Z AUTO 36006KT 10SM OVC006 M01/M02 A3005 RMK AO2 SLP176 T10111022
KLWS 190356Z 08007KT 10SM -RA OVC046 03/01 A2956 RMK AO2 SLP021 P0002 T00280006
KLWT 190354Z AUTO 02007KT 10SM CLR 04/M03 A2952 RMK AO2 SLP001 T00441028
KLWV 190353Z AUTO 11003KT 7SM CLR 03/02 A3014 RMK AO2 SLP209 T00280022
KLXL 190412Z AUTO 12003KT 5SM BR CLR M01/M02 A2979 RMK AO2
KLXN 190415Z AUTO 15004KT 10SM CLR 02/01 A2978 RMK AO2 T00200009
KLXT 190353Z AUTO 12005KT 10SM OVC065 05/03 A2997 RMK AO2 SLP154 T00500033 TSNO
KLXV 190353Z AUTO 02005KT 10SM CLR M09/M13 A2991 RMK AO2 SLP134 T10941133
KLXY 190415Z AUTO 00000KT 10SM OVC003 10/09 A2999 RMK AO2 T00970093
KLYH 190354Z AUTO 00000KT 10SM CLR 03/01 A3009 RMK AO2 SLP191 T00280006
KLYV 190355Z AUTO 17008KT 10SM CLR 01/00 A2978 RMK AO2
KLZU 190145Z 28005KT 10SM CLR 17/09 A3010 RMK CLSING WX USING PDK ALT LL
KLZZ 190415Z AUTO 00000KT 10SM OVC007 10/09 A3000 RMK AO2 T01020093
KM08 190415Z AUTO 12005KT 6SM BR OVC027 11/10 A3003 RMK A01
KM19 190356Z AUTO 05006KT 10SM OVC014 08/07 A3004 RMK AO2 SLP179 T00780067
KM21 190415Z AUTO 00000KT 7SM BKN095 05/04 A3012 RMK AO2 T00450036
KM25 190435Z AUTO 06004KT 10SM OVC070 06/05 A3009 RMK AO2
KM30 190415Z AUTO 00000KT 10SM BKN070 OVC080 06/05 A3009 RMK AO2 T00640047
KM33 190415Z AUTO 00000KT 10SM CLR 06/05 A3014 RMK A01
KM91 190415Z AUTO 00000KT 10SM OVC085 06/05 A3009 RMK A01
KMAE 190353Z AUTO 15013KT 10SM OVC060 10/06 A2991 RMK AO2 PK WND 12027/0306 RAE25 SLP129 P0000 T01000061
KMAF 190353Z 21007KT 10SM CLR 10/05 A2997 RMK AO2 SLP132 T01000050
KMAI 190353Z AUTO 00000KT 10SM CLR 16/15 A3011 RMK AO2 SLP194 T01610150
KMAN 190415Z AUTO 16010G16KT 3SM BR OVC009 01/00 A2972 RMK A01
KMAO 190415Z AUTO 00000KT 10SM CLR 08/06 A3005 RMK AO2
KMAW 190415Z AUTO 10004KT 7SM SCT007 SCT017 BKN035 08/06 A3009 RMK AO2
KMBG 190352Z AUTO 13006KT 10SM CLR M06/M09 A2961 RMK AO2 SLP052 T10561089
KMBL 190356Z AUTO 21006KT 7SM OVC009 02/00 A2998 RMK AO2 SLP175 T00170000 FZRANO
KMBO 190415Z AUTO 00000KT 7SM SCT002 SCT065 SCT090 17/17 A3002 RMK AO2 PWINO
KMBS 190353Z AUTO 24012KT 6SM BR OVC008 01/00 A3001 RMK AO2 SLP169 T00110000
KMCB 190353Z AUTO 16008KT 7SM OVC006 20/19 A3002 RMK AO2 SLP161 T02000189
KMCC 190410Z AUTO 15027G39KT 3SM -RA FEW001 SCT018 BKN026 08/07 A2975 RMK AO2
KMCD 190415Z AUTO 24009KT 5SM BR OVC009 01/01 A2992 RMK AO2 T00080008
KMCE 190353Z AUTO 13024G32KT 10SM BKN055 OVC070 09/06 A2985 RMK AO2 PK WND 13035/0304 SLP108 T00940061 TSNO
KMCF 190408Z AUTO 00000KT 1/2SM R22/2400FT FG CLR 15/15 A3012 RMK AO2
KMCI 190353Z 14007KT 10SM CLR 03/01 A2996 RMK AO2 SLP151 T00280006
KMCJ 190415Z AUTO 31005KT 2SM OVC001 14/14 A2996 RMK AO1
KMCK 190403Z AUTO 13003KT 2SM BR CLR 00/00 A2976 RMK AO2 T00000000
KMCN 190353Z AUTO 28004KT 8SM CLR 13/13 A3009 RMK AO2 SLP187 T01330128
KMCO 190353Z 00000KT 10SM BKN250 21/15 A3012 RMK AO2 SLP199 T02060150
KMCW 190353Z AUTO 16006KT 10SM CLR 00/M01 A2990 RMK AO2 SLP135 T00001011 $
KMCX 190415Z AUTO 22006KT 10SM OVC011 02/00 A3011 RMK AO2 T00180000
KMDD 190415Z AUTO 20007KT 10SM CLR 10/06 A2997 RMK AO2 T00990058
KMDH 190352Z 11003KT 10SM OVC080 06/04 A3009 RMK AO2 SLP190 T00560044
KMDJ 190415Z AUTO 16013KT 5SM BR FEW021 SCT041 22/22 A3006 RMK A01
KMDQ 190415Z AUTO 00000KT 10SM OVC075 10/07 A3010 RMK AO2
KMDS 190410Z AUTO 18007KT 01/01 RMK AO2 PWINO PNO TSNO
KMDT 190356Z 30005KT 10SM BKN030 OVC045 06/02 A3005 RMK AO2 SLP177 T00610022
KMDW 190405Z 21009KT 8SM SCT009 01/M01 A3006 RMK AO2 T00111006
KMDZ 190415Z AUTO 19005KT 4SM BR CLR M02/M03 A2987 RMK AO2 T10201026
KMEB 190352Z AUTO 06003KT 10SM CLR 11/04 A3005 RMK AO2 SLP175 T01110044
KMEH 190356Z AUTO 00000KT 4SM -SN SCT012 OVC038 M02/M05 A2950 RMK AO2 SLP015 P0001 T10221050
KMEI 190358Z AUTO 00000KT 10SM SCT055 BKN070 19/17 A3007 RMK AO2 SLP178 T01940172
KMEM 190406Z 36006KT 10SM FEW009 OVC016 11/11 A3003 RMK AO2
KMER 190345Z 15028G44KT 7SM -RA BKN030 OVC050 10/10 A2984
KMEV 190415Z AUTO 15022G35KT 10SM SCT050 BKN060 06/01 A2964 RMK AO2
KMEZ 190415Z AUTO 09003KT 2 1/2SM OVC003 09/08 A3001 RMK AO2
KMFD 190414Z AUTO 23008KT 3SM BR OVC002 02/02 A3010 RMK AO2 T00170017
KMFE 190353Z 01005KT 9SM -RA FEW030 OVC055 17/14 A3003 RMK AO2 RAB0256 SLP167 P0002 T01720139
KMFI 190420Z AUTO 00000KT 2SM BR BKN007 M03/M03 A2990 RMK AO2 I1000 T10281033
KMFR 190353Z 23008KT 10SM -RA SCT048 BKN070 07/04 A2954 RMK AO2 SLP005 P0001 T00670039
KMFV 190415Z AUTO 33003KT 10SM OVC040 07/06 A3004 RMK AO2 T00690060
KMGC 190415Z AUTO 23007KT 10SM OVC011 02/02 A3008 RMK AO2
KMGE 190358Z 28004KT 10SM BKN250 14/10 A3010 RMK AO2A SLP190 T01360101 $
KMGG 190413Z AUTO 15003KT 1/4SM FZFG VV002 M04/M04 A2981 RMK AO2 T10361039
KMGJ 190419Z AUTO 00000KT 3/4SM BR FEW019 OVC055 01/00 A3000 RMK AO2 T00060000 TSNO
KMGM 190353Z 00000KT 10SM BKN047 BKN055 18/15 A3010 RMK AO2 SLP191 T01830150
KMGN 190414Z AUTO 24006KT 10SM OVC011 01/00 A2993 RMK AO2 T00150002
KMGR 190415Z AUTO 00000KT 10SM CLR 15/14 A3012 RMK AO2
KMGW 190353Z VRB04KT 10SM FEW013 OVC021 04/01 A3013 RMK AO2 SLP208 T00440011
KMGY 190353Z AUTO 25003KT 10SM OVC006 03/02 A3012 RMK AO2 SLP205 T00330022
KMHE 190353Z AUTO 16008KT 10SM CLR 02/01 A2971 RMK AO2 SLP075 T00170011
KMHK 190352Z AUTO 00000KT 10SM OVC065 06/01 A2992 RMK AO2 SLP138 T00610011
KMHL 190435Z AUTO 10005KT 10SM OVC080 06/03 A2999 RMK AO2
KMHR 190345Z 16030G41KT 5SM FEW023 FEW029 OVC043 09/07 A2973 RA
KMHS 190356Z AUTO 10005KT 3/4SM -SN BR VV008 01/M01 A2963 RMK AO2 SLP065 P0010 T00061006
KMHT 190353Z 35004KT 3SM -SN BR BKN007 OVC011 M01/M03 A3001 RMK AO2 SLP182 P0000 T10111028
KMHV 190400Z AUTO 21011KT 5SM BR FEW023 SCT036 OVC050 06/04 A2998 RMK A01 P0001
KMIA 190353Z 23004KT 10SM SCT250 22/17 A3012 RMK AO2 SLP199 T02220172
KMIB 190358Z AUTO 26012KT 10SM CLR 02/M03 A2950 RMK AO2 SLP010 T00161030
KMIC 190353Z AUTO 00000KT 1/2SM FZFG CLR M01/M03 A2982 RMK AO2 SLP108 I1000 T10111033 TSNO
KMIE 190353Z AUTO 21008KT 8SM OVC006 03/01 A3011 RMK AO2 SLP199 T00280011
KMIS 190410Z AUTO 18008KT 6SM BR 22/22 A3007 RMK A01
KMIV 190354Z AUTO 33003KT 10SM FEW031 BKN047 04/03 A3004 RMK AO2 SLP171 T00390028
KMIW 190353Z AUTO 15006KT 7SM CLR 01/01 A2994 RMK AO2 SLP148 T00110006
KMJQ 190415Z AUTO 18009KT 10SM CLR 01/00 A2982 RMK AO2
KMJX 190356Z AUTO 33003KT 6SM BR FEW038 BKN070 02/02 A3004 RMK AO2 SLP178 T00170017 FZRANO PNO $
KMKC 190354Z 00000KT 10SM BKN065 04/03 A2997 RMK AO2 SLP152 T00440028
KMKE 190352Z 24009KT 7SM BKN007 01/M01 A3000 RMK AO2 SLP166 T00111011
KMKG 190355Z 20011KT 7SM OVC011 03/01 A3003 RMK AO2 SLP176 T00280011
KMKJ 190415Z AUTO 27009KT 10SM CLR 03/02 A3014 RMK AO2 T00290022
KMKL 190353Z AUTO 11003KT 10SM BKN050 11/08 A3005 RMK AO2 SLP176 T01060078
KMKN 190415Z AUTO 21004KT 10SM OVC008 10/10 A3001 RMK AO2 T00960096
KMKO 190353Z AUTO 15007KT OVC005 08/07 A2998 RMK AO2 SLP153 T00780072 $
KMKS 190415Z AUTO 00000KT 7SM CLR 15/13 A3003 RMK AO2
KMKT 190356Z AUTO 18011KT 10SM CLR 03/01 A2983 RMK AO2 SLP113 T00280011
KMKY 190415Z AUTO 08004KT 10SM CLR 12/12 A3011 RMK AO1
KMLB 190353Z 00000KT 10SM CLR 17/15 A3011 RMK AO2 SLP194 T01720150
KMLC 190353Z AUTO 00000KT 8SM OVC003 09/07 A2998 RMK AO2 SLP150 T00890072
KMLE 190415Z AUTO 00000KT 10SM CLR 04/02 A2989 RMK AO2 T00430022
KMLF 190352Z AUTO 19010KT 10SM CLR 02/M05 A2992 RMK AO2 SLP147 T00221050
KMLI 190352Z 00000KT 4SM BR CLR M02/M03 A3003 RMK AO2 SLP174 I1000 T10171028
KMLJ 190415Z AUTO 00000KT 10SM CLR 16/16 A3008 RMK AO2
KMLP 190353Z AUTO 1/2SM FG VV002 00/M01 A2951 RMK AO2 SLP960 T00001006
KMLS 190353Z AUTO 15008KT 10SM CLR M03/M07 A2958 RMK AO2 SLP047 T10331072
KMLT 190353Z AUTO 00000KT 10SM SCT039 BKN049 OVC055 M06/M10 A3006 RMK AO2 SLP190 T10611100
KMLU 190353Z 00000KT 10SM OVC004 14/13 A2999 RMK AO2 SLP153 T01390128 $
KMMH 190415Z AUTO 11008KT 1 1/4SM -SN BKN008 BKN016 M01/M01 A2984 RMK AO2 T10111011
KMMI 190415Z AUTO 00000KT 10SM CLR 06/04 A3011 RMK
KMMK 190353Z AUTO 33005KT 10SM OVC007 03/01 A3003 RMK AO2 SLP170 T00280006 TSNO
KMML 190356Z AUTO 20015KT 10SM CLR 04/02 A2974 RMK AO2 SLP084 T00390017
KMMT 190358Z AUTO 00000KT 10SM CLR 11/06 A3005 RMK AO2 SLP178 T01060062 $
KMMU 190415Z AUTO 00000KT 3SM BR OVC045 01/01 A3003 RMK AO2
KMMV 190353Z AUTO 20021KT 10SM -RA FEW027 BKN070 OVC110 09/06 A2939 RMK AO2 PK WND 18035/0307 SLP952 P0000 T00890056
KMNE 190415Z AUTO 00000KT 1/2SM FG OVC003 13/12 A2998 RMK AO2 P0002 T01300122
KMNH 190416Z AUTO 26005KT 10SM CLR M03/M11 A2975 RMK AO2
KMNI 190415Z AUTO 00000KT 10SM CLR 10/04 A3005 RMK AO2
KMNN 190353Z AUTO 28004KT 5SM BR OVC005 03/02 A3012 RMK AO2 SLP208 T00280017
KMNV 190415Z AUTO 00000KT 10SM CLR 07/05 A3010 RMK A01
KMNZ 190415Z AUTO 20005KT 10SM OVC003 10/10 A3003 RMK AO2 T00970097
KMOB 190356Z 16006KT 1/4SM FG VV002 19/19 A3009 RMK AO2 SFC VIS 1/2 SLP187 T01940189
KMOD 190353Z 13016G32KT 10SM OVC032 11/06 A2981 RMK AO2 PK WND 12043/0317 RAB05E15B37E52 SLP095 P0000 T01060056
KMOP 190415Z AUTO 24008KT 7SM OVC009 01/00 A2999 RMK AO2 T00120000
KMOR 190415Z AUTO 00000KT 10SM FEW031 06/04 A3011 RMK A01
KMOT 190354Z 23016KT 10SM CLR 03/M03 A2950 RMK AO2 SLP006 T00331028 $
KMOX 190413Z AUTO 13008KT 7SM CLR M03/M03 A2973 RMK AO2
KMPO 190405Z AUTO 30005KT 10SM SCT004 BKN010 OVC016 02/01 A2996 RMK AO2 CIG 008V014 T00170006
KMPV 190424Z AUTO VRB04KT 10SM SCT010 BKN024 OVC039 M01/M02 A2997 RMK AO2 T10111022 TSNO
KMQB 190415Z AUTO 17004KT 4SM BR CLR 00/00 A3007 RMK AO2 T10011001
KMQE 190354Z AUTO 33010KT M01/M01 A2998 RMK AO1 SLP169 T10111011
KMQI 190410Z AUTO 01003KT 10SM CLR 07/07 A3004 RMK AO2 T00690066
KMQJ 190416Z AUTO 19005KT 7SM OVC008 02/01 A3012 RMK AO1
KMQS 190415Z AUTO 30004KT 10SM OVC024 06/04 A3004 RMK AO2
KMQY 190356Z 00000KT 10SM CLR 07/06 A3012 RMK AO2 SLP210 T00670056
KMRB 190353Z AUTO 00000KT 10SM OVC029 07/01 A3007 RMK AO2 SLP183 T00670011 TSNO
KMRC 190415Z AUTO 04003KT 10SM OVC070 08/08 A3007 RMK
KMRF 190356Z AUTO 32004KT 10SM CLR 01/M02 A3007 RMK AO2 SLP190 T00061017 FZRANO
KMRH 190358Z AUTO 05004KT 10SM CLR 08/06 A3006 RMK AO2 SLP180 I1000 T00780061 TSNO
KMRJ 190415Z AUTO 17005KT 1 3/4SM BR OVC002 02/02 A2997 RMK AO2
KMRN 190420Z AUTO 00000KT 10SM CLR 04/03 A3012 RMK AO2 T00360025
KMRT 190412Z AUTO 24004KT 7SM OVC005 03/02 A3010 RMK AO2 T00270022
KMRY 190354Z 17019G31KT 140V200 10SM -RA BKN055 OVC070 13/09 A2978 RMK AO2 PK WND 15031/0347 RAB15 SLP097 P0000 T01330089
KMSL 190353Z AUTO 10004KT 10SM BKN055 12/08 A3010 RMK AO2 SLP190 T01220083
KMSN 190353Z 21006KT 4SM BR OVC006 00/M01 A2999 RMK AO2 SLP166 T00001011
KMSO 190353Z AUTO 07003KT 6SM BR OVC100 M03/M04 A2959 RMK AO2 SLP056 T10281044
KMSP 190353Z 13005KT 9SM CLR 00/M02 A2984 RMK AO2 SLP112 T00001017
KMSS 190353Z AUTO 21007KT 7SM OVC004 01/00 A2996 RMK AO2 SLP152 T00060000
KMSV 190415Z AUTO 28003KT 1 1/2SM OVC002 01/00 A2999 RMK AO1
KMSY 190353Z 16007KT 7SM OVC006 22/21 A3004 RMK AO2 SLP174 T02170211
KMTC 190358Z 24010KT 10SM OVC011 02/01 A3002 RMK AO2A SLP175 T00210008
KMTH 190353Z AUTO 00000KT 10SM CLR 21/17 A3011 RMK AO2 SLP196 T02060172
KMTJ 190353Z AUTO 14005KT 10SM CLR M01/M04 A3002 RMK AO2 SLP169 T10111039
KMTN 190245Z 28009KT 10SM OVC035 09/05 A3007 RMK LAST
KMTO 190353Z AUTO 15004KT 8SM CLR 02/01 A3010 RMK AO2 SLP199 T00170011
KMTP 190354Z AUTO 36007KT 04/04 A3000 RMK AO1 SLP157 T00390039
KMTV 190415Z AUTO 35006KT 10SM CLR 05/02 A3011 RMK AO2 T00530015
KMTW 190356Z AUTO 9SM CLR 01/M02 A2996 RMK AO2 SLP168 T00111017 FZRANO
KMUI 190358Z AUTO 30003KT 10SM FEW028 OVC044 06/03 A3004 RMK AO2 SLP178 T00610033 $
KMUO 190358Z 12023KT 2SM -SN BR FEW006 OVC022 M01/M01 A2976 RMK AO2A PK WND 12029/40 VIS 2 1/2 RWY30 SNE44UPB44 CIG 015V023 SLP102 P0001 T10071007
KMUT 190415Z AUTO 19004KT M1/4SM FZFG BKN001 M02/M02 A3004 RMK AO2
KMVE 190412Z AUTO 18007KT 2 1/2SM BR CLR M02/M02 A2976 RMK AO2
KMVH 190325Z AUTO 00000KT 10SM FEW120 03/M03 A2954 RMK AO2
KMVL 190403Z AUTO 20004KT 10SM BKN017 BKN025 OVC041 01/M02 A2995 RMK AO2 SNE0356 P0000 T00061022
KMVN 190356Z AUTO 11005KT 10SM CLR 05/03 A3010 RMK AO2 SLP195 T00500033
KMVY 190353Z AUTO 01006KT 9SM OVC014 04/03 A2996 RMK AO2 SLP147 T00440033 TSNO
KMWA 190415Z AUTO 10004KT 10SM OVC080 06/05 A3009 RMK AO2
KMWC 190415Z AUTO 23010KT 5SM BR BKN008 BKN011 00/M01 A3000 RMK AO2
KMWH 190359Z 21003KT 3SM -FZRA BR FEW029 OVC040 00/M01 A2947 RMK AO2 UPE53FZRAB53 P0000 I1000 T00001006
KMWK 190420Z AUTO 31003KT 10SM CLR 08/04 A3011 RMK AO2 T00770037
KMWL 190413Z AUTO 14005KT 1/4SM FG BKN007 OVC014 04/04 A2998 RMK AO2 T00440044
KMWM 190414Z AUTO 18011G15KT 10SM 03/02 A2979 RMK AO2
KMWN 190351Z 24031KT 1/16SM FZFG DRSN VV001 M08/M08 RMK VRY LGT ICG
KMWO 190415Z AUTO 10SM OVC008 05/01 A3016 RMK AO2 T00450011
KMWT 190411Z AUTO 00000KT 2SM BR OVC002 08/08 A2999 RMK AO2 T00830078
KMXF 190358Z AUTO 00000KT 10SM BKN055 17/16 A3009 RMK AO2 SLP191 T01650159
KMXO 190415Z AUTO 14003KT 4SM BR CLR 01/00 A2999 RMK AO2
KMYF 190353Z 00000KT 10SM SCT023 BKN110 13/08 A3016 RMK AO2 SLP210 T01330083
KMYJ 190435Z AUTO 00000KT 10SM BKN090 03/01 A3001 RMK AO2 PWINO
KMYL 190423Z AUTO 16009KT 3/4SM -SN BR FEW004 OVC008 00/M01 A2961 RMK AO2 P0005 T00001011 $
KMYP 190414Z AUTO 1/4SM FZFG OVC001 M11/M12 A3004 RMK AO2
KMYR 190415Z 06006KT 10SM CLR 14/06 A3006 RMK AO1
KMYV 190353Z AUTO 16023G38KT 10SM -RA BKN043 OVC050 09/06 A2972 RMK AO2 PK WND 17041/0323 SLP067 P0002 T00940061
KMYZ 190415Z AUTO 17005KT 10SM BKN080 03/00 A2990 RMK AO2
KMZG 190415Z AUTO 35010KT 10SM SCT008 SCT012 BKN044 17/16 A2997 RMK A01
KMZH 190414Z AUTO 20003KT 5SM BR CLR M02/M03 A2979 RMK AO2
KMZZ 190414Z AUTO 23007KT 4SM BR OVC005 02/01 A3012 RMK AO2
KN03 190415Z AUTO 00000KT 4SM BR BKN003 OVC016 02/02 A2998 RMK AO2
KN38 190415Z AUTO 24007KT 8SM OVC009 02/00 A2998 RMK AO2
KN60 190352Z AUTO 16004KT M05/M07 A2955 RMK AO1 SLP031 T10501067
KNAK 190354Z AUTO 31007KT 10SM OVC040 09/02 A3006 RMK AO2 SLP182 T00940022
KNBC 190356Z AUTO 23003KT 10SM CLR 16/14 A3005 RMK AO2 SLP175 LAST T01560139
KNBG 190355Z 17008KT 10SM SCT008 BKN012 OVC026 22/21 A3004 RMK AO2 SLP171 T02220211 $
KNBT 190356Z AUTO 28004KT 10SM CLR A3006 RMK AO2 SLP185 $
KNCA 190356Z AUTO 08005KT 10SM CLR 09/07 A3005 RMK AO2 SLP177 T00940072
KNDZ 190356Z 00000KT 1/4SM FG VV002 19/19 A3010 RMK AO2 SLP180 T01940189
KNEL 190418Z AUTO 31003KT 4SM HZ OVC065 06/01 A3003 RMK AO2 T00560011 $
KNEW 190357Z AUTO 16007KT 6SM BKN008 BKN012 OVC018 22/21 A3005 RMK AO2 CIG 007V011 T02220211
KNFE 190356Z AUTO 00000KT 10SM CLR 07/04 A3004 RMK AO2 SLP174 T00670039
KNFG 190356Z VRB04KT 8SM SCT030 OVC100 13/09 A3015 RMK AO2 SLP210 T01280094
KNFL 190356Z 16011KT 10SM BKN070 OVC170 04/M01 A2968 RMK AO2 RAE18 SLP033 P0000 T00441011
KNFW 190352Z 21004KT 10SM BKN025 09/08 A2998 RMK AO2 SLP122 T00890083 $
KNGP 190356Z 01008KT 10SM -RA FEW009 SCT040 OVC120 15/14 A3002 RMK AO2 RAB0257E32B54 SLP164 WR// P0000 T01500139
KNGU 190359Z 33003KT 10SM CLR 06/04 A3006 RMK AO2 SLP177 T00610044
KNHK 190352Z 31009KT 10SM OVC038 08/03 A3006 RMK AO2 SLP178 T00830028
KNID 190356Z 18020G27KT 10SM FEW060 SCT110 BKN140 08/04 A2992 RMK AO2 PK WND 18028/0343 RAE33 SLP140 P0000 T00780033 $
KNIP 190353Z 26004KT 10SM BKN250 19/17 A3010 RMK AO2 SLP187 T01940172 $
KNJK 190356Z 26012KT 10SM FEW150 BKN250 16/05 A3008 RMK AO2 SLP200 T01560050 $
KNJM 190357Z AUTO 05005KT 10SM CLR 16/06 A3006 RMK AO2 SLP182 T01610061
KNKT 190354Z 03003KT 10SM CLR 08/06 A3007 RMK AO2 SLP179 T00780061
KNKX 190355Z 00000KT 10SM BKN020 BKN100 BKN200 14/10 A3014 RMK AO2 SLP205 T01390100 $
KNLC 190356Z 13015KT 10SM BKN055 OVC070 09/07 A2993 RMK AO2 RAB19E28 PRESFR SLP136 RH/86 P0000 T00890067 $
KNMM 190356Z 12004KT 10SM BKN065 BKN140 17/14 A3007 RMK AO2 SLP190 T01670144 $
KNOG 190356Z AUTO 00000KT 10SM BKN037 BKN120 16/14 A3001 RMK AO2 RAB25E53 SLP143 P0000 T01560139 $
KNOW 190415Z AUTO 26011KT 10SM RA BKN048 OVC060 08/07 A2920 RMK AO2 P0001 T00750065
KNPA 190413Z AUTO 12004KT 1/2SM FG VV002 20/19 A3008 RMK AO2 T02000194 $
KNQA 190350Z 01003KT 10SM BKN014 OVC025 11/09 A3004
KNQI 190256Z 35003KT 9SM -RA BKN036 OVC110 16/14 A3002 RMK AO2 RAB12 SLP164 P0000 60000 T01560144 53008
KNQX 190353Z AUTO 09005KT 10SM CLR 21/18 A3012 RMK AO2 SLP196 T02110183 $
KNRB 190352Z 25003KT 10SM BKN250 18/15 A3009 RMK AO2 SLP187 T01830150 $
KNRS 190356Z 32004KT 10SM SCT018 BKN030 BKN250 15/09 A3017 RMK AO2 SLP215 T01500094 $
KNSE 190356Z 19004KT 1/4SM FG VV002 18/18 A3010 RMK AO2 SLP179 T01830183 $
KNSI 190357Z AUTO 14012KT 10SM BKN010 12/ A3006 RMK AO2 CIG/ 008V013 SLP174 T0117 PWINO $
KNTD 190356Z 12005KT 10SM FEW025 OVC100 12/10 A3007 RMK AO2 RAE01B21E37 SLP183 P0003 T01220100 $
KNTU 190356Z 33004KT 10SM CLR 05/03 A3003 RMK AO2 SLP172 T00500028
KNUC 190156Z 00000KT 10SM FEW023 SCT034 OVC120 13/08 A3015 RMK SLP207 LAST T01330083
KNUI 190353Z AUTO 00000KT 10SM OVC039 08/02 A3005 RMK AO2 SLP176 T00830022
KNUQ 190415Z AUTO 21009G21KT 3SM RA FEW026 BKN046 OVC055 12/09 A2983 RMK AO2 P0013 T01220094
KNUW 190356Z 15011KT 10SM -RA SCT030 BKN044 OVC055 08/06 A2926 RMK SLP908 P0005 T00830056
KNXF 190356Z AUTO A3015 RMK AO2 SLPNO PWINO
KNXP 190356Z 29006KT 10SM SCT100 BKN180 13/01 A3011 RMK AO2 SLP181 T01280006
KNYC 190412Z AUTO 00000KT 10SM FEW012 BKN070 04/02 A3004 RMK AO2 T00390022
KNYG 190356Z AUTO 34008KT 10SM CLR 08/02 A3009 RMK AO2 SLP190 T00780022
KNYL 190357Z AUTO 16004KT 10SM CLR 13/M01 A3006 RMK AO2 SLP177 T01331006
KNZY 190352Z 33004KT 7SM SCT018 BKN028 BKN120 OVC200 14/09 A3015 RMK SLP211 T01390094
KO69 190415Z AUTO 00000KT 10SM BKN011 BKN042 OVC060 09/09 A2976 RMK AO1
KOAJ 190356Z AUTO 04003KT 10SM CLR 05/04 A3005 RMK AO2 SLP182 T00500044 402280050
KOAK 190423Z 18007KT 10SM FEW009 BKN045 OVC070 12/10 A2976 RMK AO2 RAE21 P0002 T01170100
KOBE 190415Z AUTO 00000KT 10SM CLR 15/14 A3012 RMK AO2
KOCF 190415Z AUTO 00000KT 10SM CLR 15/12 A3011 RMK AO1
KOCH 190415Z 31005KT 3SM OVC004 14/13 A2995 RMK AO1
KOCQ 190415Z AUTO 23004KT 10SM CLR 00/M01 A2991 RMK AO1 T00031015
KOCW 190420Z AUTO 00000KT 10SM CLR 05/05 RMK AO2 T00520047
KODO 190353Z AUTO 24005KT 10SM CLR 09/05 A2998 RMK AO2 SLP137 T00890050
KODX 190353Z AUTO 13006KT 9SM CLR 02/01 A2977 RMK AO2 SLP099 T00220006
KOEB 190415Z AUTO 23005G08KT 5SM BR OVC004 01/01 A3006 RMK AO2 T00060006
KOEO 190415Z AUTO 00000KT 5SM BR CLR M01/M01 A2987 RMK AO2 T10131013
KOFF 190358Z AUTO 12009KT 10SM CLR 04/03 A2989 RMK AO2 SLP135 T00360034 $
KOFK 190356Z AUTO 17008KT 10SM CLR 03/01 A2981 RMK AO2 SLP104 T00280006
KOFP 190354Z AUTO 00000KT 10SM CLR 07/01 A3008 RMK AO2 SLP186 T00720011
KOGA 190415Z AUTO 26003KT 7SM CLR M03/M04 A2970 RMK AO2 T10281042
KOGB 190353Z AUTO 00000KT 10SM CLR 16/14 A3004 RMK AO2 SLP171 T01610139
KOGD 190353Z AUTO 00000KT 5SM BR OVC100 M06/M08 A2989 RMK AO2 SLP158 T10561078
KOGS 190415Z AUTO 21005KT 5SM BR SCT007 OVC013 01/01 A2994 RMK AO2 T00070006 TSNO
KOJA 190415Z AUTO 17010KT 7SM OVC002 08/08 A2991 RMK AO2
KOJC 190353Z AUTO 14004KT 10SM OVC060 05/04 A2996 RMK AO2 SLP152 T00500044
KOKB 190352Z AUTO 26005KT 10SM FEW038 SCT080 BKN100 13/10 A3015 RMK AO2 SLP209 T01330100
KOKC 190419Z 18005KT 10SM OVC014 08/07 A2993 RMK AO2 T00830072
KOKK 190356Z AUTO 21009KT 7SM OVC006 02/01 A3012 RMK AO2 SLP209 T00170006 FZRANO
KOKM 190415Z AUTO 15005KT 10SM OVC005 07/07 A2996 RMK AO2 T00720072
KOKV 190415Z AUTO 31006KT 10SM OVC025 05/01 A3009 RMK AO2
KOKZ 190415Z AUTO 00000KT 10SM CLR 16/16 A3007 RMK AO2 T01620160
KOLE 190415Z AUTO 25006KT 5SM BR OVC003 00/00 A2999 RMK AO2
KOLF 190353Z AUTO 00000KT 10SM CLR M06/M09 A2952 RMK AO2 SLP029 T10611089
KOLG 190415Z AUTO 19004KT 7SM CLR 00/M01 A2982 RMK AO1
KOLM 190354Z 18010KT 7SM -RA FEW032 SCT040 OVC048 09/08 A2924 RMK AO2 SLP902 P0005 T00890083 $
KOLS 190354Z AUTO 12004KT 10SM CLR 06/01 A3010 RMK AO2 SLP178 T00560006
KOLU 190415Z AUTO 17010KT 10SM CLR 04/01 A2983 RMK AO2 RVRNO
KOLV 190150Z 07005KT 10SM BKN018 OVC039 A3006
KOLY 190415Z AUTO 00000KT 7SM CLR 02/02 A3012 RMK AO2
KOLZ 190415Z AUTO 16010KT 3SM BR BKN002 01/01 A2995 RMK AO2
KOMA 190352Z 16010KT 10SM CLR 04/01 A2989 RMK AO2 SLP127 T00440011
KOMH 190415Z AUTO 00000KT 10SM 03/01 A3011 RMK AO2
KOMK 190353Z AUTO 00000KT 1 1/4SM -SN BR OVC008 M02/M03 A2949 RMK AO2 SLP001 P0005 T10171033
KOMN 182350Z 00000KT 10SM SKC 19/17 A3011 RMK LAST
KONA 190412Z AUTO 00000KT 7SM SCT009 01/00 A2992 RMK AO2
KONL 190415Z AUTO 19005KT 10SM CLR 03/02 A2974 RMK AO2 T00310021
KONM 190415Z AUTO 34003KT 10SM CLR 05/M01 A3000 RMK AO2 T00451014
KONO 190353Z AUTO 25007KT 3/4SM -SN BR OVC012 M07/M08 A2977 RMK AO2 SLP115 P0008 T10671078
KONP 190415Z AUTO 19020G29KT 5SM BR SCT006 BKN011 BKN016 09/08 A2936 RMK AO2
KONT 190353Z 27005KT 10SM SCT025 OVC100 11/07 A3011 RMK AO2 SLP200 PRESENT WX VCSH T01110072
KONX 190410Z AUTO 00000KT 10SM CLR 06/06 A3005 RMK AO2 T00620062
KONZ 190413Z AUTO 24012G15KT 10SM OVC006 02/00 A3007 RMK AO2 T00150003
KOOA 190415Z AUTO 18008KT 1/4SM FG OVC001 00/00 A3001 RMK AO2 T00020000
KOPF 190353Z 00000KT 10SM CLR 20/16 A3012 RMK AO2 SLP201 T02000161
KOPL 190415Z AUTO 17005KT 10SM TS OVC008 21/20 A2999 RMK AO2 T02120200
KOPN 190415Z AUTO 00000KT 10SM CLR 16/13 A3011 RMK AO2
KOQT 190353Z AUTO 00000KT 10SM CLR 09/06 A3013 RMK AO2 SLP204 T00890061
KOQU 182350Z 02010KT 3SM BR SCT005 OVC010 04/03 A3001
KORB 190413Z AUTO 00000KT 10SM CLR M01/M06 A2971 RMK AO2
KORC 190415Z AUTO 19007KT 10SM CLR 02/02 A2982 RMK AO2
KORD 190351Z 22003KT 7SM SCT010 01/M01 A3004 RMK AO2 SLP180 T00111006
KORE 190419Z AUTO 00000KT 5SM -SN BR OVC015 00/00 A3000 RMK AO2 P0001 T00000000
KORF 190351Z 34004KT 10SM CLR 08/04 A3004 RMK AO2 SLP171 T00780044
KORG 190415Z AUTO 20003KT 7SM SCT035 BKN075 OVC110 A2998 RMK AO2 LTG DSNT NE
KORH 190354Z AUTO 36005KT 3/4SM R11/5000VP6000FT BR VV002 M01/M02 A2998 RMK AO2 SLP166 I1001 T10111017
KORL 190353Z 00000KT 10SM CLR 19/14 A3012 RMK AO2 SLP202 T01890144
KORS 190415Z AUTO 18003KT 5SM -RA FEW021 BKN028 BKN035 09/08 A2919 RMK AO2 P0001
KOSA 190415Z AUTO 07004KT 3SM OVC004 10/10 A3001 RMK AO1 T01020102
KOSC 190413Z AUTO 25006KT 10SM OVC010 02/01 A2996 RMK AO2 T00210005
KOSH 190353Z 22007KT 4SM BR CLR 00/M02 A2995 RMK AO2 SLP154 T00001017
KOSU 190353Z 22009KT 10SM OVC008 03/03 A3011 RMK AO2 SLP203 T00330028
KOTG 190356Z AUTO 20014KT 10SM CLR 03/02 A2979 RMK AO2 SLP105 T00330017 TSNO
KOTH 190415Z 18012KT 10SM BKN015 11/09 A2948 RMK AO1
KOTM 190410Z AUTO 18009KT 1/4SM FG VV002 01/00 A3000 RMK AO2 T00110000
KOUN 190415Z AUTO 19004KT 10SM OVC015 08/08 A2996 RMK AO2
KOVE 190353Z AUTO 16018G24KT 7SM -RA FEW023 BKN028 OVC036 09/07 A2973 RMK AO2 PK WND 16032/0303 SLP069 P0002 T00890067
KOVL 190413Z AUTO 14007KT 5SM BR CLR M01/M01 A2977 RMK AO2
KOVS 190353Z AUTO 21004KT 4SM BR OVC004 02/01 A2999 RMK AO2 SLP163 T00170006
KOWA 190414Z AUTO 16014KT 10SM 02/00 A2985 RMK AO2
KOWB 190356Z 00000KT 7SM CLR 04/02 A3014 RMK AO2 SLP219 T00440022
KOWD 190353Z AUTO 33006KT 6SM BR OVC005 01/01 A3002 RMK AO2 SLP167 T00110006
KOWI 190415Z AUTO 14007KT 10SM OVC055 07/05 A2995 RMK AO2
KOWP 190415Z AUTO 15004KT 7SM 09/08 A2995 RMK AO2 T00900076
KOWX 190415Z AUTO 25007KT 4SM OVC005 01/01 A3012 RMK AO1
KOXB 190353Z AUTO 35004KT 10SM OVC043 08/06 A3004 RMK AO2 SLP172 T00780056
KOXC 190415Z AUTO 01003KT 10SM SCT005 BKN022 OVC050 02/M01 A3000 RMK AO1
KOXI 190415Z AUTO 23008KT 10SM OVC010 02/M06 A3009 RMK AO1
KOXR 190351Z AUTO 07008KT 7SM BKN100 BKN120 12/10 A3006 RMK AO2 RAE32 SLP177 P0000 T01220100
KOXV 190415Z AUTO 17007KT 1/4SM FG OVC003 01/01 A2996 RMK AO2
KOZA 190415Z AUTO 1 1/2SM BR BKN002 04/03 A3004 RMK AO2
KOZR 190356Z AUTO 00000KT 10SM CLR 16/15 A3010 RMK AO2 SLP194 T01570151 $
KOZS 190415Z AUTO 13009KT 10SM OVC020 07/04 A3000 RMK AO2
KOZW 190414Z AUTO 23007KT 7SM OVC006 01/00 A3004 RMK AO2 T00071001
KP08 190415Z AUTO 11006KT 10SM CLR 10/07 A3007 RMK AO2
KP28 190356Z AUTO 17007KT 07/06 A2988 RMK AO1 SLP125 T00720056
KP53 190356Z AUTO 00000KT M01/M01 A2987 RMK AO1 SLP122 T10061011
KP58 190351Z AUTO 25010G18KT 210V270 02/01 A2995 RMK AO1 PK WND 25027/0302 SLP151 T00170006
KP59 190351Z AUTO 24005KT M01/M02 A2983 RMK AO1 SLP111 T10061022
KP60 190356Z AUTO 00000KT M12/M13 A2985 RMK AO1 SLP213 T11221133 $
KP68 190353Z AUTO 18006KT 01/M04 A2984 RMK AO1 SLP115 T00111044
KP69 190352Z AUTO 33003KT 01/M01 A2962 RMK AO1 SLP051 T00061006
KPAE 190353Z 11007KT 5SM BR SCT041 OVC048 07/05 A2925 RMK AO2 SLP907 T00720050 $
KPAH 190353Z 12006KT 10SM OVC065 07/04 A3008 RMK AO2 SLP188 T00670039
KPAM 190406Z AUTO 00000KT 1/2SM FG SCT000 16/16 A3011 RMK AO2 RVRNO $
KPAN 190415Z AUTO 00000KT 10SM CLR 03/01 A3011 RMK AO2
KPAO 190347Z 24010G15KT 10SM RA BKN020 OVC030 12/10 A2981
KPBF 190353Z AUTO 01007KT 10SM OVC007 10/09 A3000 RMK AO2 SLP159 T01000089
KPBG 190415Z AUTO 00000KT 10SM FEW019 BKN026 OVC041 02/01 A2995 RMK AO2 T00170006
KPBH 190415Z AUTO 20004KT 7SM CLR M02/M02 A2985 RMK AO2 T10161020
KPBI 190353Z 00000KT 10SM CLR 19/17 A3012 RMK AO2 SLP198 T01940167
KPBX 190415Z AUTO 00000KT 10SM CLR 04/04 A3013 RMK AO2 T00400037
KPCM 190415Z AUTO 00000KT 10SM CLR 17/16 A3014 RMK AO2
KPCW 190408Z AUTO 24012KT 9SM OVC006 03/02 A3008 RMK AO2 $
KPCZ 190415Z AUTO 00000KT 5SM BR CLR 00/M02 A2995 RMK AO2 T10021020
KPDC 190415Z AUTO 00000KT 4SM BR OVC005 01/01 A2998 RMK AO2 T00140005
KPDK 190353Z AUTO 27004KT 10SM CLR 15/09 A3010 RMK AO2 SLP187 T01500094
KPDT 190353Z AUTO 15020G23KT 10SM -RA OVC050 06/01 A2941 RMK AO2 SLP959 P0003 T00610011 TSNO
KPDX 190353Z 18017G27KT 10SM -RA FEW019 SCT027 OVC045 08/07 A2938 RMK AO2 PK WND 17027/0352 SLP948 P0005 T00780067
KPEA 190415Z AUTO 18007KT 1SM BR OVC003 01/01 A2999 RMK AO2 T00090005
KPEO 190353Z AUTO 19005KT 10SM OVC017 03/M01 A2999 RMK AO2 SLP163 T00331006
KPEQ 190415Z AUTO 24008KT 10SM CLR 08/03 A2999 RMK AO2 T00760030
KPEX 190413Z AUTO 15003KT 2SM BR CLR M01/M01 A2978 RMK AO2 T10151014
KPEZ 190415Z AUTO 08004KT 10SM BKN018 13/12 A3002 RMK AO2 T01320115
KPGA 190353Z AUTO 00000KT 10SM CLR 04/M02 A2997 RMK AO2 SLP146 T00391022 TSNO
KPGD 190419Z AUTO 00000KT 3SM BR CLR 16/16 A3013 RMK AO2 T01560156
KPGV 190405Z AUTO 00000KT 10SM CLR 06/06 A3007 RMK AO2
KPHD 190353Z AUTO 24008KT 10SM OVC008 03/02 A3014 RMK AO2 SLP212 T00330022
KPHF 190417Z 00000KT 1/2SM FG CLR 03/02 A3005 RMK AO2 T00280017
KPHL 190354Z 33004KT 10SM BKN033 OVC045 07/03 A3004 RMK AO2 SLP173 T00720033
KPHN 190417Z AUTO 22005KT 10SM OVC010 02/01 A3002 RMK AO2
KPHP 190355Z AUTO 00000KT 10SM CLR M07/M08 A2961 RMK AO2 SLP052 T10721083
KPHT 190415Z AUTO 00000KT 10SM BKN075 07/04 A3007 RMK
KPHX 190351Z 32004KT 10SM CLR 16/04 A3004 RMK AO2 SLP167 T01560044
KPIA 190354Z 00000KT 6SM BR CLR 01/01 A3007 RMK AO2 SLP187 I1000 T00110006
KPIB 190415Z AUTO 16004KT 10SM BKN008 19/16 A3008 RMK AO1
KPIE 190353Z 00000KT 9SM CLR 17/16 A3012 RMK AO2 SLP200 T01720161
KPIH 190353Z 00000KT 10SM OVC080 M05/M08 A2983 RMK AO2 SLP154 T10501083 $
KPIL 190400Z AUTO 01005KT 10SM SCT023 OVC034 18/15 A3000 RMK AO2 T01780150
KPIM 190415Z AUTO 00000KT 4SM BR CLR 15/15 A3011 RMK AO2 T01460145
KPIR 190353Z AUTO 00000KT 10SM CLR M06/M08 A2962 RMK AO2 SLP057 T10611083
KPIT 190351Z 26004KT 10SM BKN009 OVC017 03/03 A3010 RMK AO2 DZE35 SLP209 P0000 T00330028
KPKB 190353Z 00000KT 10SM OVC017 04/01 A3017 RMK AO2 SLP221 T00440011
KPKD 190353Z AUTO 14007KT 10SM CLR M03/M07 A2972 RMK AO2 SLP088 T10281067
KPKV 190415Z AUTO 00000KT 5SM BR OVC004 13/13 A3002 RMK AO2 T01310131
KPLN 190354Z AUTO 24007KT 9SM OVC011 02/M01 A2992 RMK AO2 SLP140 T00221006
KPLR 190415Z AUTO 00000KT 6SM BR FEW050 11/11 A3011 RMK A01
KPLU 190415Z AUTO 00000KT 10SM 09/09 A2925 RMK AO2
KPMD 190353Z AUTO 24017G26KT 10SM -RA OVC080 09/04 A3001 RMK AO2 PK WND 21031/0321 RAB31 SLP165 P0001 T00890039
KPMP 190353Z AUTO 00000KT 10SM CLR 21/17 A3011 RMK AO2 SLP197 T02110167
KPMU 190415Z AUTO 09004KT 10SM -RA BKN007 BKN010 BKN015 13/12 A3002 RMK AO2 T01260118
KPMV 190415Z AUTO 16015KT 10SM CLR 04/01 A2988 RMK AO2 T00400005
KPNA 190415Z AUTO 00000KT 10SM CLR M20/M22 A2988 RMK AO2 TSNO
KPNC 190353Z AUTO 15010KT 10SM OVC049 09/04 A2992 RMK AO2 SLP132 T00940039
KPNE 190354Z AUTO 00000KT 10SM OVC060 07/04 A3005 RMK AO2 SLP177 T00670039 TSNO
KPNM 190414Z AUTO 14003KT 4SM BR CLR 00/M01 A2981 RMK AO2
KPNS 190418Z 15004KT 1/4SM R17/1400V2200FT FG VV002 20/19 A3009 RMK AO2 T02000189
KPNT 190415Z AUTO 17007KT 4SM BR CLR 01/01 A3009 RMK AO2 T00100010
KPOB 190358Z AUTO 00000KT 10SM CLR 07/04 A3005 RMK AO2 SLP179 T00690041 $
KPOC 190347Z 00000KT 6SM -RA SCT027 OVC043 10/07 A3014
KPOE 190423Z AUTO 12005KT 7SM SCT015 SCT022 BKN085 OVC120 18/17 A2996 RMK AO2
KPOF 190353Z AUTO 00000KT 7SM OVC050 07/05 A3008 RMK AO2 SLP189 T00670050 TSNO
KPOU 190353Z 00000KT 1/2SM FG OVC005 02/02 A3002 RMK AO2 SLP165 T00170017
KPOV 190416Z AUTO 25009KT 7SM OVC006 02/02 A3008 RMK AO2 T00220015
KPOY 190415Z AUTO 14012KT 10SM CLR M02/M10 A2965 RMK AO2
KPPA 190415Z AUTO 19013KT 10SM CLR 07/06 A2982 RMK AO2 T00700055
KPPF 190416Z AUTO 15003KT 10SM BKN009 OVC013 08/06 A2996 RMK AO2 T00830061
KPPO 190415Z AUTO 23009KT 7SM OVC010 02/00 A3009 RMK AO2 T00170003
KPPQ 190415Z AUTO 11003KT 10SM CLR 02/00 A3005 RMK AO2 T00190003
KPQI 190356Z AUTO 15007KT 10SM OVC038 M08/M12 A3003 RMK AO2 SLPNO T10781117 FZRANO
KPQL 190353Z AUTO 12003KT 1/2SM FG VV002 19/18 A3008 RMK AO2 SLP186 T01890183 TSNO
KPQN 190414Z AUTO 20013KT 10SM CLR 03/02 A2975 RMK AO2
KPRB 190353Z AUTO 14008KT 10SM -RA FEW055 BKN070 OVC085 09/07 A2990 RMK AO2 RAB24 PRESFR SLP125 P0000 T00890072 TSNO
KPRC 190353Z 19006KT 10SM CLR 04/01 A3009 RMK AO2 SLP177 T00390006
KPRG 190415Z AUTO 16005KT 7SM SCT009 SCT015 02/01 A3013 RMK AO2 T00160013
KPRN 190356Z AUTO 21004KT 9SM SCT042 15/13 A3010 RMK AO2 SLP189 T01500128
KPRO 190435Z AUTO 17011KT 5SM BR SCT004 01/01 A2992 RMK AO2 T00110011
KPRS 190415Z AUTO 35006KT 10SM CLR 10/03 A3001 RMK AO2 T01040026
KPRX 190415Z 11004KT 5SM OVC002 09/08 A2999 RMK AO1
KPSC 190425Z 27004KT 6SM UP BR OVC060 M01/M01 A2950 RMK AO2 P0000 T10061006
KPSF 190354Z AUTO 00000KT 1 1/4SM BR BKN003 OVC015 00/M01 A2996 RMK AO2 SNE50 SLP153 P0001 T00001006
KPSK 190415Z AUTO 00000KT 10SM CLR 04/02 A3012 RMK AO2 T00360021
KPSM 190358Z 35006KT 1 1/4SM -SN BR BKN005 OVC010 M02/M04 A3002 RMK AO2A SLP169 P0000 T10231037
KPSN 190415Z AUTO 00000KT 10SM SCT003 BKN023 OVC029 11/11 A3000 RMK AO2 T01100110
KPSO 190415Z AUTO 00000KT 10SM BKN011 OVC032 00/M01 A3000 RMK AO2 T00001007
KPSP 190353Z 00000KT 10SM CLR 15/01 A3006 RMK AO2 SLP182 T01500011
KPSX 190353Z AUTO 33009KT 9SM OVC003 14/13 A3001 RMK AO2 RAE0255 SLP160 P0000 T01390128
KPTB 190416Z AUTO 00000KT 10SM CLR 03/02 A3008 RMK AO2
KPTK 190353Z 23007KT 6SM BR OVC006 01/M01 A3001 RMK AO2 SLP170 T00111006
KPTN 190356Z AUTO 17006KT 9SM OVC006 22/21 A3002 RMK AO2 SLP167 T02220211
KPTS 190415Z AUTO 14005KT 10SM OVC048 11/10 A2996 RMK AO2 T01050102
KPTT 190415Z AUTO 17012KT 10SM OVC006 06/05 A2986 RMK AO2 T00600050
KPTV 190356Z AUTO 15005KT 10SM -RA CLR 09/07 A2997 RMK AO2 RAE15B39 SLP163 P0000 T00890072
KPTW 190354Z AUTO 00000KT 10SM OVC027 06/03 A3004 RMK AO2 SLP172 T00560033
KPUB 190353Z 00000KT 8SM CLR M01/M03 A2973 RMK AO2 SLP083 T10061028
KPUC 190353Z AUTO 02010KT 10SM CLR M08/M12 A2997 RMK AO2 SLP216 T10781117
KPUJ 190415Z AUTO 00000KT 10SM CLR 16/13 A3011 RMK AO2
KPUW 190353Z AUTO 12015KT 6SM -RA BR OVC038 02/01 A2954 RMK AO2 SLP017 P0002 T00220006
KPVB 190415Z AUTO 18008KT 4SM CLR 01/01 A2999 RMK AO1 T00050005
KPVC 190354Z AUTO 08008KT 10SM BKN019 04/02 A2999 RMK AO2
KPVD 190415Z 35009KT 7SM BKN005 OVC022 02/01 A3001 RMK AO2 T00170006
KPVF 190415Z AUTO 17024G31KT 8SM FEW021 BKN027 OVC034 06/05 A2972 RMK AO1
KPVG 190415Z 00000KT 4SM CLR 01/M01 A3004 RMK AO1
KPVU 190356Z 00000KT 5SM BR BKN110 M04/M06 A2992 RMK AO2 SLP165 T10441061 FZRANO
KPVW 190415Z AUTO 19007KT 10SM SCT055 BKN075 06/03 A2986 RMK AO2 T00600029
KPWA 190424Z AUTO 20006KT 9SM BKN011 08/08 A2993 RMK AO2 T00830078
KPWC 190414Z AUTO 14003KT 10SM CLR M04/M06 A2979 RMK AO2
KPWG 190356Z AUTO 00000KT 10SM OVC020 11/09 A3001 RMK AO2 SLP181 T01060094
KPWK 190352Z 24006KT 8SM OVC010 02/M01 A3006 RMK AO2 SLP184 T00171006
KPWM 190351Z 35007KT 3SM BR OVC015 M03/M06 A3005 RMK AO2 SLP178 T10331056
KPWT 190415Z 00000KT 10SM FEW026 BKN034 OVC041 08/07 A2927 RMK AO1 P0002
KPXE 190415Z AUTO 00000KT 7SM 15/13 A3011 RMK AO2 T01490132
KPYM 190352Z AUTO 07003KT 10SM OVC021 03/02 A2997 RMK AO2 SLP150 T00330017
KPZQ 190415Z AUTO 00000KT 10SM OVC015 02/00 A2994 RMK AO2 T00200000
KRAC 190353Z AUTO 24008G17KT 9SM OVC008 01/M01 A3002 RMK AO2 SLP173 T00111011 $
KRAL 190353Z AUTO 00000KT 10SM OVC090 12/08 A3012 RMK AO2 SLP194 T01170078
KRAP 190352Z 35011KT 10SM CLR M01/M05 A2957 RMK AO2 SLP044 T10061050
KRAS 190415Z AUTO 36007KT 10SM DZ OVC009 15/14 A3002 RMK AO2 T01500137
KRBD 190405Z 00000KT 4SM BR BKN004 OVC024 11/10 A2999 RMK AO2 T01060100
KRBG 190353Z AUTO 08003KT 10SM -RA OVC046 07/06 A2951 RMK AO2 SLP996 P0002 T00720056
KRBL 190354Z AUTO 16019G26KT 10SM -RA OVC012 08/07 A2970 RMK AO2 PK WND 15026/0351 SLP056 P0009 T00830072 $
KRBO 190415Z AUTO 10006KT 10SM DZ SCT050 SCT065 OVC110 15/15 A3001 RMK AO2 P0001 T01510151
KRBW 190415Z AUTO 28004KT 10SM CLR 16/14 A3005 RMK AO2
KRCA 190358Z AUTO 36012KT 350V070 10SM CLR M02/M05 A2957 RMK AO2 SLP045
KRCE 190335Z AUTO 19010KT 10SM 08/08 A2995 RMK AO2
KRCM 190455Z AUTO 09003KT 10SM OVC080 05/02 A2998 RMK AO2
KRCR 190415Z AUTO 21005KT 10SM OVC010 02/01 A3011 RMK AO2
KRCV 190410Z AUTO 26005KT 10SM CLR M10/M11 A2998 RMK AO2 T11001113
KRCX 190415Z AUTO 16005KT 4SM BR CLR M01/M01 A2988 RMK AO2 T10071015
KRCZ 190400Z AUTO 04003KT 10SM CLR 10/04 A3005 RMK AO2 T01030039
KRDD 190416Z 16020G25KT 9SM -RA BKN013 BKN018 OVC029 08/07 A2965 RMK AO2 PK WND 17027/0403 P0002 T00780067
KRDG 190354Z AUTO 28005KT 10SM OVC025 07/02 A3003 RMK AO2 SLP177 T00670022
KRDK 190415Z AUTO 18008KT 9SM CLR 03/02 A2992 RMK AO2
KRDM 190356Z AUTO 35004KT 10SM CLR 05/M01 A2942 RMK AO2 SLP967 T00501011
KRDR 190358Z AUTO 18013KT 10SM CLR M03/M05 A2962 RMK AO2 SLP047 T10291055
KRDU 190351Z 26003KT 10SM FEW250 08/02 A3006 RMK AO2 SLP179 T00830017
KREO 190352Z AUTO 14016KT 03/01 A2960 RMK AO1 SLP043 P0001 T00280006
KRFD 190354Z 18005KT 5SM BR CLR 00/M02 A3005 RMK AO2 SLP183 T00001017
KRFI 190415Z AUTO 00000KT 2 1/2SM BR OVC002 A2999 RMK AO2
KRGA 190415Z AUTO 09003KT 7SM CLR 02/01 A3012 RMK AO2
KRGK 190415Z AUTO 11003KT 5SM BR CLR 00/M02 A2987 RMK AO2
KRHI 190353Z AUTO 23008KT 6SM BR CLR M01/M02 A2986 RMK AO2 SLP129 T10061017 TSNO
KRHP 190420Z AUTO 00000KT 10SM CLR 06/03 A3012 RMK AO2 T00590030
KRHV 190347Z 14018G25KT 10SM -RA BKN038 OVC090 11/10 A2979
KRIC 190354Z 02008KT 10SM CLR 07/03 A3006 RMK AO2 SLP184 T00720028
KRIL 190353Z AUTO 18003KT 10SM CLR M02/M04 A3000 RMK AO2 SLP181 T10221044 $
KRIV 190358Z 35007KT 10SM VCSH SCT015 BKN090 10/10 A3012 RMK AO2A RAB44E55 SLP203 P0000 T01020102
KRIW 190353Z AUTO 00000KT 10SM CLR M12/M16 A2978 RMK AO2 SLP167 T11221156
KRKD 190356Z AUTO 03006KT 10SM FEW026 OVC075 M01/M04 A3004 RMK AO2 SLP175 T10111044 FZRANO
KRKP 190353Z AUTO 01006KT 10SM OVC009 15/12 A3001 RMK AO2 SLP164 T01500122
KRKR 190420Z AUTO 00000KT 7SM OVC008 08/07 A2999 RMK AO2 T00770071
KRKS 190354Z AUTO 00000KT 10SM CLR M13/M16 A2988 RMK AO2 SLP226 T11281161
KRLD 190415Z AUTO 00000KT 5SM UP OVC060 00/00 A2950 RMK AO2 T00011001
KRME 190419Z 27004KT 2SM BR OVC004 02/02 A3001 RMK AO2 T00220022
KRMG 190353Z AUTO 00000KT 10SM CLR 12/09 A3010 RMK AO2 SLP188 T01170089
KRMN 190415Z AUTO 36006KT 10SM CLR 06/02 A3012 RMK AO2 T00580017
KRMY 190414Z AUTO 23006KT 5SM BR OVC005 00/00 A3005 RMK AO2 T00030000
KRNC 190415Z AUTO 00000KT 10SM CLR 06/06 A3009 RMK
KRND 190358Z AUTO 03005KT 10SM OVC012 12/12 A3001 RMK AO2 SLP162 T01240120
KRNH 190415Z AUTO 14005KT 4SM BR CLR M02/M02 A2985 RMK AO2 T10161017
KRNM 190353Z 21003KT 10SM SCT009 SCT012 BKN110 09/09 A3014 RMK AO2 SLP208 T00940089
KRNO 190355Z VRB03G18KT 10SM BKN060 BKN110 07/02 A2961 RMK AO2 SLP022 T00720022
KRNP 190415Z AUTO 24009KT 10SM OVC009 01/00 A3004 RMK AO2 T00110000
KRNT 190353Z VRB04KT 3SM -RA OVC055 08/06 A2926 RMK AO2 SLP912 P0001 T00830056 $
KRNV 190415Z AUTO 13012KT 10SM SCT090 SCT120 14/14 A2997 RMK AO2 T01440144
KROA 190354Z 34003KT 10SM CLR 07/02 A3012 RMK AO2 SLP199 T00670022
KROC 190354Z 25011KT 10SM OVC013 03/01 A3000 RMK AO2 SLP167 T00330011
KROG 190411Z AUTO 11005KT 6SM BR SCT002 OVC013 07/07 A2998 RMK AO2
KROS 190416Z AUTO 16005KT 5SM BR CLR M01/M02 A2983 RMK AO2
KROW 190351Z AUTO 27006KT 10SM FEW075 SCT095 06/01 A2993 RMK AO2 SLP121 T00610011 $
KROX 190415Z AUTO 18011KT 10SM CLR 00/M04 A2962 RMK AO2
KRPD 190415Z AUTO 14005KT 1 1/2SM BR VV007 M02/M03 A2987 RMK AO2 T10251029
KRPH 190416Z AUTO 14004KT 7SM CLR 07/07 A2997 RMK AO2
KRPJ 190415Z AUTO 16006KT 3SM BR CLR 00/00 A3004 RMK AO2 T00001002
KRPX 190355Z AUTO 19012G17KT 10SM 04/M04 A2951
KRQB 190415Z AUTO 24008KT 7SM OVC007 01/00 A2998 RMK AO2 T00101003
KRRL 190415Z AUTO 00000KT 4SM BR CLR M01/M02 RMK AO2 T10151018
KRRT 190414Z AUTO 20005KT 10SM CLR M01/M04 A2964 RMK AO2
KRSL 190353Z AUTO 16014KT 10SM CLR 06/03 A2981 RMK AO2 SLP108 T00560033
KRSN 190415Z AUTO 00000KT 1 1/4SM BR OVC003 14/14 A3000 RMK AO2 T01430136
KRSP 190354Z AUTO 33008KT 10SM BKN020 02/01 RMK AO2 SLPNO T00220011 $
KRST 190354Z 19014KT 7SM CLR 00/00 A2988 RMK AO2 SLP133 T00000000
KRSV 190415Z AUTO 00000KT 5SM BR CLR 02/01 A3014 RMK AO2 T00170011
KRSW 190353Z 00000KT 10SM CLR 18/16 A3012 RMK AO2 SLP197 T01780156
KRTN 190353Z AUTO 36006KT 10SM CLR M03/M06 A2977 RMK AO2 SLP095 T10331056
KRTS 190415Z AUTO 20011G27KT 150V230 10SM OVC036 05/01 A2962 RMK AO2
KRUE 190353Z AUTO 00000KT 7SM OVC007 08/07 A3002 RMK AO2 SLP164 T00780067
KRUG 190415Z AUTO 17006KT 10SM M03/M05 A2953 RMK AO2
KRUQ 190400Z AUTO 03003KT 10SM CLR 08/03 A3007 RMK AO2 T00840029
KRUT 190356Z AUTO 12009KT 10SM OVC018 01/M02 A2996 RMK AO2 UPE0257 SLP167 T00111017 FZRANO $
KRVS 190353Z AUTO 15006KT 10SM OVC006 08/06 A2996 RMK AO2 SLP150 T00830061
KRWF 190353Z AUTO 16006KT 7SM CLR 01/M01 A2977 RMK AO2 SLP094 T00061011
KRWI 190353Z AUTO 00000KT 10SM CLR 08/03 A3006 RMK AO2 SLP177 T00830033
KRWL 190353Z AUTO VRB03KT 10SM CLR M04/M09 A2987 RMK AO2 SLP168 T10391089
KRXE 190353Z AUTO 04004KT 10SM FEW055 SCT070 BKN090 M08/M11 A2983 RMK AO2 SLP172 T10781106
KRYN 190245Z 19005KT 10SM CLR 10/06 A3007 RMK LAST
KRYT 190353Z AUTO 00000KT CLR 04/02 A3004 RMK AO2 SLP178 T00440017 TSNO $
KRYV 190415Z AUTO 21009KT 5SM BR OVC007 00/00 A2999 RMK AO2 T00010001
KRYW 190415Z AUTO 00000KT 10SM OVC003 11/11 A3001 RMK AO2 T01100105
KRYY 190347Z 29003KT 10SM SKC 14/10 A3012 RMK LAST
KRZL 190415Z AUTO 21006KT 10SM 02/01 A3010 RMK AO2
KRZN 190415Z AUTO 15003KT 4SM BR CLR M01/M01 A2984 RMK AO2 T10101013
KRZR 190415Z AUTO 00000KT 10SM CLR 08/07 A3009 RMK A01
KRZT 190414Z AUTO 00000KT 10SM OVC012 03/02 A3014 RMK AO2
KS25 190415Z AUTO 00000KT 10SM CLR M05/M08 A2954 RMK AO2
KS32 190415Z AUTO 18005KT 10SM CLR M04/M06 A2963 RMK AO2
KS39 190420Z AUTO 35004KT 10SM SCT043 OVC050 06/M00 A2945 RMK AO2
KSAA 190415Z AUTO 13008KT 10SM CLR M10/M12 A2989 RMK AO2
KSAC 190417Z 15018G31KT 7SM -RA FEW015 SCT021 OVC045 09/08 A2975 RMK AO2 PK WND 16037/0356 P0005 T00890078
KSAD 190351Z AUTO 09004KT 10SM CLR 07/04 A3004 RMK AO2 SLP162 T00670039
KSAF 190353Z AUTO 30006KT 10SM CLR M01/M04 A2997 RMK AO2 SLP146 T10061039
KSAN 190351Z 35004KT 10SM FEW023 SCT029 BKN140 BKN220 15/08 A3017 RMK AO2 SLP217 T01500083
KSAR 190415Z AUTO 00000KT 10SM SCT080 05/03 A3009 RMK AO2 T00450027
KSAT 190351Z 03004KT 10SM BKN015 BKN250 13/09 A3001 RMK AO2 SLP153 T01280094
KSAV 190353Z AUTO 29006KT 10SM CLR 17/13 A3006 RMK AO2 SLP179 T01720133
KSAW 190416Z AUTO 17003KT 1/4SM FZFG VV002 M05/M05 A2985 RMK AO2 T10461051
KSAZ 190412Z AUTO 16003KT 10SM CLR M03/M04 A2975 RMK AO2
KSBA 190353Z 12010KT 10SM FEW012 SCT030 OVC100 12/11 A3004 RMK AO2 RAB0258E07 SLP171 P0000 T01220106
KSBD 190350Z 24005KT 4SM DZ SCT032 OVC065 12/08 A3013
KSBM 190353Z AUTO 22010KT 6SM BR CLR 01/M02 A2996 RMK AO2 SLP154 T00061017
KSBN 190354Z 23009KT 9SM OVC010 02/01 A3008 RMK AO2 SLP192 T00170006
KSBO 190415Z AUTO 10SM CLR 16/14 A3008 RMK AO2
KSBP 190356Z 16006KT 10SM OVC080 12/08 A2994 RMK AO2 SLP137 T01220083
KSBS 190414Z AUTO 00000KT 10SM CLR M09/M11 A2997 RMK AO1 T10951110
KSBY 190354Z AUTO 03004KT 10SM OVC038 08/05 A3004 RMK AO2 SLP173 T00830050 TSNO
KSCD 190415Z AUTO 00000KT 1SM BR VV007 13/13 A3011 RMK AO2 T01280128
KSCF 190420Z AUTO 15014KT 2SM BR FEW006 21/21 A3002 RMK A01
KSCH 190250Z 00000KT 3SM BR BKN002 OVC013 02/02 A3001 RMK LAST
KSCK 190355Z 15026G43KT 10SM BKN027 BKN036 OVC065 09/07 A2978 RMK AO2 PK WND 15045/0342 RAE51 SLP082 P0002 T00940072
KSCR 190400Z AUTO 00000KT 10SM CLR 06/02 A3007 RMK AO2 T00590024
KSDA 190415Z AUTO 15009KT 10SM CLR 02/01 A2993 RMK AO2
KSDB 190353Z AUTO 19020G29KT M1/4SM FG VV001 03/03 A3000 RMK AO2 PK WND 19032/0313 RAE30 SLP145 P0001 T00330028 $
KSDF 190356Z 00000KT 9SM OVC220 05/02 A3013 RMK AO2 SLP207 T00500017
KSDL 190353Z 34003KT 10SM CLR 13/06 A3007 RMK AO2 SLP174 T01280056
KSDM 190402Z AUTO 00000KT 10SM SCT018 12/10 A3016 RMK AO2 T01220100 TSNO
KSDY 190356Z AUTO 21010KT 10SM CLR M04/M06 A2954 RMK AO2 SLP035 T10391061 FZRANO
KSEA 190353Z 11006KT 7SM -RA OVC047 08/05 A2925 RMK AO2 RAB00 SLP913 P0005 T00780050
KSEE 190347Z 00000KT 6SM HZ SCT025 M/M A3016
KSEG 190353Z AUTO 00000KT 10SM OVC025 03/03 A3005 RMK AO2 SLP181 T00330033
KSEM 190415Z AUTO 00000KT 3SM BR CLR 16/15 A3009 RMK AO2
KSEP 190415Z AUTO 00000KT 10SM OVC005 09/08 A3002 RMK AO2 T00930081
KSET 190354Z AUTO 10004KT 8SM CLR 03/03 A3007 RMK AO2 SLP184 T00330028
KSEZ 190415Z AUTO 00000KT 10SM OVC043 06/02 A3009 RMK AO2
KSFB 190353Z AUTO 31004KT 10SM CLR 18/15 A3012 RMK AO2 SLP197 T01830150
KSFF 190353Z 00000KT 6SM BR BKN045 OVC070 02/02 A2952 RMK AO2 SLP006 T00170017
KSFM 190356Z AUTO 01007KT 8SM OVC013 M03/M04 A3004 RMK AO2 SNE32 SLP184 P0000 T10331044 FZRANO
KSFO 190356Z 21008KT 7SM -RA FEW006 SCT024 OVC044 12/10 A2976 RMK AO2 PK WND 20044/0327 WSHFT 0327 SLP078 P0025 T01170100
KSFQ 190420Z AUTO 00000KT 10SM CLR 04/04 A3006 RMK AO2 T00400040
KSFY 190415Z AUTO 00000KT 1/2SM FZFG VV005 M01/M01 A3002 RMK AO2 T10141015
KSFZ 190356Z AUTO 36007KT 1 1/2SM BR OVC002 00/00 A3000 RMK AO2 SLP181 T00000000 400440000 FZRANO
KSGF 190419Z 15011KT 6SM -RA BR FEW005 BKN010 OVC031 06/05 A2998 RMK AO2 RAB08 P0000 T00610050
KSGH 190356Z AUTO 26006KT 10SM OVC005 03/02 A3011 RMK AO2 SLP207 T00280022
KSGJ 190358Z AUTO 27006KT 10SM FEW110 19/17 A3010 RMK AO2 SLP192 T01940167 402670150
KSGR 190413Z AUTO 01004KT 10SM OVC005 13/13 A2998 RMK AO2 T01280128
KSGS 190411Z AUTO 00000KT 3SM BR CLR 00/M01 A2985 RMK AO2 T10051009
KSGT 190415Z AUTO 02007KT 10SM OVC010 10/06 A3002 RMK AO1
KSGU 190415Z AUTO 00000KT 10SM CLR 06/M01 A3000 RMK AO1
KSHD 190415Z AUTO 00000KT 10SM CLR 01/00 A3011 RMK AO2 T00091004
KSHL 190415Z AUTO 18010KT 10SM CLR 03/03 A2980 RMK AO2
KSHN 190353Z AUTO 00000KT 5SM -RA BR FEW016 BKN028 OVC033 09/08 A2921 RMK AO2 SLP895 P0022 T00940083
KSHR 190353Z AUTO 21011KT 10SM CLR M06/M09 A2963 RMK AO2 SLP082 T10611089
KSHV 190356Z 01004KT 1/8SM FG VV002 14/14 A2996 RMK AO2 SLP144 T01390139
KSIF 190425Z AUTO 00000KT 10SM CLR 08/03 A3009 RMK AO2 T00760028
KSIK 190435Z AUTO 00000KT 10SM OVC060 07/05 A3009 RMK AO2
KSIY 190421Z AUTO 23009KT 10SM -RA OVC027 03/01 A2960 RMK AO2 RAB00 P0000 T00280006
KSJC 190353Z COR 10019G32KT 4SM RA BR FEW009 BKN045 OVC080 11/09 A2976 RMK AO2 PK WND 11037/0335 SLP078 P0006 T01110089
KSJN 190354Z AUTO 25010KT 10SM CLR 03/M02 A3002 RMK AO2 SLP156 T00281017 TSNO
KSJS 190335Z AUTO 00000KT 10SM BKN016 05/03 A3015 RMK AO2 T00520034
KSJT 190351Z 18005KT 10SM CLR 06/06 A3000 RMK AO2 SLP160 T00610056
KSJX 190415Z AUTO 22009G15KT 10SM CLR 02/01 A2991 RMK AO2 T00220013
KSKA 190411Z AUTO 16011KT 10SM -RA BKN037 BKN110 04/01 A2948 RMK AO2 RAE02RAB11
KSKF 190358Z AUTO 03004KT 10SM OVC017 13/10 A2999 RMK AO2 SLP155 T01330101 CHINO RWY15 $
KSKX 190415Z AUTO 00000KT 10SM OVC044 M02/M08 A2997 RMK AO1
KSLB 190415Z AUTO 18013KT 10SM CLR 02/01 A2985 RMK AO2
KSLC 190354Z 00000KT 5SM BR OVC110 M04/M06 A2991 RMK AO2 SLP152 T10391061
KSLE 190356Z AUTO 18017G24KT 10SM -RA FEW033 BKN070 OVC100 08/04 A2941 RMK AO2 PK WND 20042/0302 SLP961 P0001 T00780044
KSLG 190415Z AUTO 15004KT 10SM OVC008 08/07 A2996 RMK AO1
KSLH 190414Z AUTO 24006KT 10SM OVC012 01/00 A2991 RMK AO2 T00160000
KSLI 190358Z 00000KT 6SM -RA BR BKN025 BKN040 OVC080 12/10 A3011 RMK AO2A RAB08 SLP199 P0004 T01240101
KSLK 190413Z AUTO 24008G16KT 1 1/4SM -SN BR OVC007 00/M02 A2989 RMK AO2 P0000 T00001017 $
KSLN 190353Z 16011KT 10SM CLR 07/03 A2989 RMK AO2 SLP120 T00720028 $
KSLO 190415Z AUTO 00000KT 10SM CLR 05/03 A3010 RMK AO2 T00530027
KSLR 190415Z AUTO 00000KT 4SM BR OVC003 11/11 A3001 RMK AO2 T01070107
KSME 190415Z AUTO 00000KT 10SM CLR 03/03 A3013 RMK AO2
KSMF 190353Z 15034G44KT 6SM -RA BR SCT019 OVC042 09/08 A2971 RMK AO2 PK WND 15055/0313 RAB0255 SLP060 P0006 T00890078
KSMN 190415Z AUTO 03003KT 10SM SCT050 SCT060 BKN085 M11/M13 A2974 RMK AO1
KSMO 190351Z 09005KT 10SM -RA OVC085 12/11 A3008 RMK AO2 SLP185 P0003 T01170106
KSMP 190356Z AUTO VRB04KT 1/4SM -SN FZFG VV001 M02/M02 A2928 RMK AO2 SNB55 SLP942 P0000 T10221022 FZRANO $
KSMQ 190353Z AUTO 00000KT 10SM OVC065 04/02 A3001 RMK AO2 SLP165 T00390022
KSMS 190415Z AUTO 00000KT 10SM CLR 09/09 A3005 RMK AO2
KSMX 190351Z AUTO 13011KT 10SM OVC085 12/08 A2994 RMK AO2 SLP143 T01170078 $
KSNA 190353Z 09007KT 10SM -RA FEW060 SCT070 OVC090 13/09 A3011 RMK AO2 RAB29 SLP197 P0001 T01330094 $
KSNC 190415Z AUTO 35006KT 3/4SM BR OVC001 02/01 A3000 RMK AO2
KSNH 190415Z AUTO 00000KT 10SM SCT035 BKN044 OVC050 12/10 A3005 RMK A01
KSNK 190415Z AUTO 17006KT 10SM CLR 06/05 A2996 RMK AO2 T00610051
KSNL 190415Z AUTO 17006KT 10SM SCT020 BKN036 09/07 A2995 RMK AO2 T00860066
KSNS 190353Z AUTO 12023G34KT 10SM SCT025 OVC050 11/08 A2981 RMK AO2 PK WND 10042/0305 SLP104 T01110083
KSNT 190351Z AUTO 16011G18KT 01/00 A2968 RMK AO1 SLP051 T00110000
KSNY 190353Z AUTO 26006KT 10SM CLR M03/M05 A2968 RMK AO2 SLP072 T10281050
KSOA 190415Z AUTO 00000KT 9SM CLR 04/04 A3006 RMK AO2
KSOP 190356Z AUTO 01003KT 10SM CLR 08/02 A3007 RMK AO2 SLP200 T00830022
KSOW 190415Z AUTO 20007KT 10SM CLR 00/M02 A3008 RMK AO2
KSPA 190415Z AUTO 00000KT 10SM CLR 09/M04 A3006 RMK AO2
KSPB 190353Z AUTO 8SM -RA BKN022 BKN027 OVC050 04/04 A2934 RMK AO2 SLP935 P0005 T00440039
KSPD 190356Z AUTO 30006KT M03/M03 A2973 RMK AO1 SLP074 T10281033
KSPF 190415Z AUTO 30005KT 10SM CLR 03/M05 A2959 RMK AO2
KSPG 190353Z 00000KT 10SM CLR 19/17 A3011 RMK AO2 SLP196 T01940172
KSPI 190352Z AUTO 17006KT 6SM BR CLR 04/02 A3008 RMK AO2 SLP191 T00390017
KSPR 190415Z AUTO 17018KT 2 1/2SM BR BKN028 BKN036 23/23 A3002 RMK A01
KSPS 190352Z AUTO 16009KT 8SM CLR 06/05 A2995 RMK AO2 SLP143 T00610050
KSPW 190353Z AUTO 18007KT CLR 02/01 A2983 RMK AO2 SLP114 T00170011 $
KSQE 190415Z AUTO 16005G11KT 4SM BR FEW006 BKN019 OVC026 23/23 A3005 RMK A01
KSQI 190356Z AUTO 14003KT 6SM BR CLR 00/M01 A3004 RMK AO2 SLP197 T00001006 FZRANO
KSQL 190350Z 25011G23KT 2SM RA SCT004 OVC031 12/10 A2980
KSRC 190356Z AUTO 04006KT 10SM BKN010 OVC015 08/07 A3005 RMK AO2 SLP184 T00830072
KSRQ 190353Z 00000KT 10SM CLR 16/15 A3011 RMK AO2 SLP196 T01610150
KSRR 190415Z AUTO 29012G18KT 10SM SCT039 03/M03 A2997 RMK AO2 LTG DSNT W
KSSC 190358Z AUTO 00000KT 10SM CLR 11/07 A3002 RMK AO2 SLP166 T01070070 $
KSSF 190353Z AUTO 07003KT 10SM OVC018 14/11 A3000 RMK AO2 SLP157 T01440106
KSSI 190353Z AUTO 25004KT 10SM CLR 18/14 A3008 RMK AO2 SLP186 T01780144
KSTC 190419Z 13003KT 2SM BR CLR M03/M03 A2979 RMK AO2 T10281028
KSTE 190415Z AUTO 17004KT 4SM BR CLR M02/M02 A2993 RMK AO2 T10231023
KSTF 190415Z AUTO 00000KT 7SM RA SCT050 SCT060 OVC110 15/15 A3007 RMK AO2
KSTJ 190353Z AUTO 16006KT 9SM CLR 03/02 A2996 RMK AO2 SLP152 T00280022
KSTK 190350Z AUTO 00000KT 10SM CLR M04/M05 A2970 RMK AO2
KSTL 190351Z 17005KT 10SM SCT130 BKN150 OVC200 07/02 A3006 RMK AO2 SLP186 T00670022 $
KSTP 190353Z AUTO 15005KT 4SM BR CLR M01/M01 A2985 RMK AO2 SLP116 T10061006
KSTS 190400Z AUTO 17003KT 10SM -RA BKN060 BKN075 OVC100 10/09 A2970 RMK AO2 P0000 T01000094
KSUA 190415Z AUTO 00000KT 10SM CLR 18/16 A3012 RMK AO2
KSUE 190356Z AUTO 22010KT 10SM CLR 01/M01 A2993 RMK AO2 SLP159 T00111011 FZRANO
KSUN 190349Z 00000KT 3/4SM SN OVC005 M03/M03 A2981
KSUS 190354Z 08003KT 10SM OVC080 06/03 A3005 RMK AO2 SLP181 T00610033
KSUT 190405Z AUTO 09003KT 10SM CLR 12/10 A3005 RMK AO2 T01230100
KSUU 190423Z 17018G29KT 3SM -RA BR SCT002 BKN008 BKN015 OVC028 09/08 A2977 RMK AO2A CIG 008V022 BKN008 V SCT $
KSUW 190415Z AUTO 23003KT 10SM CLR M01/M03 A2982 RMK AO2 T10151029
KSUX 190352Z 12009KT 10SM CLR 03/01 A2983 RMK AO2 SLP111 T00280011
KSVC 190415Z AUTO 33006KT 10SM CLR M01/M02 A3007 RMK AO2 T10091016
KSVH 190420Z AUTO 00000KT 10SM CLR 09/04 A3007 RMK AO2 T00870038
KSVN 190358Z AUTO 26007KT 10SM CLR 17/16 A3003 RMK AO2 SLP172 T01670155
KSWF 190345Z 00000KT 2SM BR BKN009 OVC021 02/02 A3003
KSWO 190353Z AUTO 15007KT 10SM BKN045 09/05 A2993 RMK AO2 SLP135 T00890050
KSWW 190415Z AUTO 17009KT 10SM CLR 07/06 A2998 RMK AO2 T00650064
KSXT 190356Z AUTO 19011G18KT 1/2SM FG VV002 01/01 A2947 RMK AO2 SNE38 SLP989 P0004 T00060006
KSYF 190410Z AUTO 21006KT 10SM CLR 00/M01 A2973 RMK AO2 T10011014
KSYI 190415Z AUTO 00000KT 10SM FEW120 08/07 A3010 RMK
KSYM 190410Z AUTO 00000KT 10SM OVC015 05/03 A3016 RMK AO2
KSYN 190413Z AUTO 19009KT 10SM CLR 02/00 A2983 RMK AO2 T00230000
KSYR 190354Z 26005KT 6SM -DZ BR FEW006 SCT010 OVC017 02/02 A3000 RMK AO2 SLP158 P0000 T00220022 $
KSZL 190358Z AUTO 13006KT 10SM BKN075 05/05 A2997 RMK AO2 SLP157 T00540052 $
KSZT 190415Z AUTO 00000KT 1 1/2SM -DZ BKN002 BKN042 00/00 A2953 RMK AO2
KT20 190415Z AUTO 00000KT 10SM OVC009 13/12 A3002 RMK AO2 T01260123
KT35 190415Z AUTO 00000KT 7SM OVC014 11/10 A3002 RMK AO2 T01070100
KT65 190415Z AUTO 01005KT 10SM -RA OVC034 16/14 A3002 RMK AO2 T01610137
KT70 190358Z AUTO 26006KT 10SM BKN120 09/08 A2996 RMK AO2 SLP144 T00900080 $
KT82 190415Z AUTO 00000KT 10SM OVC003 09/08 A3001 RMK AO2 T00910084
KTAD 190354Z AUTO 32008KT 10SM CLR M02/M08 A2974 RMK AO2 SLP082 T10221078
KTAN 190419Z AUTO 32005KT 2 1/2SM BR OVC002 02/01 A3000 RMK AO2 T00170011
KTAZ 190415Z AUTO 16006KT 7SM CLR 03/02 A3008 RMK AO2 T00300020
KTBN 190418Z AUTO 14006KT 10SM SCT015 BKN034 OVC047 06/05 A3001 RMK AO2
KTBR 190415Z AUTO 29003KT 10SM CLR 16/15 A3006 RMK AO2 T01640151
KTBX 190420Z AUTO 16010KT 10SM CLR M06/M11 A2981 RMK AO2 PWINO
KTCC 190353Z AUTO 23011KT 10SM CLR 06/00 A2976 RMK AO2 SLP070 T00560000
KTCL 190353Z AUTO 00000KT 8SM FEW080 14/13 A3008 RMK AO2 SLP185 T01390133
KTCM 190358Z AUTO 19006KT 10SM -RA FEW032 BKN045 OVC055 09/08 A2924 RMK AO2 RAB0259E00DZB00E02RAB02 SLP906 P0007 T00850083 $
KTCS 190353Z AUTO 29007KT 10SM SCT075 07/01 A3001 RMK AO2 SLP144 T00670006
KTDF 190420Z AUTO 34004KT 10SM CLR 07/01 A3008 RMK AO2
KTDR 190356Z AUTO 00000KT 3/8SM FG VV002 16/17 A3011 RMK AO2 SLP200 T01590167 $
KTDZ 190353Z AUTO 23011G21KT 5SM BR OVC005 02/02 A3010 RMK AO2 SLP199 T00220017
KTEB 190351Z 00000KT 10SM -DZ SCT037 BKN050 OVC070 04/02 A3003 RMK AO2 DZB43 SLP167 P0000 T00440022
KTEW 190425Z AUTO 23008KT 7SM OVC004 00/00 A3005 RMK AO2 T00020000
KTEX 190415Z AUTO 00000KT 10SM CLR M05/M08 A3002 RMK AO2 T10531080
KTFP 190415Z AUTO 03009KT 10SM DZ OVC110 15/14 A3001 RMK AO2 T01510135
KTGI 190420Z AUTO 32008KT 10SM OVC038 07/06 A3004 RMK AO1
KTHA 190415Z AUTO 12004KT 10SM CLR 08/06 A3007 RMK
KTHV 190353Z AUTO 29004KT 10SM OVC030 06/03 A3005 RMK AO2 SLP179 T00610028
KTIF 190415Z AUTO 19010KT 10SM CLR 02/00 A2971 RMK AO2 T00170000
KTIK 190358Z 18006KT 10SM BKN015 08/07 A2993 RMK AO2A SLP146 T00830071 $
KTIP 190415Z AUTO 17006KT 5SM BR CLR 02/01 A3010 RMK AO2 T00160012
KTIW 190353Z 17004KT 10SM -RA OVC044 09/08 A2925 RMK AO2 SLP904 P0005 T00940078
KTIX 190147Z VRB04KT 7SM SCT120 17/16 A3012 RMK LAST
KTKC 190413Z AUTO 21019G27KT 10SM CLR 05/03 A2974 RMK AO2 T00500029
KTKI 190424Z AUTO 18004KT 8SM SCT003 OVC025 10/10 A2999 RMK AO2 T01000100
KTKV 190415Z AUTO 00000KT 4SM BR CLR M02/M03 A2987 RMK AO2 T10251031
KTKX 190415Z AUTO 04006KT 4SM BR SCT020 SCT029 OVC043 08/08 A3005 RMK AO2
KTLH 190407Z AUTO 00000KT 1/4SM FG VV002 17/17 A3011 RMK AO2 T01720172
KTMA 190415Z AUTO 00000KT 10SM CLR 17/15 A3010 RMK AO2 T01700152
KTMB 190353Z AUTO 00000KT 10SM CLR 17/14 A3012 RMK AO2 SLP198 T01670144
KTME 190415Z AUTO 33006KT 7SM OVC004 12/12 A3001 RMK AO2
KTMK 190415Z AUTO 00000KT 5SM SN SCT022 BKN029 OVC035 08/06 A2937 RMK AO2
KTNB 190415Z AUTO 28011G17KT 10SM CLR 07/01 A3010 RMK AO2 T00660008
KTNU 190415Z AUTO 19010KT M1/4SM FG OVC002 01/00 A2996 RMK AO2 PWINO
KTOA 190347Z 12004KT 10SM FEW040 11/10 A3010 RMK LAST
KTOB 190413Z AUTO 18012KT 7SM CLR 01/00 A2986 RMK AO2
KTOC 190415Z AUTO 33005KT 10SM CLR 18/M05 A3007 RMK AO2
KTOI 190353Z AUTO 00000KT 10SM CLR 14/14 A3011 RMK AO2 SLP192 T01440139
KTOL 190416Z 26009KT 6SM BR OVC005 01/01 A3009 RMK AO2 T00110011
KTOP 190353Z AUTO 11003KT 7SM FEW070 03/01 A2995 RMK AO2 SLP147 T00280006
KTOR 190353Z AUTO 00000KT 10SM CLR 01/M07 A2966 RMK AO2 SLP066 T00061072
KTPA 190353Z 00000KT 10SM SCT300 20/18 A3013 RMK AO2 SLP203 T02000178
KTPF 190415Z AUTO 00000KT 10SM OVC110 19/19 A3012 RMK AO2
KTPH 190356Z AUTO 14005KT 10SM OVC050 02/M08 A2991 RMK AO2 SLP139 T00171078
KTPL 190251Z AUTO 00000KT 10SM OVC019 11/10 A3003 RMK AO2 SLP186 T01060100 57001
KTQE 190354Z AUTO 15011KT 10SM CLR 02/00 A2987 RMK AO2 SLP119 T00170000
KTQH 190415Z AUTO 12003KT 10SM OVC008 07/06 A2997 RMK AO2
KTRI 190353Z 00000KT 10SM FEW250 04/03 A3014 RMK AO2 SLP197 T00440028
KTRK 190415Z AUTO 21013G28KT 3SM -RA SCT017 BKN023 OVC027 02/00 A2965 RMK AO2 P0001
KTRL 190422Z AUTO 00000KT 8SM BKN006 OVC019 10/09 A2999 RMK AO2 T01000094
KTRM 190352Z AUTO 00000KT 10SM CLR 13/05 A3003 RMK AO2 SLP169 T01280050
KTSP 190415Z AUTO 00000KT 3SM -RA FEW031 OVC050 02/02 A2997 RMK AO2 P0001
KTTA 190405Z AUTO 00000KT 10SM CLR 05/03 A3007 RMK AO2 T00500031
KTTD 190421Z AUTO 20020G28KT 10SM -RA BKN060 OVC080 09/06 A2941 RMK AO2 PK WND 22031/0404 WSHFT 0401 P0000 T00940056
KTTF 190413Z AUTO 25012G16KT 5SM BR OVC006 01/01 A3008 RMK AO2 T00120010
KTTN 190353Z AUTO 00000KT 10SM OVC050 05/03 A3003 RMK AO2 SLP164 T00500033
KTTS 190358Z AUTO 00000KT 10SM CLR 18/16 A3009 RMK AO2 SLP194 T01750158
KTUL 190353Z 16008KT 10SM OVC007 08/07 A2996 RMK AO2 SLP147 T00830072
KTUP 190353Z 00000KT 10SM BKN045 OVC050 14/11 A3005 RMK AO2 SLP175 T01390111 $
KTUS 190353Z 22003KT 10SM CLR 11/05 A3008 RMK AO2 SLP173 T01060050
KTVC 190353Z AUTO VRB06KT 10SM OVC011 02/M01 A2995 RMK AO2 SLP148 T00221006
KTVF 190356Z AUTO 17012KT 10SM CLR M02/M06 A2966 RMK AO2 SLP063 T10221056 FZRANO
KTVI 190415Z AUTO 00000KT 10SM CLR 16/16 A3012 RMK AO2
KTVL 190353Z AUTO 20015G22KT 6SM -SN OVC023 03/00 A2968 RMK AO2 RAB0259E18B42E45SNE11B18 SLP031 P0002 T00280000
KTVR 190353Z AUTO 12006KT 3SM -RA BR FEW004 SCT033 BKN110 17/17 A3000 RMK AO2 SLP165 P0004 T01720172
KTVY 190415Z AUTO 00000KT 5SM BR OVC110 M03/M05 A2991 RMK AO2
KTWF 190353Z 04006KT 6SM -FZRA BR OVC038 M02/M04 A2977 RMK AO2 UPE0255FZRAB0255 SLP101 P0006 I1003 T10171039
KTWM 190414Z AUTO 00000KT 10SM CLR 00/M03 A2978 RMK AO2
KTXK 190413Z AUTO 04007KT 1 3/4SM BR OVC002 09/09 A3000 RMK AO2 T00890089 $
KTYQ 190415Z AUTO 21004KT 10SM OVC007 02/00 A3012 RMK AO2 T00150003
KTYR 190407Z AUTO 00000KT 10SM FEW003 SCT016 OVC034 11/11 A2997 RMK AO2 T01110106
KTYS 190353Z 00000KT 10SM FEW150 OVC250 08/06 A3011 RMK AO2 SLP193 T00830056 $
KTZR 190415Z AUTO 22007KT 10SM OVC008 04/03 A3012 RMK AO2 T00350025
KU42 190415Z AUTO 00000KT 5SM OVC100 M04/M04 A2988 RMK AO1 T10441044
KU68 190415Z AUTO 22003KT 10SM CLR M12/M15 A2971 RMK AO2
KUAO 190353Z 19020G30KT 10SM -RA BKN048 BKN070 OVC095 09/07 A2940 RMK AO2 PK WND 19037/0322 SLP957 P0003 T00890067
KUBE 190415Z AUTO 18005KT 2 1/2SM BR CLR M03/M03 A2984 RMK AO2
KUCP 190409Z AUTO 21004KT 4SM BR OVC008 03/03 A3010 RMK AO2 CIG 004V010 $
KUCY 190415Z AUTO 00000KT 10SM FEW060 BKN080 OVC095 07/07 A3006 RMK
KUDG 190356Z AUTO 33003KT 10SM CLR 08/06 A3005 RMK AO2 SLP182 T00830056 402500078
KUES 190415Z AUTO 22006G14KT 5SM BR OVC005 00/M01 A3001 RMK AO2
KUGN 190355Z AUTO 23009KT 5SM BR OVC009 01/M01 A3003 RMK AO2 SLP178 T00111006
KUIL 190420Z AUTO VRB04KT 5SM RA BR FEW011 SCT028 OVC037 08/08 A2921 RMK AO2 P0010 T00830078
KUIN 190354Z AUTO 14006KT 8SM CLR 01/00 A3003 RMK AO2 SLP174 T00110000
KUKF 190420Z AUTO 04004KT 10SM CLR 09/03 A3012 RMK AO2
KUKI 190356Z AUTO 17004KT 10SM SCT038 BKN070 OVC095 09/08 A2967 RMK AO2 RAE52 SLP044 P0013 T00890078
KUKT 190415Z AUTO 00000KT 10SM OVC020 04/04 A3003 RMK AO1
KULM 190414Z AUTO 17010KT 10SM CLR 01/01 A2980 RMK AO2
KUNI 190410Z AUTO 00000KT 10SM OVC013 04/03 A3014 RMK AO2 T00420025
KUNO 190353Z AUTO 00000KT 10SM BKN004 OVC030 05/04 A3005 RMK AO2 SLP181 T00500044
KUNU 190415Z AUTO 21014KT 3SM BR OVC005 00/M01 A2999 RMK AO2 T10011008
KUNV 190415Z AUTO 25006KT 10SM OVC016 03/02 A3005 RMK AO2 T00310015
KUOX 190415Z AUTO 13007KT 8SM -RA CLR 11/10 A3004 RMK AO2
KUSE 190415Z AUTO 25006KT 4SM BR OVC004 01/01 A3007 RMK AO2
KUTA 190415Z AUTO 01003KT 10SM OVC008 10/10 A3000 RMK AO2 TSNO
KUTS 190414Z AUTO 33003KT 10SM BKN005 OVC014 12/11 A2999 RMK AO2 T01170106
KUUU 190353Z AUTO 35006KT 3SM BR OVC002 02/02 A2997 RMK AO2 SLP149 T00220022
KUVA 190415Z AUTO 00000KT 10SM CLR 11/10 A3002 RMK AO2 T01050095
KUXL 190415Z AUTO 19007KT 5SM VCTS BR OVC003 22/22 A2996 RMK AO2 T02170216
KUYF 190415Z AUTO 27006KT 10SM OVC006 03/03 A3010 RMK AO2
KUZA 190354Z AUTO 00000KT 10SM CLR 07/M02 A3007 RMK AO2 SLP179 T00721017
KVAD 190358Z AUTO 21003KT 10SM CLR 15/14 A3009 RMK AO2 SLP191 T01470138 $
KVAF 190415Z AUTO 00000G10KT 1 3/4SM BR VV007 23/23 A2997 RMK A01
KVAY 190354Z AUTO 27003KT 10SM OVC060 03/02 A3004 RMK AO2 SLP171 T00330022 TSNO
KVBG 190358Z AUTO 13015G22KT 10SM BKN080 BKN090 OVC120 11/10 A2994 RMK AO2 PK WND 12030/44 SLP142 T01110097
KVBT 190415Z AUTO 13005KT 8SM FEW005 OVC012 A2997 RMK AO1
KVBW 190415Z AUTO 32003KT 10SM CLR 00/00 A3009 RMK AO2 T00031001
KVCB 190416Z AUTO 16013G29KT 5SM RA BR SCT008 BKN025 OVC033 09/08 A2979 RMK AO2 PK WND 21035/0358 WSHFT 0400 P0009 T00890083
KVCT 190351Z 35005KT 9SM OVC005 13/12 A3002 RMK AO2 SLP164 T01330122
KVCV 190415Z AUTO 19012KT 10SM -RA OVC065 08/03 A3001 RMK AO2
KVDF 190415Z AUTO 00000KT 7SM CLR 16/14 A3013 RMK AO2
KVDI 190415Z AUTO 25003KT 10SM CLR 17/16 A3008 RMK AO2
KVEL 190353Z AUTO 29005KT 9SM CLR M14/M17 A3005 RMK AO2 SLP247 T11441167
KVER 190415Z AUTO 10006KT 10SM OVC085 07/02 A3000 RMK AO2 T00720017
KVES 190415Z AUTO 23008KT 5SM BR OVC003 02/02 A3011 RMK AO2
KVGT 190353Z AUTO 07005KT 10SM BKN120 11/M03 A2994 RMK AO2 SLP162 T01061033
KVIH 190353Z AUTO 17008KT 10SM OVC060 07/03 A3001 RMK AO2 SLP167 T00670033 $
KVIS 190356Z AUTO 11007KT 10SM BKN075 OVC100 09/08 A2995 RMK AO2 RAB07E49 SLP150 P0001 T00940078
KVJI 190415Z AUTO 00000KT 10SM CLR 04/03 A3013 RMK AO2 T00420028
KVKS 190415Z AUTO 14004KT 6SM BR SCT028 BKN080 OVC110 19/18 A2999 RMK A01
KVKY 190410Z AUTO 00000KT 10SM CLR 23/21 A3008 RMK A01
KVLD 190422Z AUTO 00000KT 1 1/2SM BR FEW005 12/12 A3010 RMK AO2 T01220117
KVLL 190415Z AUTO 22010KT 10SM OVC009 02/00 A3006 RMK AO2 T00190000
KVNC 190415Z AUTO 00000KT 10SM FEW100 18/17 A3012 RMK AO2
KVNY 190351Z AUTO 10006KT 10SM -RA BKN070 OVC095 11/09 A3007 RMK AO2 SLP181 P0003 T01110094
KVOA 190415Z AUTO VRB06KT 9SM FEW009 FEW013 SCT043 23/21 A3008 RMK A01
KVOK 190358Z AUTO VRB04KT 10SM CLR 00/M02 A2993 RMK AO2 SLP149 T10011017
KVPC 190353Z AUTO 00000KT 10SM CLR 12/10 A3011 RMK AO2 SLP188 T01170100
KVPS 190356Z 00000KT 1/8SM R19/2400V3500FT FG VV001 18/18 A3010 RMK AO2A SLP199 T01760176 $
KVPZ 190356Z AUTO 21009KT 6SM BR OVC011 03/01 A3009 RMK AO2 SLP195 T00280011
KVQQ 190415Z AUTO 00000KT 7SM CLR 17/17 A3009 RMK AO2
KVRB 190353Z AUTO 00000KT 6SM BR CLR 16/15 A3012 RMK AO2 SLP198 T01610150
KVSF 190416Z AUTO 00000KT 8SM FEW009 BKN025 OVC032 M01/M02 A3000 RMK AO2 SNE0357 P0000 T10111022
KVTA 190354Z AUTO 24008KT 10SM OVC008 04/02 A3012 RMK AO2 SLP204 T00390017
KVTI 190435Z AUTO 18010KT 7SM CLR 02/01 A2997 RMK AO2
KVTN 190352Z AUTO 00000KT 10SM CLR 01/M04 A2967 RMK AO2 SLP070 T00111044
KVTP 190414Z AUTO 05033G41KT 1 1/4SM BR OVC001 M07/M09 A2986 RMK AO2
KVUJ 190400Z AUTO 00000KT 10SM CLR 07/03 A3012 RMK AO2 T00650033 PWINO
KVUO 190353Z AUTO 18009G16KT 150V220 10SM -RA SCT022 BKN029 OVC043 08/07 A2937 RMK AO2 SLP947 P0005 T00780067
KVVG 190415Z AUTO 00000KT 10SM 16/16 A3001 RMK A01
KVVV 190414Z AUTO 00000KT 7SM CLR M02/M04 A2972 RMK AO2
KVWU 190417Z AUTO 17005KT 10SM CLR 01/M03 A2969 RMK AO2
KVYS 190415Z AUTO 17007KT 3SM BR CLR M01/M02 A3006 RMK AO2 T10111019
KW13 190415Z AUTO 27005KT 10SM CLR 05/01 A3009 RMK AO1 T00490010
KW22 190415Z AUTO 22003KT 10SM BKN008 OVC014 03/03 A3012 RMK AO2 PWINO
KW29 190420Z AUTO 33006KT 10SM OVC035 07/03 A3005 RMK AO2 TSNO
KW31 190415Z AUTO 00000KT 10SM CLR 05/03 A3008 RMK AO1 T00450027
KW43 190415Z AUTO 21008KT 10SM CLR 00/M06 A2962 RMK AO2
KW63 190415Z AUTO 00000KT 10SM CLR 07/02 A3007 RMK AO1
KW75 190415Z AUTO 31003KT 10SM CLR 04/04 A3005 RMK AO1 T00390039
KW78 190415Z AUTO 36004KT 10SM CLR 06/02 A3007 RMK AO1 T00620018
KW81 190415Z AUTO 00000KT 10SM CLR 03/03 A3008 RMK AO1 T00290029
KW96 190415Z AUTO 31005KT 10SM CLR 08/03 A3006 RMK AO1 T00750028
KW99 190410Z AUTO 00000KT 10SM CLR 01/00 A3010 RMK AO2 T00110004
KWAL 190354Z AUTO 01005KT 10SM OVC037 09/06 A3004 RMK AO2 SLP170 T00940056
KWDG 190415Z AUTO 16007KT 10SM OVC019 06/06 A2990 RMK AO2
KWDR 182255Z AUTO 25006KT 10SM CLR 21/08 A3008 RMK AO1
KWHP 190353Z 00000KT 10SM OVC070 10/08 A3012 RMK LAST
KWJF 190356Z 23011KT 10SM -RA FEW055 BKN070 OVC110 07/04 A3001 RMK AO2 SLP176 P0002 T00720044
KWLD 190354Z AUTO 15004KT 10SM OVC050 08/04 A2993 RMK AO2 SLP139 T00830044
KWMC 190356Z AUTO 18014KT 10SM UP FEW040 OVC049 01/01 A2971 RMK AO2 RAE50UPB50 SLP070 P0003 T00110011
KWRB 190358Z AUTO 00000KT 10SM CLR 14/13 A3009 RMK AO2 SLP191 T01410134
KWRI 190358Z AUTO 00000KT 10SM OVC060 03/02 A3000 RMK AO2 SLP160 T00290017
KWRL 190353Z AUTO 13015KT 10SM CLR M06/M09 A2973 RMK AO2 SLP123 T10561089
KWST 190353Z AUTO 35005KT 9SM OVC004 03/01 A3000 RMK AO2 SLP159 T00330011
KWVI 190353Z AUTO 14009G18KT 10SM -RA OVC033 11/09 A2981 RMK AO2 SLP094 P0007 T01110094
KWVL 190356Z AUTO 35005KT 10SM OVC025 A3003 RMK AO2 SLPNO FZRANO
KWWD 190356Z AUTO 36003KT 10SM CLR 06/04 A3004 RMK AO2 SLPNO T00560039 $
KWWR 190415Z AUTO 18011G16KT 10SM OVC008 07/06 A2988 RMK AO2
KWYS 190405Z AUTO 00000KT 10SM OVC042 M11/M12 A2982 RMK AO2
KX60 190415Z AUTO 00000KT 8SM CLR 17/17 A3011 RMK A01
KXBP 190415Z AUTO 21005KT 10SM CLR 08/08 A3000 RMK AO2 T00770077
KXIH 190415Z AUTO 00000KT 2SM BR OVC004 20/19 A2995 RMK A01
KXLL 190415Z AUTO 00000KT 10SM OVC022 06/04 A3004 RMK AO2
KXMR 190358Z AUTO 00000KT 10SM CLR 17/15 A3009 RMK AO2 SLP193 T01710151 $
KXNA 190353Z 14004KT 8SM OVC007 09/09 A2997 RMK AO2 CIG 003V009 SLP149 T00890089
KXPY 190415Z AUTO 16006KT 6SM BR OVC002 21/21 A3004 RMK A01
KXSA 190415Z AUTO 31003KT 10SM CLR 07/M01 A3007 RMK AO2 T00741012
KXVG 190416Z AUTO 15004KT 10SM CLR M03/M04 A2975 RMK AO2
KY19 190415Z AUTO 15008KT 10SM CLR M03/M06 A2959 RMK AO2
KY23 190415Z AUTO 13004KT 3SM BR CLR M02/M02 A2987 RMK AO2 T10191023
KY31 190414Z AUTO 24009KT 10SM OVC012 01/00 A2994 RMK AO2 T00111003
KY49 190415Z AUTO 18006KT 10SM CLR 00/M04 A2973 RMK AO2 T00001040
KY50 190417Z AUTO 17003KT 4SM BR SCT008 M02/M03 A2995 RMK AO2
KY51 190415Z AUTO 20007KT 1/4SM OVC003 00/00 A2993 RMK AO1 T00030003
KY63 190416Z AUTO 10009KT 5SM BR CLR M02/M02 A2974 RMK AO2 T10161025
KY70 190414Z AUTO 23012KT 7SM OVC007 00/00 A3003 RMK AO2 T00021001
KYIP 190353Z AUTO 24013KT 10SM OVC007 02/01 A3008 RMK AO2 SLP188 T00170006
KYKM 190405Z 00000KT 2 1/2SM BR OVC016 00/M02 A2945 RMK AO2 SFC VIS 3 FZRAE0359 P0000 I1000 T00001017 $
KYKN 190415Z AUTO 16007KT 10SM CLR 02/01 A2976 RMK AO1
KYNG 190351Z 23006KT 3SM -DZ BR OVC004 03/02 A3008 RMK AO2 SLP196 P0000 T00280017
KZPH 190415Z AUTO 00000KT 10SM CLR 15/14 A3013 RMK AO2 T01500142
KZZV 190353Z AUTO 25005KT 10SM OVC009 04/02 A3012 RMK AO2 SLP205 T00390017 TSNO